Provisional Data: West Branch Pine Creek near Galeton, PA


Please select a monitoring station.
Please select start date.
Please select start date.

Toggle Unit: C/F Toggle Unit: C/F
Sample Time Temperature (C) Temperature (F) Specific Conductivity (mS/cm) pH   Turbidity (NTU+) DO (mg/L)
8/9/2021 12:00:00 AM 18.43 65.174 0.052 6.96 1.35 8.7
8/9/2021 12:15:00 AM 18.36 65.048 0.052 6.97 1.38 8.71
8/9/2021 12:30:00 AM 18.3 64.94 0.053 6.96 1.37 8.72
8/9/2021 12:45:00 AM 18.24 64.832 0.053 6.96 1.38 8.74
8/9/2021 1:00:00 AM 18.18 64.724 0.053 6.94 1.37 8.75
8/9/2021 1:15:00 AM 18.12 64.616 0.053 6.95 1.33 8.77
8/9/2021 1:30:00 AM 18.07 64.526 0.053 6.96 1.29 8.77
8/9/2021 1:45:00 AM 18.02 64.436 0.053 6.97 1.35 8.78
8/9/2021 2:00:00 AM 17.98 64.364 0.053 6.97 1.34 8.79
8/9/2021 2:15:00 AM 17.93 64.274 0.052 6.96 1.85 8.81
8/9/2021 2:30:00 AM 17.89 64.202 0.053 6.98 1.3 8.82
8/9/2021 2:45:00 AM 17.84 64.112 0.053 6.98 1.32 8.82
8/9/2021 3:00:00 AM 17.79 64.022 0.053 6.97 1.3 8.83
8/9/2021 3:15:00 AM 17.75 63.95 0.054 6.97 1.33 8.84
8/9/2021 3:30:00 AM 17.7 63.86 0.052 6.98 1.88 8.84
8/9/2021 3:45:00 AM 17.65 63.77 0.051 6.97 1.92 8.86
8/9/2021 4:00:00 AM 17.61 63.698 0.054 6.97 1.25 8.87
8/9/2021 4:15:00 AM 17.56 63.608 0.054 6.99 5.8 8.89
8/9/2021 4:30:00 AM 17.52 63.536 0.054 6.99 1.28 8.89
8/9/2021 4:45:00 AM 17.48 63.464 0.054 6.99 1.27 8.9
8/9/2021 5:00:00 AM 17.43 63.374 0.054 6.98 1.29 8.91
8/9/2021 5:15:00 AM 17.39 63.302 0.054 6.99 1.3 8.92
8/9/2021 5:30:00 AM 17.35 63.23 0.054 6.99 1.36 8.93
8/9/2021 5:45:00 AM 17.31 63.158 0.054 6.98 1.36 8.94
8/9/2021 6:00:00 AM 17.27 63.086 0.054 7 1.35 8.94
8/9/2021 6:15:00 AM 17.24 63.032 0.054 6.99 1.32 8.95
8/9/2021 6:30:00 AM 17.2 62.96 0.053 6.98 1.32 8.96
8/9/2021 6:45:00 AM 17.16 62.888 0.052 6.97 1.92 8.99
8/9/2021 7:00:00 AM 17.12 62.816 0.053 7 1.3 9.02
8/9/2021 7:15:00 AM 17.09 62.762 0.052 6.99 1.93 9.05
8/9/2021 7:30:00 AM 17.06 62.708 0.051 7 1.85 9.09
8/9/2021 7:45:00 AM 17.04 62.672 0.053 7 1.36 9.14
8/9/2021 8:00:00 AM 17.02 62.636 0.052 7.03 2.01 9.2
8/9/2021 8:15:00 AM 17.02 62.636 0.053 7.03 1.26 9.25
8/9/2021 8:30:00 AM 17.02 62.636 0.053 7.05 1.26 9.29
8/9/2021 8:45:00 AM 17.04 62.672 0.053 7.07 1.29 9.34
8/9/2021 9:00:00 AM 17.05 62.69 0.053 7.07 1.29 9.37
8/9/2021 9:15:00 AM 17.09 62.762 0.052 7.1 1.3 9.41
8/9/2021 9:30:00 AM 17.17 62.906 0.052 7.1 1.29 9.44
8/9/2021 9:45:00 AM 17.22 62.996 0.052 7.13 1.31 9.45
8/9/2021 10:00:00 AM 17.27 63.086 0.052 7.13 1.25 9.46
8/9/2021 10:15:00 AM 17.37 63.266 0.051 7.15 1.77 9.46
8/9/2021 10:30:00 AM 17.5 63.5 0.052 7.18 1.34 9.45
8/9/2021 10:45:00 AM 17.65 63.77 0.052 7.18 1.25 9.42
8/9/2021 11:00:00 AM 17.81 64.058 0.052 7.19 1.29 9.4
8/9/2021 11:15:00 AM 17.97 64.346 0.052 7.2 1.22 9.38
8/9/2021 11:30:00 AM 18.15 64.67 0.051 7.21 1.8 9.36
8/9/2021 11:45:00 AM 18.33 64.994 0.052 7.23 1.3 9.34
8/9/2021 12:00:00 PM 18.51 65.318 0.051 7.22 1.22 9.31
8/9/2021 12:15:00 PM 18.65 65.57 0.051 7.24 1.3 9.28
8/9/2021 12:30:00 PM 18.85 65.93 0.051 7.25 1.24 9.26
8/9/2021 12:45:00 PM 19.03 66.254 0.051 7.24 1.24 9.23
8/9/2021 1:00:00 PM 19.32 66.776 0.051 7.26 1.18 9.21
8/9/2021 1:15:00 PM 19.51 67.118 0.051 7.28 1.27 9.19
8/9/2021 1:30:00 PM 19.62 67.316 0.051 7.3 1.27 9.19
8/9/2021 1:45:00 PM 19.79 67.622 0.051 7.3 1.19 9.15
8/9/2021 2:00:00 PM 19.98 67.964 0.051 7.29 1.21 9.11
8/9/2021 2:15:00 PM 20.13 68.234 0.051 7.29 1.27 9.07
8/9/2021 2:30:00 PM 20.32 68.576 0.051 7.31 1.22 9.02
8/9/2021 2:45:00 PM 20.51 68.918 0.051 7.29 1.25 8.96
8/9/2021 3:00:00 PM 20.82 69.476 0.051 7.28 1.25 8.93
8/9/2021 3:15:00 PM 21.2 70.16 0.05 7.3 1.29 8.89
8/9/2021 3:30:00 PM 21.44 70.592 0.05 7.34 1.23 8.86
8/9/2021 3:45:00 PM 21.58 70.844 0.05 7.31 1.36 8.82
8/9/2021 4:00:00 PM 21.67 71.006 0.05 7.33 1.19 8.79
8/9/2021 4:15:00 PM 21.69 71.042 0.05 7.32 1.23 8.78
8/9/2021 4:30:00 PM 21.68 71.024 0.05 7.34 1.18 8.76
8/9/2021 4:45:00 PM 21.68 71.024 0.05 7.29 1.29 8.73
8/9/2021 5:00:00 PM 21.7 71.06 0.05 7.29 1.26 8.7
8/9/2021 5:15:00 PM 21.69 71.042 0.05 7.31 1.2 8.68
8/9/2021 5:30:00 PM 21.68 71.024 0.05 7.28 1.2 8.66
8/9/2021 5:45:00 PM 21.65 70.97 0.049 7.27 1.82 8.63
8/9/2021 6:00:00 PM 21.6 70.88 0.05 7.25 1.24 8.6
8/9/2021 6:15:00 PM 21.58 70.844 0.05 7.24 1.2 8.56
8/9/2021 6:30:00 PM 21.58 70.844 0.05 7.21 1.3 8.51
8/9/2021 6:45:00 PM 21.57 70.826 0.051 7.2 1.24 8.48
8/9/2021 7:00:00 PM 21.54 70.772 0.051 7.18 1.18 8.45
8/9/2021 7:15:00 PM 21.49 70.682 0.051 7.18 1.18 8.43
8/9/2021 7:30:00 PM 21.41 70.538 0.051 7.13 1.4 8.41
8/9/2021 7:45:00 PM 21.32 70.376 0.051 7.14 1.21 8.39
8/9/2021 8:00:00 PM 21.21 70.17799 0.051 7.12 1.2 8.37
8/9/2021 8:15:00 PM 21.07 69.926 0.051 7.1 1.18 8.35
8/9/2021 8:30:00 PM 20.94 69.692 0.051 7.06 1.2 8.33
8/9/2021 8:45:00 PM 20.81 69.458 0.052 7.07 1.27 8.33
8/9/2021 9:00:00 PM 20.68 69.224 0.052 7.06 1.32 8.33
8/9/2021 9:15:00 PM 20.56 69.008 0.052 7.03 1.24 8.33
8/9/2021 9:30:00 PM 20.44 68.792 0.052 7.03 1.31 8.34
8/9/2021 9:45:00 PM 20.32 68.576 0.052 7.01 1.28 8.35
8/9/2021 10:00:00 PM 20.21 68.378 0.052 7.01 1.23 8.37
8/9/2021 10:15:00 PM 20.09 68.162 0.05 7 1.68 8.37
8/9/2021 10:30:00 PM 19.98 67.964 0.053 6.99 1.26 8.4
8/9/2021 10:45:00 PM 19.88 67.784 0.053 6.99 1.23 8.41
8/9/2021 11:00:00 PM 19.78 67.604 0.053 6.99 1.23 8.43
8/9/2021 11:15:00 PM 19.68 67.424 0.053 6.99 1.22 8.45
8/9/2021 11:30:00 PM 19.57 67.226 0.053 7 1.23 8.46
8/9/2021 11:45:00 PM 19.48 67.064 0.053 6.98 1.2 8.49
8/10/2021 12:00:00 AM 19.38 66.884 0.053 6.98 1.32 8.5
8/10/2021 12:15:00 AM 19.29 66.722 0.053 6.97 1.27 8.51
8/10/2021 12:30:00 AM 19.2 66.56 0.053 6.96 1.22 8.53
8/10/2021 12:45:00 AM 19.12 66.416 0.053 6.97 1.2 8.55
8/10/2021 1:00:00 AM 19.03 66.254 0.053 6.97 1.27 8.56
8/10/2021 1:15:00 AM 18.95 66.11 0.053 6.95 1.21 8.58
8/10/2021 1:30:00 AM 18.88 65.984 0.053 6.96 1.19 8.6
8/10/2021 1:45:00 AM 18.82 65.876 0.052 6.96 1.8 8.61
8/10/2021 2:00:00 AM 18.76 65.768 0.054 6.97 1.25 8.62
8/10/2021 2:15:00 AM 18.69 65.642 0.054 6.96 1.2 8.63
8/10/2021 2:30:00 AM 18.63 65.534 0.054 6.96 1.23 8.64
8/10/2021 2:45:00 AM 18.57 65.426 0.054 6.97 1.19 8.66
8/10/2021 3:00:00 AM 18.51 65.318 0.054 6.96 1.24 8.67
8/10/2021 3:15:00 AM 18.47 65.246 0.054 6.97 1.21 8.68
8/10/2021 3:30:00 AM 18.42 65.156 0.054 6.96 1.24 8.69
8/10/2021 3:45:00 AM 18.38 65.084 0.054 6.97 1.21 8.71
8/10/2021 4:00:00 AM 18.33 64.994 0.054 6.97 1.14 8.7
8/10/2021 4:15:00 AM 18.29 64.922 0.053 6.97 1.81 8.72
8/10/2021 4:30:00 AM 18.24 64.832 0.054 6.96 1.21 8.71
8/10/2021 4:45:00 AM 18.2 64.76 0.052 6.96 1.73 8.73
8/10/2021 5:00:00 AM 18.16 64.688 0.054 6.98 1.19 8.75
8/10/2021 5:15:00 AM 18.12 64.616 0.054 6.98 1.24 8.75
8/10/2021 5:30:00 AM 18.08 64.544 0.054 6.97 1.25 8.75
8/10/2021 5:45:00 AM 18.03 64.454 0.054 6.96 1.25 8.76
8/10/2021 6:00:00 AM 17.99 64.382 0.054 6.97 1.28 8.76
8/10/2021 6:15:00 AM 17.95 64.31 0.054 6.97 1.21 8.79
8/10/2021 6:30:00 AM 17.9 64.22 0.054 6.98 1.25 8.8
8/10/2021 6:45:00 AM 17.86 64.148 0.054 7 1.27 8.82
8/10/2021 7:00:00 AM 17.82 64.076 0.054 6.98 1.26 8.84
8/10/2021 7:15:00 AM 17.77 63.986 0.054 6.97 1.24 8.87
8/10/2021 7:30:00 AM 17.74 63.932 0.054 6.98 1.2 8.92
8/10/2021 7:45:00 AM 17.73 63.914 0.054 7.01 1.26 9
8/10/2021 8:00:00 AM 17.73 63.914 0.054 7.01 1.18 9.04
8/10/2021 8:15:00 AM 17.72 63.896 0.053 7.02 1.23 9.07
8/10/2021 8:30:00 AM 17.72 63.896 0.053 7.02 1.24 9.13
8/10/2021 8:45:00 AM 17.75 63.95 0.053 7.04 1.16 9.16
8/10/2021 9:00:00 AM 17.78 64.004 0.053 7.06 1.2 9.19
8/10/2021 9:15:00 AM 17.82 64.076 0.053 7.1 1.19 9.24
8/10/2021 9:30:00 AM 17.87 64.166 0.053 7.11 1.21 9.25
8/10/2021 9:45:00 AM 17.92 64.256 0.053 7.15 1.23 9.28
8/10/2021 10:00:00 AM 17.99 64.382 0.052 7.13 1.75 9.28
8/10/2021 10:15:00 AM 18.12 64.616 0.052 7.15 1.18 9.3
8/10/2021 10:30:00 AM 18.29 64.922 0.052 7.18 1.19 9.32
8/10/2021 10:45:00 AM 18.42 65.156 0.052 7.23 1.19 9.32
8/10/2021 11:00:00 AM 18.5 65.3 0.052 7.23 1.24 9.3
8/10/2021 11:15:00 AM 18.61 65.498 0.052 7.22 1.25 9.27
8/10/2021 11:30:00 AM 18.76 65.768 0.052 7.23 1.19 9.26
8/10/2021 11:45:00 AM 18.97 66.146 0.052 7.24 1.16 9.24
8/10/2021 12:00:00 PM 19.14 66.452 0.052 7.26 1.17 9.22
8/10/2021 12:15:00 PM 19.25 66.65 0.052 7.27 1.15 9.21
8/10/2021 12:30:00 PM 19.43 66.974 0.052 7.29 1.26 9.18
8/10/2021 12:45:00 PM 19.57 67.226 0.052 7.29 1.16 9.16
8/10/2021 1:00:00 PM 19.75 67.55 0.052 7.32 1.18 9.15
8/10/2021 1:15:00 PM 19.98 67.964 0.052 7.32 1.14 9.08
8/10/2021 1:30:00 PM 20 68 0.052 7.29 1.15 9.01
8/10/2021 1:45:00 PM 20.06 68.108 0.052 7.27 1.16 8.96
8/10/2021 2:00:00 PM 20.22 68.396 0.051 7.31 1.11 8.99
8/10/2021 2:15:00 PM 20.47 68.846 0.051 7.32 1.08 8.99
8/10/2021 2:30:00 PM 20.6 69.08 0.051 7.34 1.12 8.95
8/10/2021 2:45:00 PM 20.52 68.936 0.051 7.31 1.1 8.95
8/10/2021 3:00:00 PM 20.62 69.116 0.051 7.35 1.23 8.96
8/10/2021 3:15:00 PM 20.88 69.584 0.051 7.34 1.21 8.92
8/10/2021 3:30:00 PM 21.02 69.836 0.05 7.35 1.64 8.89
8/10/2021 3:45:00 PM 21.18 70.124 0.051 7.33 1.19 8.87
8/10/2021 4:00:00 PM 21.26 70.268 0.051 7.34 1.11 8.82
8/10/2021 4:15:00 PM 21.32 70.376 0.051 7.33 1.17 8.78
8/10/2021 4:30:00 PM 21.39 70.502 0.051 7.3 1.09 8.76
8/10/2021 4:45:00 PM 21.47 70.646 0.051 7.32 1.11 8.74
8/10/2021 5:00:00 PM 21.51 70.718 0.051 7.32 1.16 8.71
8/10/2021 5:15:00 PM 21.53 70.754 0.051 7.3 1.14 8.67
8/10/2021 5:30:00 PM 21.53 70.754 0.051 7.3 1.14 8.65
8/10/2021 5:45:00 PM 21.54 70.772 0.051 7.29 1.12 8.63
8/10/2021 6:00:00 PM 21.53 70.754 0.051 7.27 1.13 8.58
8/10/2021 6:15:00 PM 21.52 70.736 0.051 7.24 1.1 8.53
8/10/2021 6:30:00 PM 21.5 70.7 0.051 7.22 1.15 8.47
8/10/2021 6:45:00 PM 21.48 70.664 0.051 7.18 1.15 8.43
8/10/2021 7:00:00 PM 21.45 70.61 0.051 7.16 1.2 8.4
8/10/2021 7:15:00 PM 21.4 70.52 0.051 7.15 1.08 8.39
8/10/2021 7:30:00 PM 21.33 70.394 0.051 7.12 1.13 8.36
8/10/2021 7:45:00 PM 21.25 70.25 0.052 7.11 1.1 8.33
8/10/2021 8:00:00 PM 21.16 70.088 0.052 7.1 1.12 8.31
8/10/2021 8:15:00 PM 21.06 69.908 0.052 7.08 1.14 8.28
8/10/2021 8:30:00 PM 20.98 69.764 0.052 7.09 1.16 8.27
8/10/2021 8:45:00 PM 20.88 69.584 0.052 7.08 1.31 8.27
8/10/2021 9:00:00 PM 20.79 69.422 0.052 7.07 1.24 8.26
8/10/2021 9:15:00 PM 20.69 69.242 0.053 7.03 1.24 8.26
8/10/2021 9:30:00 PM 20.61 69.098 0.053 7.04 1.15 8.26
8/10/2021 9:45:00 PM 20.54 68.972 0.053 7.02 1.19 8.29
8/10/2021 10:00:00 PM 20.47 68.846 0.053 7.05 1.17 8.29
8/10/2021 10:15:00 PM 20.39 68.702 0.053 7.04 1.18 8.31
8/10/2021 10:30:00 PM 20.32 68.576 0.053 7.03 1.15 8.3
8/10/2021 10:45:00 PM 20.25 68.45 0.053 7.04 1.17 8.32
8/10/2021 11:00:00 PM 20.19 68.342 0.052 7.01 1.67 8.33
8/10/2021 11:15:00 PM 20.12 68.216 0.053 7.02 1.25 8.34
8/10/2021 11:30:00 PM 20.05 68.09 0.053 7.04 1.21 8.36
8/10/2021 11:45:00 PM 19.98 67.964 0.053 7.03 1.15 8.38
8/11/2021 12:00:00 AM 19.9 67.82 0.053 7.04 1.17 8.39
8/11/2021 12:15:00 AM 19.82 67.676 0.053 7.04 1.19 8.4
8/11/2021 12:30:00 AM 19.74 67.532 0.053 7.03 1.15 8.41
8/11/2021 12:45:00 AM 19.67 67.406 0.053 7.02 1.17 8.42
8/11/2021 1:00:00 AM 19.6 67.28 0.054 7.02 1.17 8.44
8/11/2021 1:15:00 AM 19.53 67.154 0.054 7.01 1.18 8.45
8/11/2021 1:30:00 AM 19.46 67.028 0.054 7.01 1.12 8.45
8/11/2021 1:45:00 AM 19.39 66.902 0.054 6.99 1.18 8.46
8/11/2021 2:00:00 AM 19.33 66.794 0.054 7 1.16 8.48
8/11/2021 2:15:00 AM 19.27 66.686 0.054 6.99 1.17 8.49
8/11/2021 2:30:00 AM 19.21 66.578 0.054 6.99 1.23 8.5
8/11/2021 2:45:00 AM 19.16 66.488 0.054 7 1.23 8.52
8/11/2021 3:00:00 AM 19.11 66.398 0.054 7 1.21 8.53
8/11/2021 3:15:00 AM 19.07 66.326 0.054 6.99 1.18 8.54
8/11/2021 3:30:00 AM 19.02 66.236 0.054 6.98 1.16 8.54
8/11/2021 3:45:00 AM 18.98 66.164 0.054 6.98 1.24 8.55
8/11/2021 4:00:00 AM 18.93 66.074 0.054 6.99 1.13 8.56
8/11/2021 4:15:00 AM 18.89 66.002 0.054 6.99 1.15 8.58
8/11/2021 4:30:00 AM 18.84 65.912 0.054 6.97 1.14 8.57
8/11/2021 4:45:00 AM 18.81 65.858 0.054 6.98 1.15 8.58
8/11/2021 5:00:00 AM 18.77 65.786 0.054 6.98 1.15 8.58
8/11/2021 5:15:00 AM 18.74 65.732 0.054 7 1.14 8.6
8/11/2021 5:30:00 AM 18.71 65.67799 0.054 6.99 1.23 8.6
8/11/2021 5:45:00 AM 18.69 65.642 0.054 7 1.22 8.61
8/11/2021 6:00:00 AM 18.66 65.588 0.054 6.98 1.32 8.61
8/11/2021 6:15:00 AM 18.63 65.534 0.054 6.98 1.22 8.61
8/11/2021 6:30:00 AM 18.6 65.48 0.054 6.99 1.43 8.62
8/11/2021 6:45:00 AM 18.58 65.444 0.054 6.99 1.18 8.64
8/11/2021 7:00:00 AM 18.56 65.408 0.054 7 1.19 8.67
8/11/2021 7:15:00 AM 18.54 65.372 0.054 7 1.2 8.71
8/11/2021 7:30:00 AM 18.52 65.336 0.054 7.01 1.15 8.73
8/11/2021 7:45:00 AM 18.51 65.318 0.054 6.99 1.12 8.77
8/11/2021 8:00:00 AM 18.5 65.3 0.054 7 1.11 8.8
8/11/2021 8:15:00 AM 18.5 65.3 0.054 7.03 1.14 8.83
8/11/2021 8:30:00 AM 18.5 65.3 0.054 7.05 1.13 8.85
8/11/2021 8:45:00 AM 18.51 65.318 0.054 7.07 1.13 8.89
8/11/2021 9:00:00 AM 18.54 65.372 0.054 7.06 1.2 8.94
8/11/2021 9:15:00 AM 18.55 65.39 0.054 7.08 1.14 8.96
8/11/2021 9:30:00 AM 18.57 65.426 0.054 7.09 1.1 8.98
8/11/2021 9:45:00 AM 18.6 65.48 0.053 7.11 1.18 9
8/11/2021 10:00:00 AM 18.64 65.552 0.053 7.11 1.14 9.01
8/11/2021 10:15:00 AM 18.7 65.66 0.053 7.14 1.12 9.05
8/11/2021 10:30:00 AM 18.75 65.75 0.053 7.16 1.16 9.07
8/11/2021 10:45:00 AM 18.82 65.876 0.053 7.25 1.16 9.1
8/11/2021 11:00:00 AM 18.91 66.038 0.053 7.26 1.11 9.12
8/11/2021 11:15:00 AM 19.02 66.236 0.053 7.27 1.13 9.12
8/11/2021 11:30:00 AM 19.12 66.416 0.053 7.26 1.07 9.12
8/11/2021 11:45:00 AM 19.2 66.56 0.053 7.28 1.06 9.09
8/11/2021 12:00:00 PM 19.25 66.65 0.053 7.29 1.08 9.1
8/11/2021 12:15:00 PM 19.29 66.722 0.053 7.29 1.11 9.06
8/11/2021 12:30:00 PM 19.33 66.794 0.053 7.26 1.05 9.02
8/11/2021 12:45:00 PM 19.41 66.938 0.053 7.29 1.12 9.05
8/11/2021 1:00:00 PM 19.54 67.172 0.053 7.32 1.3 9.06
8/11/2021 1:15:00 PM 19.66 67.388 0.052 7.34 114.04 9.07
8/11/2021 1:30:00 PM 19.73 67.514 0.052 7.28 1.15 9.08
8/11/2021 1:45:00 PM 19.82 67.676 0.052 7.29 1.1 9.08
8/11/2021 2:00:00 PM 20.1 68.18 0.052 7.3 1.15 9.06
8/11/2021 2:15:00 PM 20.37 68.666 0.052 7.28 1.12 9
8/11/2021 2:30:00 PM 20.6 69.08 0.052 7.26 1.11 8.96
8/11/2021 2:45:00 PM 20.9 69.62 0.052 7.31 1.1 8.95
8/11/2021 3:00:00 PM 21.12 70.016 0.052 7.31 1.08 8.9
8/11/2021 3:15:00 PM 21.25 70.25 0.052 7.34 1.14 8.87
8/11/2021 3:30:00 PM 21.41 70.538 0.052 7.33 1.06 8.83
8/11/2021 3:45:00 PM 21.58 70.844 0.052 7.34 1.16 8.79
8/11/2021 4:00:00 PM 21.78 71.204 0.052 7.32 1.03 8.74
8/11/2021 4:15:00 PM 22 71.6 0.052 7.32 1.12 8.69
8/11/2021 4:30:00 PM 22.15 71.87 0.052 7.33 1.04 8.65
8/11/2021 4:45:00 PM 22.22 71.996 0.052 7.32 1.16 8.62
8/11/2021 5:00:00 PM 22.26 72.068 0.052 7.32 1.04 8.58
8/11/2021 5:15:00 PM 22.25 72.05 0.052 7.31 1.01 8.52
8/11/2021 5:30:00 PM 22.26 72.068 0.052 7.29 1.02 8.5
8/11/2021 5:45:00 PM 22.25 72.05 0.052 7.28 1.08 8.48
8/11/2021 6:00:00 PM 22.24 72.032 0.052 7.29 1.12 8.47
8/11/2021 6:15:00 PM 22.18 71.924 0.052 7.25 1.12 8.43
8/11/2021 6:30:00 PM 22.09 71.762 0.052 7.23 1.06 8.39
8/11/2021 6:45:00 PM 22.03 71.654 0.052 7.23 1.06 8.38
8/11/2021 7:00:00 PM 21.97 71.546 0.052 7.22 1.12 8.36
8/11/2021 7:15:00 PM 21.87 71.366 0.052 7.19 1.12 8.31
8/11/2021 7:30:00 PM 21.75 71.15 0.052 7.19 1.61 8.27
8/11/2021 7:45:00 PM 21.62 70.916 0.052 7.15 1.61 8.24
8/11/2021 8:00:00 PM 21.49 70.682 0.052 7.15 1.41 8.23
8/11/2021 8:15:00 PM 21.36 70.448 0.053 7.12 1.32 8.21
8/11/2021 8:30:00 PM 21.24 70.232 0.053 7.12 1.63 8.21
8/11/2021 8:45:00 PM 21.12 70.016 0.053 7.11 1.93 8.2
8/11/2021 9:00:00 PM 21 69.8 0.053 7.09 1.94 8.21
8/11/2021 9:15:00 PM 20.89 69.602 0.053 7.08 1.64 8.22
8/11/2021 9:30:00 PM 20.8 69.44 0.053 7.08 1.34 8.23
8/11/2021 9:45:00 PM 20.7 69.26 0.053 7.08 1.51 8.24
8/11/2021 10:00:00 PM 20.6 69.08 0.053 7.07 2.86 8.26
8/11/2021 10:15:00 PM 20.51 68.918 0.054 7.09 1.66 8.27
8/11/2021 10:30:00 PM 20.41 68.738 0.054 7.06 1.4 8.28
8/11/2021 10:45:00 PM 20.32 68.576 0.054 7.07 1.53 8.29
8/11/2021 11:00:00 PM 20.23 68.414 0.054 7.06 1.58 8.3
8/11/2021 11:15:00 PM 20.15 68.27 0.054 7.07 1.83 8.32
8/11/2021 11:30:00 PM 20.07 68.126 0.054 7.08 1.89 8.34
8/11/2021 11:45:00 PM 19.99 67.982 0.054 7.06 1.72 8.36
8/12/2021 12:00:00 AM 19.9 67.82 0.054 7.07 1.55 8.38
8/12/2021 12:15:00 AM 19.82 67.676 0.054 7.04 1.1 8.38
8/12/2021 12:30:00 AM 19.75 67.55 0.054 7.05 1.14 8.4
8/12/2021 12:45:00 AM 19.68 67.424 0.054 7.03 1.14 8.41
8/12/2021 1:00:00 AM 19.61 67.298 0.054 7.03 1.18 8.43
8/12/2021 1:15:00 AM 19.53 67.154 0.054 7.03 1.15 8.44
8/12/2021 1:30:00 AM 19.46 67.028 0.054 7.02 1.12 8.45
8/12/2021 1:45:00 AM 19.38 66.884 0.054 7.01 1.16 8.47
8/12/2021 2:00:00 AM 19.31 66.758 0.054 7.03 1.16 8.49
8/12/2021 2:15:00 AM 19.23 66.614 0.055 7.02 1.11 8.5
8/12/2021 2:30:00 AM 19.16 66.488 0.055 7.03 1.11 8.51
8/12/2021 2:45:00 AM 19.09 66.362 0.055 7.03 1.09 8.52
8/12/2021 3:00:00 AM 19.02 66.236 0.055 7.02 1.13 8.54
8/12/2021 3:15:00 AM 18.95 66.11 0.055 7.03 1.11 8.55
8/12/2021 3:30:00 AM 18.89 66.002 0.055 7.03 1.15 8.55
8/12/2021 3:45:00 AM 18.83 65.894 0.055 7.03 1.2 8.57
8/12/2021 4:00:00 AM 18.77 65.786 0.055 7.02 1.1 8.58
8/12/2021 4:15:00 AM 18.71 65.67799 0.055 7.01 1.14 8.59
8/12/2021 4:30:00 AM 18.66 65.588 0.055 7.02 1.09 8.6
8/12/2021 4:45:00 AM 18.61 65.498 0.055 7.02 1.15 8.61
8/12/2021 5:00:00 AM 18.56 65.408 0.055 7.01 1.14 8.62
8/12/2021 5:15:00 AM 18.5 65.3 0.055 7 1.16 8.62
8/12/2021 5:30:00 AM 18.45 65.21 0.055 7.01 1.25 8.64
8/12/2021 5:45:00 AM 18.39 65.102 0.055 7.01 1.26 8.65
8/12/2021 6:00:00 AM 18.34 65.012 0.055 7.02 1.25 8.67
8/12/2021 6:15:00 AM 18.29 64.922 0.055 7.01 1.21 8.68
8/12/2021 6:30:00 AM 18.25 64.85 0.055 7 1.22 8.69
8/12/2021 6:45:00 AM 18.22 64.796 0.055 6.99 1.21 8.71
8/12/2021 7:00:00 AM 18.19 64.742 0.055 7 1.19 8.74
8/12/2021 7:15:00 AM 18.17 64.706 0.055 7.01 1.11 8.76
8/12/2021 7:30:00 AM 18.16 64.688 0.055 7.03 1.18 8.81
8/12/2021 7:45:00 AM 18.16 64.688 0.055 7.02 1.11 8.88
8/12/2021 8:00:00 AM 18.17 64.706 0.055 7.06 1.09 8.93
8/12/2021 8:15:00 AM 18.19 64.742 0.054 7.07 1.13 8.97
8/12/2021 8:30:00 AM 18.22 64.796 0.054 7.07 1.14 9.02
8/12/2021 8:45:00 AM 18.26 64.868 0.054 7.07 1.09 9.05
8/12/2021 9:00:00 AM 18.31 64.958 0.054 7.12 1.12 9.08
8/12/2021 9:15:00 AM 18.38 65.084 0.054 7.11 1.12 9.08
8/12/2021 9:30:00 AM 18.48 65.264 0.054 7.16 1.1 9.14
8/12/2021 9:45:00 AM 18.6 65.48 0.054 7.17 1.08 9.15
8/12/2021 10:00:00 AM 18.7 65.66 0.053 7.18 1.1 9.14
8/12/2021 10:15:00 AM 18.81 65.858 0.053 7.19 1.25 9.15
8/12/2021 10:30:00 AM 18.9 66.02 0.053 7.22 1.09 9.12
8/12/2021 10:45:00 AM 19.01 66.218 0.053 7.23 1.12 9.13
8/12/2021 11:00:00 AM 19.12 66.416 0.053 7.25 1.15 9.11
8/12/2021 11:15:00 AM 19.15 66.47 0.053 7.21 1.22 9.07
8/12/2021 11:30:00 AM 19.19 66.542 0.053 7.22 1.15 9.09
8/12/2021 11:45:00 AM 19.34 66.812 0.053 7.29 1.13 9.1
8/12/2021 12:00:00 PM 19.61 67.298 0.053 7.28 1.16 9.1
8/12/2021 12:15:00 PM 19.8 67.64 0.053 7.28 1.12 9.07
8/12/2021 12:30:00 PM 19.83 67.694 0.053 7.28 1.11 9.02
8/12/2021 12:45:00 PM 19.77 67.586 0.053 7.27 1.07 8.97
8/12/2021 1:00:00 PM 19.73 67.514 0.053 7.23 1.14 8.87
8/12/2021 1:15:00 PM 19.72 67.496 0.053 7.2 1.11 8.76
8/12/2021 1:30:00 PM 19.73 67.514 0.053 7.19 1.1 8.7
8/12/2021 1:45:00 PM 19.71 67.478 0.053 7.14 1.09 8.67
8/12/2021 2:00:00 PM 19.67 67.406 0.053 7.16 1.07 8.68
8/12/2021 2:15:00 PM 19.61 67.298 0.053 7.15 1.13 8.71
8/12/2021 2:30:00 PM 19.61 67.298 0.053 7.16 1.1 8.81
8/12/2021 2:45:00 PM 19.66 67.388 0.053 7.22 1.12 8.89
8/12/2021 3:00:00 PM 19.83 67.694 0.053 7.24 1.06 8.95
8/12/2021 3:15:00 PM 20.1 68.18 0.053 7.24 1.2 8.97
8/12/2021 3:30:00 PM 20.33 68.594 0.052 7.27 1.08 8.96
8/12/2021 3:45:00 PM 20.52 68.936 0.052 7.29 1.08 8.95
8/12/2021 4:00:00 PM 20.72 69.296 0.052 7.29 1.1 8.92
8/12/2021 4:15:00 PM 20.91 69.638 0.052 7.32 1.13 8.88
8/12/2021 4:30:00 PM 21.03 69.854 0.05 7.29 1.69 8.8
8/12/2021 4:45:00 PM 21.08 69.944 0.052 7.25 1.12 8.68
8/12/2021 5:00:00 PM 21.15 70.07 0.052 7.24 1.09 8.66
8/12/2021 5:15:00 PM 21.23 70.214 0.052 7.24 1.22 8.65
8/12/2021 5:30:00 PM 21.33 70.394 0.052 7.24 1.17 8.65
8/12/2021 5:45:00 PM 21.33 70.394 0.052 7.26 1.25 8.59
8/12/2021 6:00:00 PM 21.31 70.358 0.052 7.24 1.16 8.58
8/12/2021 6:15:00 PM 21.28 70.304 0.052 7.24 1.22 8.56
8/12/2021 6:30:00 PM 21.25 70.25 0.052 7.22 1.12 8.52
8/12/2021 6:45:00 PM 21.21 70.17799 0.053 7.19 1.21 8.49
8/12/2021 7:00:00 PM 21.17 70.106 0.053 7.17 1.24 8.46
8/12/2021 7:15:00 PM 21.09 69.962 0.053 7.15 1.19 8.42
8/12/2021 7:30:00 PM 21 69.8 0.053 7.13 1.23 8.38
8/12/2021 7:45:00 PM 20.89 69.602 0.054 7.12 1.24 8.36
8/12/2021 8:00:00 PM 20.79 69.422 0.054 7.11 1.25 8.35
8/12/2021 8:15:00 PM 20.69 69.242 0.054 7.09 1.33 8.34
8/12/2021 8:30:00 PM 20.59 69.062 0.054 7.07 1.42 8.33
8/12/2021 8:45:00 PM 20.5 68.9 0.052 7.04 1.83 8.32
8/12/2021 9:00:00 PM 20.43 68.774 0.054 7.03 1.38 8.33
8/12/2021 9:15:00 PM 20.36 68.648 0.054 7.03 1.39 8.33
8/12/2021 9:30:00 PM 20.28 68.504 0.054 7.04 1.31 8.33
8/12/2021 9:45:00 PM 20.22 68.396 0.054 7.03 1.33 8.34
8/12/2021 10:00:00 PM 20.15 68.27 0.054 7.02 1.35 8.35
8/12/2021 10:15:00 PM 20.08 68.144 0.054 7.01 1.29 8.35
8/12/2021 10:30:00 PM 20.02 68.036 0.054 7 1.32 8.37
8/12/2021 10:45:00 PM 19.96 67.92799 0.054 7.08 1.25 8.38
8/12/2021 11:00:00 PM 19.9 67.82 0.054 7.01 1.29 8.39
8/12/2021 11:15:00 PM 19.83 67.694 0.055 6.99 1.33 8.4
8/12/2021 11:30:00 PM 19.76 67.568 0.055 7 1.3 8.41
8/12/2021 11:45:00 PM 19.7 67.46 0.055 6.99 1.27 8.42
8/13/2021 12:00:00 AM 19.64 67.352 0.052 6.99 1.85 8.44
8/13/2021 12:15:00 AM 19.58 67.244 0.055 7.01 1.38 8.46
8/13/2021 12:30:00 AM 19.5 67.1 0.055 7.01 1.28 8.47
8/13/2021 12:45:00 AM 19.43 66.974 0.055 7.01 1.29 8.48
8/13/2021 1:00:00 AM 19.36 66.848 0.055 7.03 1.33 8.5
8/13/2021 1:15:00 AM 19.28 66.704 0.055 7.02 1.37 8.51
8/13/2021 1:30:00 AM 19.21 66.578 0.055 7.03 1.38 8.53
8/13/2021 1:45:00 AM 19.13 66.434 0.056 7.01 1.24 8.53
8/13/2021 2:00:00 AM 19.06 66.308 0.056 7.03 1.32 8.55
8/13/2021 2:15:00 AM 18.99 66.182 0.056 7.02 1.32 8.57
8/13/2021 2:30:00 AM 18.92 66.056 0.056 7.02 1.27 8.58
8/13/2021 2:45:00 AM 18.86 65.948 0.056 7.04 1.32 8.59
8/13/2021 3:00:00 AM 18.81 65.858 0.056 7.03 1.27 8.6
8/13/2021 3:15:00 AM 18.75 65.75 0.056 7.02 1.41 8.61
8/13/2021 3:30:00 AM 18.69 65.642 0.056 7.03 1.41 8.62
8/13/2021 3:45:00 AM 18.63 65.534 0.056 7.02 1.31 8.63
8/13/2021 4:00:00 AM 18.59 65.462 0.056 7.02 1.37 8.64
8/13/2021 4:15:00 AM 18.53 65.354 0.054 7.02 1.93 8.65
8/13/2021 4:30:00 AM 18.48 65.264 0.056 7.01 1.32 8.66
8/13/2021 4:45:00 AM 18.43 65.174 0.056 7.03 1.34 8.67
8/13/2021 5:00:00 AM 18.39 65.102 0.056 7.02 1.35 8.68
8/13/2021 5:15:00 AM 18.35 65.03 0.056 7.04 1.33 8.7
8/13/2021 5:30:00 AM 18.31 64.958 0.053 7.03 1.92 8.7
8/13/2021 5:45:00 AM 18.27 64.886 0.056 7.05 1.39 8.7
8/13/2021 6:00:00 AM 18.23 64.814 0.056 7.02 1.38 8.7
8/13/2021 6:15:00 AM 18.19 64.742 0.056 7.02 1.41 8.71
8/13/2021 6:30:00 AM 18.15 64.67 0.056 7 1.32 8.73
8/13/2021 6:45:00 AM 18.12 64.616 0.056 7.03 1.3 8.76
8/13/2021 7:00:00 AM 18.09 64.562 0.056 7.04 1.3 8.79
8/13/2021 7:15:00 AM 18.06 64.508 0.056 7.04 1.33 8.81
8/13/2021 7:30:00 AM 18.05 64.49 0.056 7.05 1.26 8.87
8/13/2021 7:45:00 AM 18.05 64.49 0.056 7.04 1.24 8.91
8/13/2021 8:00:00 AM 18.04 64.472 0.056 7.06 1.26 8.95
8/13/2021 8:15:00 AM 18.04 64.472 0.056 7.07 1.25 8.99
8/13/2021 8:30:00 AM 18.04 64.472 0.055 7.1 1.31 9.03
8/13/2021 8:45:00 AM 18.1 64.58 0.055 7.1 1.24 9.09
8/13/2021 9:00:00 AM 18.15 64.67 0.055 7.15 1.17 9.15
8/13/2021 9:15:00 AM 18.22 64.796 0.055 7.15 1.22 9.18
8/13/2021 9:30:00 AM 18.31 64.958 0.055 7.17 1.19 9.22
8/13/2021 9:45:00 AM 18.39 65.102 0.055 7.19 1.2 9.22
8/13/2021 10:00:00 AM 18.49 65.282 0.055 7.2 1.26 9.2
8/13/2021 10:15:00 AM 18.59 65.462 0.055 7.2 1.18 9.2
8/13/2021 10:30:00 AM 18.7 65.66 0.054 7.21 1.17 9.18
8/13/2021 10:45:00 AM 18.82 65.876 0.054 7.23 1.17 9.17
8/13/2021 11:00:00 AM 18.95 66.11 0.054 7.23 1.17 9.14
8/13/2021 11:15:00 AM 19.09 66.362 0.054 7.24 1.19 9.12
8/13/2021 11:30:00 AM 19.23 66.614 0.054 7.26 1.2 9.11
8/13/2021 11:45:00 AM 19.47 67.046 0.054 7.26 1.16 9.08
8/13/2021 12:00:00 PM 19.73 67.514 0.054 7.28 1.12 9.06
8/13/2021 12:15:00 PM 19.95 67.91 0.054 7.29 1.14 9.03
8/13/2021 12:30:00 PM 20.22 68.396 0.054 7.27 1.21 9
8/13/2021 12:45:00 PM 20.49 68.882 0.054 7.31 1.17 8.97
8/13/2021 1:00:00 PM 20.61 69.098 0.054 7.31 1.12 8.95
8/13/2021 1:15:00 PM 20.64 69.152 0.054 7.3 1.12 8.88
8/13/2021 1:30:00 PM 20.65 69.17 0.054 7.28 1.17 8.83
8/13/2021 1:45:00 PM 20.77 69.386 0.054 7.29 1.15 8.86
8/13/2021 2:00:00 PM 20.95 69.71 0.054 7.31 1.12 8.85
8/13/2021 2:15:00 PM 21.05 69.89 0.053 7.3 1.13 8.84
8/13/2021 2:30:00 PM 21.19 70.142 0.052 7.3 1.68 8.83
8/13/2021 2:45:00 PM 21.44 70.592 0.053 7.32 1.15 8.81
8/13/2021 3:00:00 PM 21.58 70.844 0.053 7.35 1.13 8.79
8/13/2021 3:15:00 PM 21.73 71.114 0.053 7.37 1.11 8.77
8/13/2021 3:30:00 PM 21.75 71.15 0.053 7.32 1.13 8.68
8/13/2021 3:45:00 PM 21.71 71.078 0.053 7.27 1.16 8.57
8/13/2021 4:00:00 PM 21.7 71.06 0.053 7.25 1.15 8.47
8/13/2021 4:15:00 PM 21.69 71.042 0.053 7.24 1.13 8.44
8/13/2021 4:30:00 PM 21.72 71.096 0.053 7.23 1.1 8.48
8/13/2021 4:45:00 PM 21.75 71.15 0.053 7.26 1.21 8.53
8/13/2021 5:00:00 PM 21.82 71.276 0.053 7.28 1.07 8.58
8/13/2021 5:15:00 PM 21.83 71.294 0.053 7.29 1.13 8.6
8/13/2021 5:30:00 PM 21.83 71.294 0.053 7.3 1.13 8.63
8/13/2021 5:45:00 PM 21.82 71.276 0.053 7.29 1.09 8.62
8/13/2021 6:00:00 PM 21.82 71.276 0.053 7.29 1.13 8.56
8/13/2021 6:15:00 PM 21.81 71.258 0.053 7.27 1.17 8.5
8/13/2021 6:30:00 PM 21.81 71.258 0.053 7.25 1.08 8.43
8/13/2021 6:45:00 PM 21.81 71.258 0.053 7.2 1.19 8.39
8/13/2021 7:00:00 PM 21.81 71.258 0.053 7.19 1.15 8.36
8/13/2021 7:15:00 PM 21.78 71.204 0.053 7.18 1.18 8.34
8/13/2021 7:30:00 PM 21.72 71.096 0.053 7.17 1.2 8.32
8/13/2021 7:45:00 PM 21.62 70.916 0.053 7.14 1.22 8.29
8/13/2021 8:00:00 PM 21.51 70.718 0.054 7.13 1.17 8.28
8/13/2021 8:15:00 PM 21.39 70.502 0.054 7.1 1.23 8.25
8/13/2021 8:30:00 PM 21.28 70.304 0.054 7.09 1.19 8.24
8/13/2021 8:45:00 PM 21.17 70.106 0.054 7.08 1.35 8.22
8/13/2021 9:00:00 PM 21.07 69.926 0.054 7.08 1.31 8.22
8/13/2021 9:15:00 PM 20.98 69.764 0.055 7.06 1.25 8.23
8/13/2021 9:30:00 PM 20.88 69.584 0.055 7.05 1.26 8.23
8/13/2021 9:45:00 PM 20.79 69.422 0.055 7.05 1.23 8.24
8/13/2021 10:00:00 PM 20.7 69.26 0.055 7.04 1.23 8.26
8/13/2021 10:15:00 PM 20.6 69.08 0.055 7.04 1.2 8.27
8/13/2021 10:30:00 PM 20.51 68.918 0.055 7.02 1.22 8.29
8/13/2021 10:45:00 PM 20.41 68.738 0.055 7.04 1.25 8.3
8/13/2021 11:00:00 PM 20.31 68.558 0.055 7.02 1.23 8.33
8/13/2021 11:15:00 PM 20.22 68.396 0.055 7 1.19 8.34
8/13/2021 11:30:00 PM 20.14 68.252 0.055 7.02 1.16 8.36
8/13/2021 11:45:00 PM 20.07 68.126 0.055 7.02 1.39 8.37
8/14/2021 12:00:00 AM 20 68 0.055 7.04 1.29 8.38
8/14/2021 12:15:00 AM 19.93 67.874 0.055 7.05 1.26 8.39
8/14/2021 12:30:00 AM 19.87 67.766 0.055 7.04 1.32 8.4
8/14/2021 12:45:00 AM 19.8 67.64 0.055 7.03 1.17 8.4
8/14/2021 1:00:00 AM 19.74 67.532 0.055 7.05 1.42 8.4
8/14/2021 1:15:00 AM 19.68 67.424 0.055 7.02 1.48 8.42
8/14/2021 1:30:00 AM 19.63 67.334 0.055 7.04 1.44 8.43
8/14/2021 1:45:00 AM 19.56 67.208 0.055 7.01 1.55 8.43
8/14/2021 2:00:00 AM 19.5 67.1 0.055 7.03 1.51 8.44
8/14/2021 2:15:00 AM 19.44 66.992 0.055 7.01 1.49 8.46
8/14/2021 2:30:00 AM 19.38 66.884 0.055 7.05 1.47 8.48
8/14/2021 2:45:00 AM 19.32 66.776 0.055 7.03 1.39 8.48
8/14/2021 3:00:00 AM 19.26 66.668 0.055 7.03 1.61 8.5
8/14/2021 3:15:00 AM 19.2 66.56 0.055 7.03 1.38 8.51
8/14/2021 3:30:00 AM 19.14 66.452 0.055 7.02 1.45 8.54
8/14/2021 3:45:00 AM 19.08 66.344 0.055 7.02 1.41 8.54
8/14/2021 4:00:00 AM 19.03 66.254 0.055 7.03 1.41 8.56
8/14/2021 4:15:00 AM 18.97 66.146 0.055 7.02 1.46 8.56
8/14/2021 4:30:00 AM 18.92 66.056 0.055 7.03 1.33 8.58
8/14/2021 4:45:00 AM 18.87 65.966 0.055 7.01 1.48 8.59
8/14/2021 5:00:00 AM 18.82 65.876 0.055 7 1.42 8.57
8/14/2021 5:15:00 AM 18.78 65.804 0.055 6.99 1.44 8.59
8/14/2021 5:30:00 AM 18.74 65.732 0.055 7 1.54 8.61
8/14/2021 5:45:00 AM 18.7 65.66 0.055 7.02 1.53 8.63
8/14/2021 6:00:00 AM 18.66 65.588 0.055 7.02 1.52 8.64
8/14/2021 6:15:00 AM 18.63 65.534 0.055 7 1.53 8.64
8/14/2021 6:30:00 AM 18.6 65.48 0.055 6.99 1.6 8.64
8/14/2021 6:45:00 AM 18.57 65.426 0.055 7.01 1.51 8.67
8/14/2021 7:00:00 AM 18.54 65.372 0.055 7.01 1.46 8.7
8/14/2021 7:15:00 AM 18.52 65.336 0.055 7.04 1.44 8.73
8/14/2021 7:30:00 AM 18.5 65.3 0.055 7 1.52 8.74
8/14/2021 7:45:00 AM 18.48 65.264 0.055 7.02 1.41 8.77
8/14/2021 8:00:00 AM 18.45 65.21 0.055 7 1.39 8.74
8/14/2021 8:15:00 AM 18.44 65.192 0.055 7.04 1.37 8.81
8/14/2021 8:30:00 AM 18.4 65.12 0.055 7.03 1.35 8.79
8/14/2021 8:45:00 AM 18.36 65.048 0.052 7.04 1.91 8.82
8/14/2021 9:00:00 AM 18.32 64.976 0.055 7.07 1.37 8.85
8/14/2021 9:15:00 AM 18.3 64.94 0.055 7.1 1.32 8.94
8/14/2021 9:30:00 AM 18.28 64.904 0.055 7.13 1.33 8.98
8/14/2021 9:45:00 AM 18.25 64.85 0.055 7.1 1.32 8.99
8/14/2021 10:00:00 AM 18.25 64.85 0.055 7.18 1.34 9.08
8/14/2021 10:15:00 AM 18.28 64.904 0.054 7.16 1.36 9.12
8/14/2021 10:30:00 AM 18.33 64.994 0.052 7.17 1.91 9.19
8/14/2021 10:45:00 AM 18.36 65.048 0.054 7.22 1.31 9.24
8/14/2021 11:00:00 AM 18.39 65.102 0.054 7.21 1.38 9.23
8/14/2021 11:15:00 AM 18.46 65.228 0.054 7.24 1.32 9.27
8/14/2021 11:30:00 AM 18.51 65.318 0.054 7.25 1.32 9.27
8/14/2021 11:45:00 AM 18.58 65.444 0.054 7.27 1.32 9.29
8/14/2021 12:00:00 PM 18.67 65.606 0.054 7.28 1.29 9.28
8/14/2021 12:15:00 PM 18.85 65.93 0.054 7.32 1.37 9.3
8/14/2021 12:30:00 PM 19.02 66.236 0.051 7.27 1.86 9.27
8/14/2021 12:45:00 PM 19.2 66.56 0.051 7.29 1.94 9.24
8/14/2021 1:00:00 PM 19.32 66.776 0.054 7.32 1.34 9.22
8/14/2021 1:15:00 PM 19.57 67.226 0.054 7.35 1.33 9.18
8/14/2021 1:30:00 PM 19.79 67.622 0.054 7.34 1.32 9.12
8/14/2021 1:45:00 PM 20.01 68.018 0.054 7.34 1.27 9.09
8/14/2021 2:00:00 PM 20.27 68.486 0.054 7.36 1.27 9.04
8/14/2021 2:15:00 PM 20.5 68.9 0.054 7.34 1.31 9
8/14/2021 2:30:00 PM 20.71 69.278 0.054 7.36 1.26 8.96
8/14/2021 2:45:00 PM 20.89 69.602 0.054 7.34 1.33 8.93
8/14/2021 3:00:00 PM 21.06 69.908 0.054 7.35 1.22 8.89
8/14/2021 3:15:00 PM 21.2 70.16 0.054 7.36 1.25 8.85
8/14/2021 3:30:00 PM 21.34 70.412 0.054 7.34 1.22 8.81
8/14/2021 3:45:00 PM 21.48 70.664 0.054 7.34 1.2 8.78
8/14/2021 4:00:00 PM 21.64 70.952 0.054 7.34 1.23 8.74
8/14/2021 4:15:00 PM 21.78 71.204 0.052 7.31 1.84 8.7
8/14/2021 4:30:00 PM 21.88 71.384 0.054 7.3 1.22 8.66
8/14/2021 4:45:00 PM 21.92 71.456 0.054 7.31 1.25 8.61
8/14/2021 5:00:00 PM 21.93 71.474 0.054 7.31 1.2 8.58
8/14/2021 5:15:00 PM 21.91 71.438 0.054 7.29 1.19 8.54
8/14/2021 5:30:00 PM 21.83 71.294 0.054 7.26 1.3 8.5
8/14/2021 5:45:00 PM 21.79 71.222 0.054 7.28 1.25 8.51
8/14/2021 6:00:00 PM 21.75 71.15 0.054 7.26 1.26 8.5
8/14/2021 6:15:00 PM 21.72 71.096 0.054 7.24 1.29 8.46
8/14/2021 6:30:00 PM 21.69 71.042 0.054 7.24 1.24 8.42
8/14/2021 6:45:00 PM 21.65 70.97 0.054 7.23 1.31 8.4
8/14/2021 7:00:00 PM 21.59 70.862 0.054 7.21 1.28 8.37
8/14/2021 7:15:00 PM 21.51 70.718 0.054 7.2 1.25 8.36
8/14/2021 7:30:00 PM 21.4 70.52 0.054 7.19 1.18 8.35
8/14/2021 7:45:00 PM 21.26 70.268 0.053 7.15 1.8 8.34
8/14/2021 8:00:00 PM 21.09 69.962 0.054 7.16 1.32 8.34
8/14/2021 8:15:00 PM 20.92 69.656 0.055 7.18 1.27 8.35
8/14/2021 8:30:00 PM 20.72 69.296 0.055 7.14 1.25 8.34
8/14/2021 8:45:00 PM 20.54 68.972 0.055 7.15 1.33 8.35
8/14/2021 9:00:00 PM 20.37 68.666 0.055 7.11 1.27 8.36
8/14/2021 9:15:00 PM 20.2 68.36 0.055 7.11 1.33 8.38
8/14/2021 9:30:00 PM 20.04 68.07201 0.055 7.09 1.31 8.39
8/14/2021 9:45:00 PM 19.89 67.802 0.055 7.08 1.36 8.4
8/14/2021 10:00:00 PM 19.74 67.532 0.056 7.08 1.35 8.42
8/14/2021 10:15:00 PM 19.61 67.298 0.056 7.07 1.33 8.47
8/14/2021 10:30:00 PM 19.47 67.046 0.056 7.1 1.38 8.5
8/14/2021 10:45:00 PM 19.33 66.794 0.056 7.1 1.28 8.52
8/14/2021 11:00:00 PM 19.2 66.56 0.055 7.07 1.78 8.54
8/14/2021 11:15:00 PM 19.05 66.29 0.056 7.05 1.33 8.55
8/14/2021 11:30:00 PM 18.93 66.074 0.056 7.06 1.31 8.58
8/14/2021 11:45:00 PM 18.81 65.858 0.056 7.08 1.25 8.63
8/15/2021 12:00:00 AM 18.68 65.624 0.056 7.06 1.25 8.64
8/15/2021 12:15:00 AM 18.56 65.408 0.056 7.07 1.28 8.66
8/15/2021 12:30:00 AM 18.44 65.192 0.056 7.06 1.29 8.69
8/15/2021 12:45:00 AM 18.31 64.958 0.056 7.04 1.2 8.69
8/15/2021 1:00:00 AM 18.2 64.76 0.056 7.06 1.21 8.74
8/15/2021 1:15:00 AM 18.07 64.526 0.056 7.04 1.23 8.75
8/15/2021 1:30:00 AM 17.96 64.328 0.056 7.06 1.21 8.79
8/15/2021 1:45:00 AM 17.84 64.112 0.056 7.01 1.16 8.82
8/15/2021 2:00:00 AM 17.73 63.914 0.056 6.97 1.21 8.83
8/15/2021 2:15:00 AM 17.63 63.734 0.056 7 1.22 8.85
8/15/2021 2:30:00 AM 17.54 63.572 0.057 7.01 1.15 8.88
8/15/2021 2:45:00 AM 17.45 63.41 0.057 7.01 1.22 8.89
8/15/2021 3:00:00 AM 17.37 63.266 0.057 7.02 1.27 8.9
8/15/2021 3:15:00 AM 17.29 63.122 0.057 7.01 1.18 8.91
8/15/2021 3:30:00 AM 17.22 62.996 0.057 7.03 1.21 8.93
8/15/2021 3:45:00 AM 17.17 62.906 0.057 7.02 1.18 8.96
8/15/2021 4:00:00 AM 17.11 62.798 0.057 7.04 1.26 8.95
8/15/2021 4:15:00 AM 17.05 62.69 0.057 7.04 1.22 8.97
8/15/2021 4:30:00 AM 17 62.6 0.056 7.04 1.78 8.99
8/15/2021 4:45:00 AM 16.95 62.51 0.054 7.03 1.65 8.99
8/15/2021 5:00:00 AM 16.9 62.42 0.057 7.04 1.21 9
8/15/2021 5:15:00 AM 16.85 62.33 0.057 7.03 1.19 9.02
8/15/2021 5:30:00 AM 16.79 62.222 0.057 7.06 1.39 9.05
8/15/2021 5:45:00 AM 16.72 62.096 0.057 7.04 1.21 9.04
8/15/2021 6:00:00 AM 16.67 62.006 0.057 7.07 1.23 9.07
8/15/2021 6:15:00 AM 16.6 61.88 0.057 7.07 1.21 9.09
8/15/2021 6:30:00 AM 16.54 61.772 0.057 7.06 1.21 9.11
8/15/2021 6:45:00 AM 16.48 61.664 0.055 7.04 1.82 9.12
8/15/2021 7:00:00 AM 16.42 61.556 0.056 7.05 1.25 9.16
8/15/2021 7:15:00 AM 16.36 61.448 0.056 7.07 1.22 9.21
8/15/2021 7:30:00 AM 16.3 61.34 0.056 7.07 1.21 9.24
8/15/2021 7:45:00 AM 16.25 61.25 0.056 7.08 1.16 9.29
8/15/2021 8:00:00 AM 16.21 61.178 0.056 7.07 1.14 9.29
8/15/2021 8:15:00 AM 16.19 61.142 0.056 7.11 1.16 9.39
8/15/2021 8:30:00 AM 16.19 61.142 0.055 7.12 1.74 9.47
8/15/2021 8:45:00 AM 16.18 61.124 0.056 7.14 1.13 9.5
8/15/2021 9:00:00 AM 16.18 61.124 0.056 7.16 1.08 9.56
8/15/2021 9:15:00 AM 16.19 61.142 0.055 7.13 1.74 9.56
8/15/2021 9:30:00 AM 16.21 61.178 0.053 7.13 1.78 9.56
8/15/2021 9:45:00 AM 16.22 61.196 0.055 7.2 1.12 9.63
8/15/2021 10:00:00 AM 16.3 61.34 0.055 7.22 1.12 9.65
8/15/2021 10:15:00 AM 16.4 61.52 0.055 7.24 1.2 9.66
8/15/2021 10:30:00 AM 16.52 61.736 0.054 7.23 1.72 9.66
8/15/2021 10:45:00 AM 16.66 61.988 0.052 7.25 1.73 9.63
8/15/2021 11:00:00 AM 16.8 62.24 0.055 7.25 1.22 9.62
8/15/2021 11:15:00 AM 16.95 62.51 0.055 7.27 1.2 9.61
8/15/2021 11:30:00 AM 17.09 62.762 0.055 7.25 1.18 9.59
8/15/2021 11:45:00 AM 17.23 63.014 0.054 7.22 1.16 9.53
8/15/2021 12:00:00 PM 17.43 63.374 0.054 7.23 1.13 9.52
8/15/2021 12:15:00 PM 17.64 63.752 0.054 7.3 1.14 9.53
8/15/2021 12:30:00 PM 17.74 63.932 0.054 7.3 1.17 9.49
8/15/2021 12:45:00 PM 17.95 64.31 0.054 7.31 1.21 9.48
8/15/2021 1:00:00 PM 18.13 64.634 0.054 7.31 1.44 9.43
8/15/2021 1:15:00 PM 18.23 64.814 0.054 7.31 1.49 9.39
8/15/2021 1:30:00 PM 18.39 65.102 0.054 7.31 1.48 9.37
8/15/2021 1:45:00 PM 18.69 65.642 0.054 7.36 1.5 9.36
8/15/2021 2:00:00 PM 19.05 66.29 0.054 7.37 1.48 9.31
8/15/2021 2:15:00 PM 19.29 66.722 0.054 7.35 1.48 9.26
8/15/2021 2:30:00 PM 19.43 66.974 0.054 7.36 1.45 9.24
8/15/2021 2:45:00 PM 19.58 67.244 0.054 7.36 1.46 9.21
8/15/2021 3:00:00 PM 19.82 67.676 0.054 7.38 1.44 9.17
8/15/2021 3:15:00 PM 20.09 68.162 0.054 7.36 1.43 9.1
8/15/2021 3:30:00 PM 20.3 68.54 0.054 7.38 1.45 9.06
8/15/2021 3:45:00 PM 20.39 68.702 0.054 7.37 2.05 9.02
8/15/2021 4:00:00 PM 20.48 68.864 0.054 7.37 1.43 8.99
8/15/2021 4:15:00 PM 20.56 69.008 0.053 7.37 1.41 8.98
8/15/2021 4:30:00 PM 20.63 69.134 0.053 7.36 1.41 8.96
8/15/2021 4:45:00 PM 20.71 69.278 0.052 7.36 2.01 8.93
8/15/2021 5:00:00 PM 20.78 69.404 0.053 7.38 1.38 8.91
8/15/2021 5:15:00 PM 20.8 69.44 0.053 7.37 1.43 8.86
8/15/2021 5:30:00 PM 20.82 69.476 0.053 7.35 1.49 8.82
8/15/2021 5:45:00 PM 20.82 69.476 0.053 7.33 1.44 8.78
8/15/2021 6:00:00 PM 20.8 69.44 0.053 7.32 1.43 8.75
8/15/2021 6:15:00 PM 20.75 69.35 0.054 7.3 1.43 8.71
8/15/2021 6:30:00 PM 20.68 69.224 0.054 7.28 1.4 8.67
8/15/2021 6:45:00 PM 20.61 69.098 0.054 7.26 1.46 8.66
8/15/2021 7:00:00 PM 20.54 68.972 0.054 7.26 1.46 8.66
8/15/2021 7:15:00 PM 20.44 68.792 0.054 7.24 1.45 8.63
8/15/2021 7:30:00 PM 20.33 68.594 0.054 7.23 1.42 8.62
8/15/2021 7:45:00 PM 20.22 68.396 0.054 7.21 1.42 8.61
8/15/2021 8:00:00 PM 20.09 68.162 0.054 7.23 1.4 8.59
8/15/2021 8:15:00 PM 19.95 67.91 0.053 7.21 2.01 8.57
8/15/2021 8:30:00 PM 19.8 67.64 0.052 7.19 2.18 8.55
8/15/2021 8:45:00 PM 19.66 67.388 0.055 7.16 1.61 8.54
8/15/2021 9:00:00 PM 19.52 67.136 0.055 7.15 1.51 8.54
8/15/2021 9:15:00 PM 19.39 66.902 0.055 7.14 1.57 8.55
8/15/2021 9:30:00 PM 19.26 66.668 0.055 7.12 1.56 8.55
8/15/2021 9:45:00 PM 19.12 66.416 0.055 7.1 1.46 8.56
8/15/2021 10:00:00 PM 18.99 66.182 0.056 7.12 1.5 8.58
8/15/2021 10:15:00 PM 18.86 65.948 0.056 7.11 2.07 8.61
8/15/2021 10:30:00 PM 18.73 65.714 0.056 7.1 1.48 8.62
8/15/2021 10:45:00 PM 18.62 65.516 0.056 7.08 1.61 8.64
8/15/2021 11:00:00 PM 18.5 65.3 0.056 7.07 1.45 8.66
8/15/2021 11:15:00 PM 18.39 65.102 0.056 7.09 1.49 8.69
8/15/2021 11:30:00 PM 18.28 64.904 0.056 7.09 1.49 8.71
8/15/2021 11:45:00 PM 18.18 64.724 0.056 7.08 1.59 8.73
8/16/2021 12:00:00 AM 18.08 64.544 0.056 7.07 1.51 8.74
8/16/2021 12:15:00 AM 17.98 64.364 0.056 7.08 1.49 8.77
8/16/2021 12:30:00 AM 17.9 64.22 0.056 7.06 1.5 8.79
8/16/2021 12:45:00 AM 17.81 64.058 0.056 7.05 1.51 8.79
8/16/2021 1:00:00 AM 17.73 63.914 0.056 7.05 1.47 8.82
8/16/2021 1:15:00 AM 17.66 63.788 0.056 7.06 1.46 8.83
8/16/2021 1:30:00 AM 17.58 63.644 0.056 7.06 1.48 8.84
8/16/2021 1:45:00 AM 17.51 63.518 0.056 7.05 1.51 8.86
8/16/2021 2:00:00 AM 17.43 63.374 0.057 7.06 1.44 8.87
8/16/2021 2:15:00 AM 17.36 63.248 0.057 7.06 1.48 8.9
8/16/2021 2:30:00 AM 17.27 63.086 0.055 7.05 2 8.91
8/16/2021 2:45:00 AM 17.2 62.96 0.057 7.03 1.43 8.92
8/16/2021 3:00:00 AM 17.13 62.834 0.054 7.06 2.08 8.94
8/16/2021 3:15:00 AM 17.06 62.708 0.054 7.03 2.02 8.93
8/16/2021 3:30:00 AM 17 62.6 0.057 7.06 1.39 8.98
8/16/2021 3:45:00 AM 16.93 62.474 0.057 7.04 1.4 8.98
8/16/2021 4:00:00 AM 16.87 62.366 0.057 7.04 1.48 9
8/16/2021 4:15:00 AM 16.81 62.258 0.057 7.04 1.45 9
8/16/2021 4:30:00 AM 16.76 62.168 0.057 7.04 1.43 9
8/16/2021 4:45:00 AM 16.72 62.096 0.057 7.03 1.49 9.03
8/16/2021 5:00:00 AM 16.68 62.024 0.057 7.06 1.43 9.05
8/16/2021 5:15:00 AM 16.64 61.952 0.057 7.04 1.43 9.06
8/16/2021 5:30:00 AM 16.6 61.88 0.057 7.05 1.45 9.05
8/16/2021 5:45:00 AM 16.56 61.808 0.057 7.03 1.48 9.03
8/16/2021 6:00:00 AM 16.53 61.754 0.057 7.01 1.57 9.02
8/16/2021 6:15:00 AM 16.5 61.7 0.057 7.04 1.48 9.04
8/16/2021 6:30:00 AM 16.46 61.628 0.057 7.05 1.48 9.09
8/16/2021 6:45:00 AM 16.43 61.574 0.057 7.03 2.33 9.09
8/16/2021 7:00:00 AM 16.41 61.538 0.057 7.06 1.44 9.12
8/16/2021 7:15:00 AM 16.38 61.484 0.057 7.06 1.68 9.13
8/16/2021 7:30:00 AM 16.36 61.448 0.057 7.07 1.34 9.15
8/16/2021 7:45:00 AM 16.34 61.412 0.057 7.08 1.39 9.19
8/16/2021 8:00:00 AM 16.32 61.376 0.057 7.07 1.41 9.2
8/16/2021 8:15:00 AM 16.31 61.358 0.057 7.09 1.47 9.24
8/16/2021 8:30:00 AM 16.31 61.358 0.057 7.1 1.45 9.29
8/16/2021 8:45:00 AM 16.31 61.358 0.054 7.08 2.03 9.32
8/16/2021 9:00:00 AM 16.33 61.394 0.054 7.09 1.91 9.37
8/16/2021 9:15:00 AM 16.35 61.43 0.057 7.11 1.38 9.41
8/16/2021 9:30:00 AM 16.37 61.466 0.056 7.15 1.34 9.43
8/16/2021 9:45:00 AM 16.4 61.52 0.055 7.13 1.88 9.45
8/16/2021 10:00:00 AM 16.44 61.592 0.056 7.16 1.37 9.49
8/16/2021 10:15:00 AM 16.5 61.7 0.056 7.15 1.38 9.52
8/16/2021 10:30:00 AM 16.59 61.862 0.056 7.18 1.29 9.56
8/16/2021 10:45:00 AM 16.71 62.078 0.056 7.2 1.34 9.59
8/16/2021 11:00:00 AM 16.81 62.258 0.055 7.22 1.37 9.59
8/16/2021 11:15:00 AM 16.91 62.438 0.055 7.25 1.37 9.61
8/16/2021 11:30:00 AM 17.01 62.618 0.054 7.23 1.88 9.6
8/16/2021 11:45:00 AM 17.12 62.816 0.055 7.25 1.35 9.59
8/16/2021 12:00:00 PM 17.27 63.086 0.055 7.26 1.34 9.59
8/16/2021 12:15:00 PM 17.4 63.32 0.055 7.29 1.33 9.55
8/16/2021 12:30:00 PM 17.47 63.446 0.055 7.28 1.32 9.5
8/16/2021 12:45:00 PM 17.55 63.59 0.055 7.29 1.35 9.49
8/16/2021 1:00:00 PM 17.65 63.77 0.055 7.28 1.32 9.47
8/16/2021 1:15:00 PM 17.79 64.022 0.055 7.3 1.35 9.47
8/16/2021 1:30:00 PM 17.91 64.238 0.053 7.31 1.99 9.44
8/16/2021 1:45:00 PM 17.99 64.382 0.055 7.31 1.37 9.43
8/16/2021 2:00:00 PM 18.04 64.472 0.055 7.33 1.32 9.4
8/16/2021 2:15:00 PM 18.08 64.544 0.055 7.31 1.31 9.39
8/16/2021 2:30:00 PM 18.12 64.616 0.055 7.31 1.23 9.35
8/16/2021 2:45:00 PM 18.15 64.67 0.055 7.3 1.34 9.3
8/16/2021 3:00:00 PM 18.17 64.706 0.054 7.3 1.49 9.25
8/16/2021 3:15:00 PM 18.18 64.724 0.041 7.33 1.1 9.24
8/16/2021 3:30:00 PM 18.19 64.742 0.054 7.32 1.08 9.24
8/16/2021 3:45:00 PM 18.2 64.76 0.054 7.27 1.08 9.22
8/16/2021 4:00:00 PM 18.2 64.76 0.054 7.27 1.06 9.21
8/16/2021 4:15:00 PM 18.19 64.742 0.054 7.28 1.06 9.21
8/16/2021 4:30:00 PM 18.2 64.76 0.054 7.28 1.14 9.22
8/16/2021 4:45:00 PM 18.18 64.724 0.054 7.27 1.09 9.19
8/16/2021 5:00:00 PM 18.16 64.688 0.054 7.26 1.13 9.18
8/16/2021 5:15:00 PM 18.14 64.652 0.054 7.26 1.17 9.18
8/16/2021 5:30:00 PM 18.14 64.652 0.054 7.27 1.11 9.18
8/16/2021 5:45:00 PM 18.14 64.652 0.054 7.25 1.11 9.16
8/16/2021 6:00:00 PM 18.13 64.634 0.054 7.23 1.04 9.14
8/16/2021 6:15:00 PM 18.1 64.58 0.054 7.24 1.2 9.11
8/16/2021 6:30:00 PM 18.07 64.526 0.054 7.21 1.09 9.07
8/16/2021 6:45:00 PM 18.04 64.472 0.054 7.2 1.14 9.02
8/16/2021 7:00:00 PM 18 64.4 0.053 7.17 1.77 8.99
8/16/2021 7:15:00 PM 17.97 64.346 0.055 7.17 1.06 8.96
8/16/2021 7:30:00 PM 17.93 64.274 0.055 7.16 1.13 8.94
8/16/2021 7:45:00 PM 17.89 64.202 0.055 7.14 1.11 8.92
8/16/2021 8:00:00 PM 17.85 64.13 0.055 7.13 1.07 8.89
8/16/2021 8:15:00 PM 17.81 64.058 0.055 7.12 1.07 8.88
8/16/2021 8:30:00 PM 17.77 63.986 0.055 7.09 1.16 8.86
8/16/2021 8:45:00 PM 17.72 63.896 0.055 7.09 1.2 8.86
8/16/2021 9:00:00 PM 17.68 63.824 0.055 7.1 1.16 8.86
8/16/2021 9:15:00 PM 17.64 63.752 0.055 7.07 1.2 8.85
8/16/2021 9:30:00 PM 17.6 63.68 0.056 7.08 1.22 8.86
8/16/2021 9:45:00 PM 17.57 63.626 0.055 7.08 1.79 8.87
8/16/2021 10:00:00 PM 17.53 63.554 0.056 7.05 1.23 8.86
8/16/2021 10:15:00 PM 17.5 63.5 0.053 7.06 1.81 8.87
8/16/2021 10:30:00 PM 17.47 63.446 0.056 7.05 1.17 8.88
8/16/2021 10:45:00 PM 17.43 63.374 0.056 7.06 1.22 8.87
8/16/2021 11:00:00 PM 17.4 63.32 0.056 7.05 1.06 8.88
8/16/2021 11:15:00 PM 17.37 63.266 0.056 7.04 1.15 8.89
8/16/2021 11:30:00 PM 17.34 63.212 0.056 7.03 1.13 8.88
8/16/2021 11:45:00 PM 17.31 63.158 0.056 7.03 1.19 8.9
8/17/2021 12:00:00 AM 17.29 63.122 0.056 7.04 1.15 8.9
8/17/2021 12:15:00 AM 17.27 63.086 0.055 7.03 2.08 8.92
8/17/2021 12:30:00 AM 17.24 63.032 0.056 7.06 1.12 8.95
8/17/2021 12:45:00 AM 17.23 63.014 0.055 7.03 1.85 8.93
8/17/2021 1:00:00 AM 17.21 62.978 0.054 7.01 1.8 8.91
8/17/2021 1:15:00 AM 17.19 62.942 0.056 7.03 1.25 8.94
8/17/2021 1:30:00 AM 17.18 62.924 0.056 7 1.16 8.92
8/17/2021 1:45:00 AM 17.16 62.888 0.056 7 1.17 8.92
8/17/2021 2:00:00 AM 17.14 62.852 0.055 7.01 1.88 8.93
8/17/2021 2:15:00 AM 17.13 62.834 0.054 6.99 1.81 8.93
8/17/2021 2:30:00 AM 17.11 62.798 0.056 7.01 1.68 8.92
8/17/2021 2:45:00 AM 17.09 62.762 0.056 7.01 1.77 8.94
8/17/2021 3:00:00 AM 17.08 62.744 0.055 7.01 2.03 8.93
8/17/2021 3:15:00 AM 17.06 62.708 0.056 7.01 1.56 8.93
8/17/2021 3:30:00 AM 17.05 62.69 0.056 7 1.53 8.94
8/17/2021 3:45:00 AM 17.04 62.672 0.056 7.02 1.48 8.95
8/17/2021 4:00:00 AM 17.03 62.654 0.056 7 1.4 8.93
8/17/2021 4:15:00 AM 17.01 62.618 0.056 7 1.33 8.95
8/17/2021 4:30:00 AM 17 62.6 0.056 7.01 1.28 8.96
8/17/2021 4:45:00 AM 16.98 62.564 0.056 6.99 1.27 8.96
8/17/2021 5:00:00 AM 16.97 62.546 0.057 6.99 1.22 8.97
8/17/2021 5:15:00 AM 16.96 62.528 0.057 6.98 1.33 8.97
8/17/2021 5:30:00 AM 16.94 62.492 0.057 6.99 1.32 8.98
8/17/2021 5:45:00 AM 16.93 62.474 0.057 6.99 1.28 8.98
8/17/2021 6:00:00 AM 16.91 62.438 0.057 6.98 1.38 8.98
8/17/2021 6:15:00 AM 16.9 62.42 0.057 6.98 1.39 8.98
8/17/2021 6:30:00 AM 16.9 62.42 0.056 6.98 1.35 8.97
8/17/2021 6:45:00 AM 16.88 62.384 0.056 6.97 1.43 8.99
8/17/2021 7:00:00 AM 16.88 62.384 0.056 6.98 1.37 9
8/17/2021 7:15:00 AM 16.87 62.366 0.056 6.98 1.42 9.01
8/17/2021 7:30:00 AM 16.87 62.366 0.056 6.99 1.41 9.03
8/17/2021 7:45:00 AM 16.88 62.384 0.056 7 1.44 9.05
8/17/2021 8:00:00 AM 16.87 62.366 0.057 7.02 1.42 9.11
8/17/2021 8:15:00 AM 16.88 62.384 0.057 7 1.4 9.12
8/17/2021 8:30:00 AM 16.88 62.384 0.057 7.02 1.42 9.14
8/17/2021 8:45:00 AM 16.88 62.384 0.056 7.01 1.33 9.13
8/17/2021 9:00:00 AM 16.88 62.384 0.056 7.02 1.35 9.13
8/17/2021 9:15:00 AM 16.89 62.402 0.056 7.02 1.3 9.16
8/17/2021 9:30:00 AM 16.92 62.456 0.056 7.03 1.29 9.18
8/17/2021 9:45:00 AM 16.94 62.492 0.056 7.04 1.28 9.21
8/17/2021 10:00:00 AM 16.96 62.528 0.056 7.07 1.26 9.26
8/17/2021 10:15:00 AM 16.99 62.582 0.056 7.07 1.3 9.28
8/17/2021 10:30:00 AM 17.04 62.672 0.056 7.1 1.27 9.34
8/17/2021 10:45:00 AM 17.11 62.798 0.056 7.13 1.25 9.37
8/17/2021 11:00:00 AM 17.17 62.906 0.056 7.13 1.31 9.38
8/17/2021 11:15:00 AM 17.24 63.032 0.056 7.15 1.28 9.42
8/17/2021 11:30:00 AM 17.35 63.23 0.055 7.2 1.29 9.47
8/17/2021 11:45:00 AM 17.41 63.338 0.055 7.18 1.35 9.42
8/17/2021 12:00:00 PM 17.43 63.374 0.055 7.17 1.21 9.36
8/17/2021 12:15:00 PM 17.55 63.59 0.055 7.21 1.21 9.42
8/17/2021 12:30:00 PM 17.73 63.914 0.055 7.23 1.25 9.42
8/17/2021 12:45:00 PM 17.9 64.22 0.055 7.28 1.25 9.45
8/17/2021 1:00:00 PM 18.16 64.688 0.055 7.29 1.25 9.43
8/17/2021 1:15:00 PM 18.47 65.246 0.055 7.3 1.23 9.41
8/17/2021 1:30:00 PM 18.65 65.57 0.055 7.29 1.16 9.37
8/17/2021 1:45:00 PM 18.89 66.002 0.055 7.32 1.18 9.33
8/17/2021 2:00:00 PM 19.09 66.362 0.055 7.34 1.79 9.31
8/17/2021 2:15:00 PM 19.35 66.83 0.055 7.32 1.2 9.25
8/17/2021 2:30:00 PM 19.58 67.244 0.055 7.33 1.13 9.19
8/17/2021 2:45:00 PM 19.68 67.424 0.055 7.35 1.2 9.14
8/17/2021 3:00:00 PM 19.77 67.586 0.055 7.33 1.09 9.08
8/17/2021 3:15:00 PM 19.86 67.748 0.055 7.33 1.19 9.01
8/17/2021 3:30:00 PM 19.9 67.82 0.055 7.31 1.12 8.92
8/17/2021 3:45:00 PM 19.89 67.802 0.055 7.25 1.22 8.84
8/17/2021 4:00:00 PM 19.86 67.748 0.055 7.23 1.14 8.8
8/17/2021 4:15:00 PM 19.81 67.658 0.055 7.23 1.18 8.79
8/17/2021 4:30:00 PM 19.77 67.586 0.055 7.23 1.14 8.78
8/17/2021 4:45:00 PM 19.73 67.514 0.055 7.23 1.17 8.79
8/17/2021 5:00:00 PM 19.68 67.424 0.055 7.22 1.14 8.79
8/17/2021 5:15:00 PM 19.62 67.316 0.055 7.18 1.18 8.76
8/17/2021 5:30:00 PM 19.56 67.208 0.055 7.18 1.24 8.74
8/17/2021 5:45:00 PM 19.51 67.118 0.055 7.15 1.19 8.72
8/17/2021 6:00:00 PM 19.45 67.01 0.055 7.15 1.21 8.72
8/17/2021 6:15:00 PM 19.4 66.92 0.055 7.15 1.19 8.75
8/17/2021 6:30:00 PM 19.36 66.848 0.055 7.15 1.25 8.79
8/17/2021 6:45:00 PM 19.31 66.758 0.055 7.15 1.29 8.81
8/17/2021 7:00:00 PM 19.25 66.65 0.055 7.14 1.25 8.79
8/17/2021 7:15:00 PM 19.19 66.542 0.054 7.1 1.87 8.75
8/17/2021 7:30:00 PM 19.16 66.488 0.055 7.11 1.34 8.73
8/17/2021 7:45:00 PM 19.14 66.452 0.055 7.1 1.35 8.69
8/17/2021 8:00:00 PM 19.1 66.38 0.055 7.1 1.27 8.68
8/17/2021 8:15:00 PM 19.05 66.29 0.055 7.08 1.37 8.66
8/17/2021 8:30:00 PM 19 66.2 0.055 7.07 1.44 8.64
8/17/2021 8:45:00 PM 18.95 66.11 0.054 7.05 2 8.64
8/17/2021 9:00:00 PM 18.9 66.02 0.056 7.04 1.4 8.63
8/17/2021 9:15:00 PM 18.85 65.93 0.056 7.03 1.38 8.61
8/17/2021 9:30:00 PM 18.8 65.84 0.056 7.04 1.42 8.64
8/17/2021 9:45:00 PM 18.74 65.732 0.056 7.03 1.42 8.64
8/17/2021 10:00:00 PM 18.68 65.624 0.056 7 1.4 8.64
8/17/2021 10:15:00 PM 18.63 65.534 0.056 7 1.33 8.66
8/17/2021 10:30:00 PM 18.57 65.426 0.056 7.01 1.4 8.67
8/17/2021 10:45:00 PM 18.52 65.336 0.056 6.99 1.37 8.68
8/17/2021 11:00:00 PM 18.47 65.246 0.056 6.99 1.43 8.7
8/17/2021 11:15:00 PM 18.42 65.156 0.057 6.98 1.36 8.7
8/17/2021 11:30:00 PM 18.36 65.048 0.057 6.99 1.37 8.71
8/17/2021 11:45:00 PM 18.31 64.958 0.056 6.96 2.2 8.72
8/18/2021 12:00:00 AM 18.27 64.886 0.057 6.97 1.36 8.74
8/18/2021 12:15:00 AM 18.23 64.814 0.057 6.95 1.41 8.74
8/18/2021 12:30:00 AM 18.19 64.742 0.057 6.95 1.42 8.74
8/18/2021 12:45:00 AM 18.19 64.742 0.056 6.95 1.67 8.76
8/18/2021 1:00:00 AM 18.16 64.688 0.056 6.96 1.63 8.75
8/18/2021 1:15:00 AM 18.12 64.616 0.056 6.95 1.85 8.75
8/18/2021 1:30:00 AM 18.09 64.562 0.056 6.95 2.38 8.76
8/18/2021 1:45:00 AM 18.06 64.508 0.056 6.95 3.57 8.76
8/18/2021 2:00:00 AM 18.03 64.454 0.056 6.95 3.12 8.78
8/18/2021 2:15:00 AM 18.01 64.418 0.056 6.95 4.11 8.78
8/18/2021 2:30:00 AM 17.99 64.382 0.056 6.95 3.46 8.77
8/18/2021 2:45:00 AM 17.97 64.346 0.055 6.95 2.66 8.77
8/18/2021 3:00:00 AM 17.94 64.292 0.055 6.94 2.3 8.79
8/18/2021 3:15:00 AM 17.92 64.256 0.055 6.93 2.17 8.79
8/18/2021 3:30:00 AM 17.9 64.22 0.056 6.97 2.02 8.81
8/18/2021 3:45:00 AM 17.87 64.166 0.056 6.94 2.06 8.8
8/18/2021 4:00:00 AM 17.84 64.112 0.056 6.95 2.2 8.81
8/18/2021 4:15:00 AM 17.81 64.058 0.056 6.95 2.23 8.82
8/18/2021 4:30:00 AM 17.78 64.004 0.056 6.96 2.35 8.83
8/18/2021 4:45:00 AM 17.75 63.95 0.056 6.96 2.45 8.85
8/18/2021 5:00:00 AM 17.72 63.896 0.056 6.95 2.55 8.85
8/18/2021 5:15:00 AM 17.69 63.842 0.056 6.96 2.68 8.87
8/18/2021 5:30:00 AM 17.67 63.806 0.056 6.97 2.86 8.89
8/18/2021 5:45:00 AM 17.64 63.752 0.056 6.97 3.04 8.89
8/18/2021 6:00:00 AM 17.62 63.716 0.056 6.96 3.22 8.89
8/18/2021 6:15:00 AM 17.6 63.68 0.055 6.98 3.47 8.91
8/18/2021 6:30:00 AM 17.58 63.644 0.055 6.97 3.56 8.91
8/18/2021 6:45:00 AM 17.55 63.59 0.055 6.96 3.65 8.92
8/18/2021 7:00:00 AM 17.53 63.554 0.054 6.97 3.82 8.93
8/18/2021 7:15:00 AM 17.5 63.5 0.054 6.97 3.85 8.95
8/18/2021 7:30:00 AM 17.5 63.5 0.054 6.97 3.87 8.97
8/18/2021 7:45:00 AM 17.5 63.5 0.052 6.96 4.17 8.99
8/18/2021 8:00:00 AM 17.5 63.5 0.054 6.98 3.83 8.99
8/18/2021 8:15:00 AM 17.49 63.482 0.054 6.98 3.69 9.02
8/18/2021 8:30:00 AM 17.5 63.5 0.054 7.02 3.84 9.05
8/18/2021 8:45:00 AM 17.5 63.5 0.053 7.01 4.14 9.07
8/18/2021 9:00:00 AM 17.52 63.536 0.054 7.03 3.81 9.09
8/18/2021 9:15:00 AM 17.55 63.59 0.054 7.06 3.88 9.12
8/18/2021 9:30:00 AM 17.59 63.662 0.053 7.07 3.88 9.12
8/18/2021 9:45:00 AM 17.63 63.734 0.053 7.08 3.71 9.13
8/18/2021 10:00:00 AM 17.7 63.86 0.053 7.12 3.57 9.16
8/18/2021 10:15:00 AM 17.76 63.968 0.053 7.14 3.54 9.18
8/18/2021 10:30:00 AM 17.84 64.112 0.053 7.14 3.4 9.2
8/18/2021 10:45:00 AM 17.92 64.256 0.053 7.16 3.42 9.2
8/18/2021 11:00:00 AM 17.99 64.382 0.052 7.16 3.57 9.17
8/18/2021 11:15:00 AM 18.04 64.472 0.052 7.17 3.62 9.14
8/18/2021 11:30:00 AM 18.08 64.544 0.052 7.16 3.71 9.12
8/18/2021 11:45:00 AM 18.11 64.598 0.052 7.16 3.56 9.1
8/18/2021 12:00:00 PM 18.13 64.634 0.052 7.15 4.02 9.07
8/18/2021 12:15:00 PM 18.15 64.67 0.051 7.15 4.56 9.07
8/18/2021 12:30:00 PM 18.14 64.652 0.052 7.15 4.18 9.05
8/18/2021 12:45:00 PM 18.14 64.652 0.052 7.16 3.99 9.05
8/18/2021 1:00:00 PM 18.12 64.616 0.052 7.14 4.03 9.06
8/18/2021 1:15:00 PM 18.11 64.598 0.052 7.16 3.91 9.07
8/18/2021 1:30:00 PM 18.09 64.562 0.052 7.15 3.94 9.06
8/18/2021 1:45:00 PM 18.08 64.544 0.052 7.13 4.15 9.05
8/18/2021 2:00:00 PM 18.06 64.508 0.052 7.14 4.18 9.03
8/18/2021 2:15:00 PM 18.05 64.49 0.052 7.13 4.41 9.01
8/18/2021 2:30:00 PM 18.06 64.508 0.051 7.11 5.06 8.99
8/18/2021 2:45:00 PM 18.06 64.508 0.051 7.11 5.93 9
8/18/2021 3:00:00 PM 18.07 64.526 0.051 7.11 8 8.99
8/18/2021 3:15:00 PM 18.07 64.526 0.05 7.1 8.72 8.97
8/18/2021 3:30:00 PM 18.07 64.526 0.05 7.07 9.76 8.95
8/18/2021 3:45:00 PM 18.05 64.49 0.05 7.09 11.05 8.93
8/18/2021 4:00:00 PM 18.05 64.49 0.049 7.08 14.03 8.92
8/18/2021 4:15:00 PM 18.02 64.436 0.048 7.04 17.61 8.9
8/18/2021 4:30:00 PM 17.99 64.382 0.048 7.02 22.81 8.9
8/18/2021 4:45:00 PM 17.97 64.346 0.047 6.96 27.59 8.88
8/18/2021 5:00:00 PM 17.92 64.256 0.047 6.9 71.9 8.87
8/18/2021 5:15:00 PM 17.86 64.148 0.046 6.86 349.64 8.86
8/18/2021 5:30:00 PM 17.83 64.094 0.046 6.86 52.1 8.87
8/18/2021 5:45:00 PM 17.8 64.04 0.045 6.81 38.9 8.87
8/18/2021 6:00:00 PM 17.77 63.986 0.045 6.77 39.53 8.88
8/18/2021 6:15:00 PM 17.73 63.914 0.045 6.66 38.45 8.89
8/18/2021 6:30:00 PM 17.7 63.86 0.044 6.71 37.15 8.89
8/18/2021 6:45:00 PM 17.65 63.77 0.044 6.69 37.14 8.89
8/18/2021 7:00:00 PM 17.63 63.734 0.044 6.7 36.45 8.89
8/18/2021 7:15:00 PM 17.59 63.662 0.043 6.66 34.13 8.9
8/18/2021 7:30:00 PM 17.56 63.608 0.044 6.69 33.63 8.9
8/18/2021 7:45:00 PM 17.52 63.536 0.043 6.67 33.81 8.9
8/18/2021 8:00:00 PM 17.48 63.464 0.044 6.66 30.98 8.9
8/18/2021 8:15:00 PM 17.45 63.41 0.042 6.67 28.78 8.91
8/18/2021 8:30:00 PM 17.41 63.338 0.044 6.77 29.03 8.9
8/18/2021 8:45:00 PM 17.36 63.248 0.043 6.71 44.96 8.91
8/18/2021 9:00:00 PM 17.32 63.176 0.042 6.73 27.75 8.92
8/18/2021 9:15:00 PM 17.28 63.104 0.043 6.71 28.44 8.92
8/18/2021 9:30:00 PM 17.25 63.05 0.043 6.68 29.37 8.92
8/18/2021 9:45:00 PM 17.23 63.014 0.043 6.68 30.47 8.93
8/18/2021 10:00:00 PM 17.21 62.978 0.042 6.66 30.4 8.93
8/18/2021 10:15:00 PM 17.18 62.924 0.042 6.63 32.04 8.93
8/18/2021 10:30:00 PM 17.14 62.852 0.042 6.61 32.92 8.95
8/18/2021 10:45:00 PM 17.1 62.78 0.042 6.61 32.7 8.95
8/18/2021 11:00:00 PM 17.05 62.69 0.041 6.58 36.61 8.96
8/18/2021 11:15:00 PM 17.01 62.618 0.041 6.61 37.29 8.97
8/18/2021 11:30:00 PM 16.96 62.528 0.041 6.63 38.1 8.98
8/18/2021 11:45:00 PM 16.92 62.456 0.04 6.61 40.42 8.99
8/19/2021 12:00:00 AM 16.88 62.384 0.04 6.58 48.77 9
8/19/2021 12:15:00 AM 16.86 62.348 0.039 6.6 58.8 9
8/19/2021 12:30:00 AM 16.85 62.33 0.039 6.6 71.19 9
8/19/2021 12:45:00 AM 16.85 62.33 0.038 6.58 67.89 9
8/19/2021 1:00:00 AM 16.84 62.312 0.038 6.57 66.96 8.99
8/19/2021 1:15:00 AM 16.83 62.294 0.038 6.54 56.78 8.99
8/19/2021 1:30:00 AM 16.82 62.276 0.038 6.57 62.92 8.99
8/19/2021 1:45:00 AM 16.79 62.222 0.037 6.57 1190.19 9
8/19/2021 2:00:00 AM 16.76 62.168 0.037 6.58 81.38 9
8/19/2021 2:15:00 AM 16.74 62.132 0.037 6.57 82.93 9.01
8/19/2021 2:30:00 AM 16.71 62.078 0.037 6.5 87.71 9.01
8/19/2021 2:45:00 AM 16.67 62.006 0.037 6.55 105.75 9.01
8/19/2021 3:00:00 AM 16.63 61.934 0.037 6.51 90.8 9.02
8/19/2021 3:15:00 AM 16.58 61.844 0.037 6.52 86.39 9.03
8/19/2021 3:30:00 AM 16.54 61.772 0.037 6.51 79.82 9.04
8/19/2021 3:45:00 AM 16.48 61.664 0.036 6.53 78.26 9.05
8/19/2021 4:00:00 AM 16.41 61.538 0.037 6.53 442.37 9.08
8/19/2021 4:15:00 AM 16.35 61.43 0.037 6.52 65.25 9.09
8/19/2021 4:30:00 AM 16.28 61.304 0.035 6.5 205.77 9.11
8/19/2021 4:45:00 AM 16.2 61.16 0.037 6.52 66.04 9.12
8/19/2021 5:00:00 AM 16.12 61.016 0.037 6.55 60.37 9.14
8/19/2021 5:15:00 AM 16.03 60.854 0.036 6.47 64.89 9.16
8/19/2021 5:30:00 AM 15.96 60.728 0.036 6.45 61.44 9.18
8/19/2021 5:45:00 AM 15.89 60.602 0.035 6.47 66.96 9.19
8/19/2021 6:00:00 AM 15.82 60.476 0.036 6.42 61.73 9.21
8/19/2021 6:15:00 AM 15.75 60.35 0.036 6.51 54.41 9.23
8/19/2021 6:30:00 AM 15.67 60.206 0.036 6.44 53.92 9.25
8/19/2021 6:45:00 AM 15.59 60.062 0.036 6.52 54.45 9.27
8/19/2021 7:00:00 AM 15.51 59.918 0.036 6.53 49.16 9.29
8/19/2021 7:15:00 AM 15.42 59.756 0.036 6.5 46.91 9.32
8/19/2021 7:30:00 AM 15.33 59.594 0.036 6.47 47.36 9.35
8/19/2021 7:45:00 AM 15.26 59.468 0.036 6.49 44.05 9.37
8/19/2021 8:00:00 AM 15.2 59.36 0.036 6.48 43.53 9.39
8/19/2021 8:15:00 AM 15.14 59.252 0.036 6.42 111.35 9.4
8/19/2021 8:30:00 AM 15.09 59.162 0.036 6.45 40.22 9.43
8/19/2021 8:45:00 AM 15.05 59.09 0.036 6.45 53.53 9.44
8/19/2021 9:00:00 AM 14.99 58.982 0.035 6.42 52.14 9.47
8/19/2021 9:15:00 AM 14.94 58.892 0.036 6.43 52.19 9.49
8/19/2021 9:30:00 AM 14.91 58.838 0.036 6.46 52.41 9.5
8/19/2021 9:45:00 AM 14.89 58.802 0.035 6.47 39.95 9.51
8/19/2021 10:00:00 AM 14.86 58.748 0.036 6.48 35.62 9.52
8/19/2021 10:15:00 AM 14.83 58.694 0.034 6.46 34.5 9.53
8/19/2021 10:30:00 AM 14.79 58.622 0.034 6.51 30.79 9.54
8/19/2021 10:45:00 AM 14.75 58.55 0.035 6.49 54.38 9.56
8/19/2021 11:00:00 AM 14.73 58.514 0.035 6.44 28.43 9.57
8/19/2021 11:15:00 AM 14.72 58.496 0.036 6.54 27.84 9.58
8/19/2021 11:30:00 AM 14.71 58.478 0.036 6.55 26.88 9.59
8/19/2021 11:45:00 AM 14.71 58.478 0.036 6.56 26.26 9.59
8/19/2021 12:00:00 PM 14.71 58.478 0.036 6.57 26.06 9.6
8/19/2021 12:15:00 PM 14.73 58.514 0.036 6.56 25.45 9.61
8/19/2021 12:30:00 PM 14.74 58.532 0.035 6.56 22.73 9.61
8/19/2021 12:45:00 PM 14.79 58.622 0.036 6.58 23.76 9.62
8/19/2021 1:00:00 PM 14.83 58.694 0.036 6.61 22.93 9.61
8/19/2021 1:15:00 PM 14.87 58.766 0.037 6.6 23.15 9.61
8/19/2021 1:30:00 PM 14.91 58.838 0.037 6.6 22.69 9.61
8/19/2021 1:45:00 PM 14.93 58.874 0.037 6.6 22.09 9.62
8/19/2021 2:00:00 PM 14.96 58.928 0.037 6.61 21.83 9.61
8/19/2021 2:15:00 PM 15.02 59.036 0.037 6.61 20.99 9.6
8/19/2021 2:30:00 PM 15.08 59.144 0.036 6.61 20.43 9.6
8/19/2021 2:45:00 PM 15.13 59.234 0.037 6.61 20.59 9.59
8/19/2021 3:00:00 PM 15.15 59.27 0.037 6.62 20.28 9.58
8/19/2021 3:15:00 PM 15.14 59.252 0.037 6.62 19.58 9.57
8/19/2021 3:30:00 PM 15.16 59.288 0.037 6.62 19.33 9.57
8/19/2021 3:45:00 PM 15.14 59.252 0.036 6.6 18.64 9.56
8/19/2021 4:00:00 PM 15.11 59.198 0.037 6.62 18.66 9.57
8/19/2021 4:15:00 PM 15.08 59.144 0.037 6.61 18.34 9.56
8/19/2021 4:30:00 PM 15.08 59.144 0.037 6.62 18.15 9.55
8/19/2021 4:45:00 PM 15.1 59.18 0.036 6.6 17.7 9.56
8/19/2021 5:00:00 PM 15.12 59.216 0.035 6.64 17.53 9.55
8/19/2021 5:15:00 PM 15.12 59.216 0.037 6.61 17.34 9.54
8/19/2021 5:30:00 PM 15.1 59.18 0.035 6.63 17.19 9.54
8/19/2021 5:45:00 PM 15.05 59.09 0.037 6.58 17.1 9.54
8/19/2021 6:00:00 PM 14.99 58.982 0.037 6.6 16.94 9.55
8/19/2021 6:15:00 PM 14.91 58.838 0.035 6.59 16.9 9.56
8/19/2021 6:30:00 PM 14.8 58.64 0.037 6.57 16.37 9.58
8/19/2021 6:45:00 PM 14.7 58.46 0.037 6.58 16 9.6
8/19/2021 7:00:00 PM 14.62 58.316 0.037 6.57 16.25 9.6
8/19/2021 7:15:00 PM 14.54 58.172 0.035 6.58 15.63 9.61
8/19/2021 7:30:00 PM 14.47 58.046 0.035 6.56 15.71 9.62
8/19/2021 7:45:00 PM 14.4 57.92 0.035 6.55 15.33 9.63
8/19/2021 8:00:00 PM 14.35 57.83 0.037 6.57 14.97 9.63
8/19/2021 8:15:00 PM 14.29 57.722 0.036 6.58 14.83 9.64
8/19/2021 8:30:00 PM 14.25 57.65 0.035 6.57 15.42 9.64
8/19/2021 8:45:00 PM 14.2 57.56 0.035 6.55 14.78 9.65
8/19/2021 9:00:00 PM 14.15 57.47 0.037 6.57 14.73 9.65
8/19/2021 9:15:00 PM 14.09 57.362 0.037 6.56 14.78 9.67
8/19/2021 9:30:00 PM 14.04 57.272 0.037 6.57 14.59 9.68
8/19/2021 9:45:00 PM 14 57.2 0.037 6.55 14.12 9.69
8/19/2021 10:00:00 PM 14.07 57.326 0.037 6.55 14.15 9.66
8/19/2021 10:15:00 PM 14.02 57.236 0.037 6.54 13.6 9.67
8/19/2021 10:30:00 PM 13.97 57.146 0.037 6.55 13.66 9.68
8/19/2021 10:45:00 PM 13.91 57.038 0.036 6.53 13.54 9.69
8/19/2021 11:00:00 PM 13.86 56.948 0.038 6.53 13.34 9.7
8/19/2021 11:15:00 PM 13.82 56.876 0.038 6.55 13.16 9.72
8/19/2021 11:30:00 PM 13.78 56.804 0.037 6.57 13.15 9.71
8/19/2021 11:45:00 PM 13.74 56.732 0.036 6.55 13.2 9.73
8/20/2021 12:00:00 AM 13.7 56.66 0.036 6.56 12.76 9.74
8/20/2021 12:15:00 AM 13.67 56.606 0.038 6.54 12.57 9.75
8/20/2021 12:30:00 AM 13.63 56.534 0.038 6.53 12.46 9.75
8/20/2021 12:45:00 AM 13.59 56.462 0.037 6.53 12.46 9.76
8/20/2021 1:00:00 AM 13.56 56.408 0.038 6.54 12.03 9.77
8/20/2021 1:15:00 AM 13.52 56.336 0.037 6.52 12.76 9.78
8/20/2021 1:30:00 AM 13.49 56.282 0.036 6.53 12.06 9.78
8/20/2021 1:45:00 AM 13.45 56.21 0.036 6.53 12.1 9.79
8/20/2021 2:00:00 AM 13.43 56.174 0.036 6.53 12.09 9.8
8/20/2021 2:15:00 AM 13.4 56.12 0.036 6.57 11.7 9.8
8/20/2021 2:30:00 AM 13.37 56.066 0.038 6.54 11.24 9.81
8/20/2021 2:45:00 AM 13.34 56.012 0.036 6.54 11.57 9.81
8/20/2021 3:00:00 AM 13.31 55.958 0.038 6.53 11.15 9.83
8/20/2021 3:15:00 AM 13.28 55.904 0.038 6.54 11.15 9.83
8/20/2021 3:30:00 AM 13.25 55.85 0.038 6.56 10.93 9.84
8/20/2021 3:45:00 AM 13.22 55.796 0.037 6.57 11.04 9.85
8/20/2021 4:00:00 AM 13.18 55.724 0.036 6.54 11.28 9.86
8/20/2021 4:15:00 AM 13.15 55.67 0.038 6.56 10.51 9.86
8/20/2021 4:30:00 AM 13.12 55.616 0.037 6.54 10.86 9.87
8/20/2021 4:45:00 AM 13.09 55.562 0.036 6.53 10.62 9.88
8/20/2021 5:00:00 AM 13.07 55.526 0.038 6.55 10.22 9.88
8/20/2021 5:15:00 AM 13.05 55.49 0.038 6.57 10.14 9.89
8/20/2021 5:30:00 AM 13.03 55.454 0.038 6.55 9.94 9.9
8/20/2021 5:45:00 AM 13 55.4 0.038 6.56 10.34 9.9
8/20/2021 6:00:00 AM 12.98 55.364 0.036 6.56 10.33 9.91
8/20/2021 6:15:00 AM 12.96 55.328 0.038 6.56 9.84 9.92
8/20/2021 6:30:00 AM 12.94 55.292 0.037 6.57 10.07 9.92
8/20/2021 6:45:00 AM 12.93 55.274 0.038 6.55 10.27 9.92
8/20/2021 7:00:00 AM 12.91 55.238 0.039 6.58 9.7 9.93
8/20/2021 7:15:00 AM 12.9 55.22 0.037 6.61 9.83 9.93
8/20/2021 7:30:00 AM 12.89 55.202 0.039 6.59 9.63 9.94
8/20/2021 7:45:00 AM 12.87 55.166 0.039 6.6 9.64 9.95
8/20/2021 8:00:00 AM 12.86 55.148 0.039 6.6 9.53 9.96
8/20/2021 8:15:00 AM 12.85 55.13 0.039 6.6 9.53 9.97
8/20/2021 8:30:00 AM 12.85 55.13 0.039 6.61 9.34 9.98
8/20/2021 8:45:00 AM 12.85 55.13 0.039 6.61 9.21 9.99
8/20/2021 9:00:00 AM 12.84 55.112 0.038 6.6 9.47 10
8/20/2021 9:15:00 AM 12.85 55.13 0.037 6.61 9.31 10.02
8/20/2021 9:30:00 AM 12.86 55.148 0.037 6.62 9.14 10.03
8/20/2021 9:45:00 AM 12.88 55.184 0.039 6.63 8.85 10.04
8/20/2021 10:00:00 AM 12.91 55.238 0.037 6.63 8.96 10.05
8/20/2021 10:15:00 AM 12.95 55.31 0.039 6.64 8.72 10.06
8/20/2021 10:30:00 AM 12.99 55.382 0.038 6.65 8.82 10.05
8/20/2021 10:45:00 AM 13.03 55.454 0.039 6.67 8.45 10.06
8/20/2021 11:00:00 AM 13.08 55.544 0.039 6.66 8.57 10.05
8/20/2021 11:15:00 AM 13.1 55.58 0.039 6.67 8.36 10.05
8/20/2021 11:30:00 AM 13.14 55.652 0.038 6.66 8.75 10.04
8/20/2021 11:45:00 AM 13.18 55.724 0.039 6.68 8.08 10.04
8/20/2021 12:00:00 PM 13.25 55.85 0.039 6.68 8.13 10.04
8/20/2021 12:15:00 PM 13.3 55.94 0.039 6.69 8.02 10.03
8/20/2021 12:30:00 PM 13.35 56.03 0.037 6.68 8.43 10.02
8/20/2021 12:45:00 PM 13.35 56.03 0.039 6.69 8.05 10.01
8/20/2021 1:00:00 PM 13.39 56.102 0.039 6.68 8.02 9.98
8/20/2021 1:15:00 PM 13.47 56.246 0.038 6.69 7.76 9.98
8/20/2021 1:30:00 PM 13.59 56.462 0.037 6.69 8.24 9.97
8/20/2021 1:45:00 PM 13.64 56.552 0.039 6.7 7.78 9.95
8/20/2021 2:00:00 PM 13.72 56.696 0.039 6.7 7.75 9.93
8/20/2021 2:15:00 PM 13.78 56.804 0.039 6.7 7.67 9.92
8/20/2021 2:30:00 PM 13.9 57.02 0.039 6.72 7.67 9.91
8/20/2021 2:45:00 PM 13.99 57.182 0.038 6.71 8.1 9.9
8/20/2021 3:00:00 PM 14.02 57.236 0.037 6.72 8.01 9.89
8/20/2021 3:15:00 PM 14.06 57.308 0.039 6.72 7.43 9.87
8/20/2021 3:30:00 PM 14.12 57.416 0.038 6.71 7.84 9.85
8/20/2021 3:45:00 PM 14.14 57.452 0.039 6.72 7.48 9.84
8/20/2021 4:00:00 PM 14.15 57.47 0.039 6.72 7.49 9.83
8/20/2021 4:15:00 PM 14.17 57.506 0.039 6.72 7.49 9.82
8/20/2021 4:30:00 PM 14.19 57.542 0.039 6.74 7.39 9.82
8/20/2021 4:45:00 PM 14.21 57.578 0.037 6.71 7.87 9.82
8/20/2021 5:00:00 PM 14.24 57.632 0.039 6.73 7.4 9.82
8/20/2021 5:15:00 PM 14.26 57.668 0.039 6.73 7.45 9.8
8/20/2021 5:30:00 PM 14.26 57.668 0.039 6.71 7.44 9.78
8/20/2021 5:45:00 PM 14.23 57.614 0.039 6.72 7.34 9.78
8/20/2021 6:00:00 PM 14.18 57.524 0.039 6.72 7.23 9.77
8/20/2021 6:15:00 PM 14.13 57.434 0.038 6.69 7.77 9.77
8/20/2021 6:30:00 PM 14.09 57.362 0.037 6.68 7.92 9.77
8/20/2021 6:45:00 PM 14.06 57.308 0.039 6.71 7.53 9.77
8/20/2021 7:00:00 PM 14.04 57.272 0.038 6.69 7.92 9.76
8/20/2021 7:15:00 PM 14.01 57.218 0.039 6.7 7.62 9.76
8/20/2021 7:30:00 PM 13.98 57.164 0.039 6.68 8.08 9.75
8/20/2021 7:45:00 PM 13.95 57.11 0.038 6.68 7.93 9.75
8/20/2021 8:00:00 PM 13.91 57.038 0.04 6.68 7.56 9.74
8/20/2021 8:15:00 PM 13.87 56.966 0.04 6.67 7.56 9.74
8/20/2021 8:30:00 PM 13.84 56.912 0.04 6.66 7.56 9.74
8/20/2021 8:45:00 PM 13.8 56.84 0.04 6.68 7.34 9.74
8/20/2021 9:00:00 PM 13.75 56.75 0.039 6.64 7.88 9.74
8/20/2021 9:15:00 PM 13.7 56.66 0.038 6.64 8.07 9.74
8/20/2021 9:30:00 PM 13.65 56.57 0.04 6.65 7.16 9.75
8/20/2021 9:45:00 PM 13.6 56.48 0.039 6.63 7.82 9.76
8/20/2021 10:00:00 PM 13.56 56.408 0.038 6.63 7.78 9.77
8/20/2021 10:15:00 PM 13.52 56.336 0.039 6.63 7.88 9.78
8/20/2021 10:30:00 PM 13.48 56.264 0.04 6.64 7.11 9.78
8/20/2021 10:45:00 PM 13.43 56.174 0.039 6.62 7.45 9.8
8/20/2021 11:00:00 PM 13.4 56.12 0.04 6.64 6.89 9.8
8/20/2021 11:15:00 PM 13.35 56.03 0.04 6.64 7.08 9.81
8/20/2021 11:30:00 PM 13.32 55.976 0.039 6.64 7.46 9.82
8/20/2021 11:45:00 PM 13.29 55.922 0.038 6.61 7.53 9.83
8/21/2021 12:00:00 AM 13.27 55.886 0.04 6.62 6.77 9.84
8/21/2021 12:15:00 AM 13.25 55.85 0.038 6.62 7.11 9.84
8/21/2021 12:30:00 AM 13.23 55.814 0.038 6.61 6.9 9.84
8/21/2021 12:45:00 AM 13.21 55.778 0.039 6.66 7.19 9.85
8/21/2021 1:00:00 AM 13.19 55.742 0.04 6.62 6.62 9.85
8/21/2021 1:15:00 AM 13.17 55.706 0.04 6.62 6.42 9.86
8/21/2021 1:30:00 AM 13.14 55.652 0.039 6.61 6.76 9.86
8/21/2021 1:45:00 AM 13.12 55.616 0.04 6.62 6.29 9.87
8/21/2021 2:00:00 AM 13.09 55.562 0.04 6.63 6.2 9.88
8/21/2021 2:15:00 AM 13.07 55.526 0.039 6.63 6.92 9.88
8/21/2021 2:30:00 AM 13.05 55.49 0.038 6.62 6.93 9.89
8/21/2021 2:45:00 AM 13.02 55.436 0.04 6.63 6.2 9.9
8/21/2021 3:00:00 AM 12.99 55.382 0.038 6.63 6.73 9.9
8/21/2021 3:15:00 AM 12.96 55.328 0.038 6.62 6.74 9.91
8/21/2021 3:30:00 AM 12.94 55.292 0.04 6.63 5.96 9.91
8/21/2021 3:45:00 AM 12.92 55.256 0.04 6.62 6.38 9.92
8/21/2021 4:00:00 AM 12.9 55.22 0.04 6.61 6.48 9.92
8/21/2021 4:15:00 AM 12.88 55.184 0.04 6.62 6.08 9.93
8/21/2021 4:30:00 AM 12.86 55.148 0.04 6.62 5.84 9.93
8/21/2021 4:45:00 AM 12.84 55.112 0.041 6.61 6.59 9.94
8/21/2021 5:00:00 AM 12.83 55.094 0.038 6.62 6.34 9.94
8/21/2021 5:15:00 AM 12.82 55.076 0.041 6.61 5.86 9.94
8/21/2021 5:30:00 AM 12.8 55.04 0.041 6.63 5.55 9.94
8/21/2021 5:45:00 AM 12.78 55.004 0.041 6.62 6.19 9.95
8/21/2021 6:00:00 AM 12.76 54.968 0.041 6.62 5.88 9.96
8/21/2021 6:15:00 AM 12.74 54.932 0.04 6.61 6.76 9.96
8/21/2021 6:30:00 AM 12.72 54.896 0.039 6.61 6.46 9.97
8/21/2021 6:45:00 AM 12.71 54.878 0.039 6.62 6.82 9.97
8/21/2021 7:00:00 AM 12.7 54.86 0.041 6.62 5.63 9.98
8/21/2021 7:15:00 AM 12.69 54.842 0.04 6.62 5.99 9.98
8/21/2021 7:30:00 AM 12.69 54.842 0.041 6.63 10.77 9.99
8/21/2021 7:45:00 AM 12.69 54.842 0.041 6.64 5.53 10.01
8/21/2021 8:00:00 AM 12.68 54.824 0.041 6.64 5.6 10.02
8/21/2021 8:15:00 AM 12.69 54.842 0.041 6.65 5.54 10.04
8/21/2021 8:30:00 AM 12.7 54.86 0.039 6.64 5.73 10.05
8/21/2021 8:45:00 AM 12.71 54.878 0.041 6.66 5.45 10.06
8/21/2021 9:00:00 AM 12.73 54.914 0.041 6.67 5.5 10.07
8/21/2021 9:15:00 AM 12.76 54.968 0.041 6.68 7.65 10.09
8/21/2021 9:30:00 AM 12.79 55.022 0.041 6.69 5.13 10.1
8/21/2021 9:45:00 AM 12.83 55.094 0.041 6.69 5.16 10.1
8/21/2021 10:00:00 AM 12.88 55.184 0.041 6.7 5.16 10.11
8/21/2021 10:15:00 AM 12.93 55.274 0.041 6.7 9.42 10.11
8/21/2021 10:30:00 AM 12.98 55.364 0.041 6.73 5.08 10.1
8/21/2021 10:45:00 AM 13.05 55.49 0.04 6.72 7.97 10.1
8/21/2021 11:00:00 AM 13.16 55.688 0.041 6.74 6.71 10.09
8/21/2021 11:15:00 AM 13.22 55.796 0.041 6.75 5.01 10.08
8/21/2021 11:30:00 AM 13.33 55.994 0.041 6.76 4.96 10.07
8/21/2021 11:45:00 AM 13.4 56.12 0.039 6.76 5.71 10.05
8/21/2021 12:00:00 PM 13.48 56.264 0.04 6.74 5.57 10.04
8/21/2021 12:15:00 PM 13.58 56.444 0.041 6.78 4.54 10.02
8/21/2021 12:30:00 PM 13.71 56.678 0.041 6.79 5.13 10.01
8/21/2021 12:45:00 PM 13.78 56.804 0.041 6.79 4.74 10
8/21/2021 1:00:00 PM 13.87 56.966 0.039 6.79 5.26 9.98
8/21/2021 1:15:00 PM 13.99 57.182 0.039 6.79 5.5 9.96
8/21/2021 1:30:00 PM 14.09 57.362 0.039 6.8 6.23 9.94
8/21/2021 1:45:00 PM 14.18 57.524 0.041 6.8 4.81 9.92
8/21/2021 2:00:00 PM 14.33 57.794 0.041 6.81 4.65 9.9
8/21/2021 2:15:00 PM 14.41 57.938 0.041 6.81 4.53 9.86
8/21/2021 2:30:00 PM 14.38 57.884 0.04 6.8 6.15 9.84
8/21/2021 2:45:00 PM 14.34 57.812 0.041 6.81 4.41 9.83
8/21/2021 3:00:00 PM 14.32 57.776 0.039 6.8 5.77 9.83
8/21/2021 3:15:00 PM 14.35 57.83 0.041 6.8 4.58 9.84
8/21/2021 3:30:00 PM 14.39 57.902 0.041 6.8 6.24 9.83
8/21/2021 3:45:00 PM 14.44 57.992 0.041 6.79 5.42 9.83
8/21/2021 4:00:00 PM 14.49 58.082 0.041 6.82 4.69 9.81
8/21/2021 4:15:00 PM 14.53 58.154 0.039 6.8 5.86 9.8
8/21/2021 4:30:00 PM 14.46 58.028 0.039 6.8 5.39 9.79
8/21/2021 4:45:00 PM 14.45 58.01 0.041 6.82 4.92 9.78
8/21/2021 5:00:00 PM 14.44 57.992 0.039 6.81 5.69 9.78
8/21/2021 5:15:00 PM 14.42 57.956 0.041 6.81 5.22 9.78
8/21/2021 5:30:00 PM 14.35 57.83 0.041 6.8 4.86 9.79
8/21/2021 5:45:00 PM 14.3 57.74 0.04 6.79 6.03 9.78
8/21/2021 6:00:00 PM 14.26 57.668 0.039 6.77 5.97 9.78
8/21/2021 6:15:00 PM 14.23 57.614 0.039 6.74 6.99 9.78
8/21/2021 6:30:00 PM 14.2 57.56 0.041 6.77 11.64 9.77
8/21/2021 6:45:00 PM 14.17 57.506 0.041 6.76 5.82 9.77
8/21/2021 7:00:00 PM 14.15 57.47 0.041 6.75 5.67 9.76
8/21/2021 7:15:00 PM 14.13 57.434 0.041 6.76 5.83 9.75
8/21/2021 7:30:00 PM 14.11 57.398 0.04 6.75 5.37 9.74
8/21/2021 7:45:00 PM 14.08 57.344 0.041 6.75 4.25 9.73
8/21/2021 8:00:00 PM 14.06 57.308 0.041 6.73 4.55 9.72
8/21/2021 8:15:00 PM 14.04 57.272 0.039 6.74 5.51 9.71
8/21/2021 8:30:00 PM 14.03 57.254 0.039 6.72 5.35 9.69
8/21/2021 8:45:00 PM 14.03 57.254 0.041 6.71 6.31 9.68
8/21/2021 9:00:00 PM 14.03 57.254 0.039 6.71 5.98 9.67
8/21/2021 9:15:00 PM 14.03 57.254 0.041 6.7 5.93 9.67
8/21/2021 9:30:00 PM 14.02 57.236 0.041 6.7 5.65 9.67
8/21/2021 9:45:00 PM 14 57.2 0.041 6.69 5.97 9.67
8/21/2021 10:00:00 PM 13.97 57.146 0.041 6.68 5.18 9.67
8/21/2021 10:15:00 PM 13.94 57.092 0.041 6.68 5.48 9.68
8/21/2021 10:30:00 PM 13.91 57.038 0.041 6.68 5.17 9.69
8/21/2021 10:45:00 PM 13.88 56.984 0.041 6.68 6.74 9.69
8/21/2021 11:00:00 PM 13.84 56.912 0.042 6.67 5.29 9.7
8/21/2021 11:15:00 PM 13.79 56.822 0.04 6.72 6.45 9.71
8/21/2021 11:30:00 PM 13.75 56.75 0.041 6.66 5.16 9.72
8/21/2021 11:45:00 PM 13.71 56.678 0.042 6.67 4.6 9.73
8/22/2021 12:00:00 AM 13.66 56.588 0.041 6.67 5.21 9.74
8/22/2021 12:15:00 AM 13.63 56.534 0.039 6.67 5.86 9.75
8/22/2021 12:30:00 AM 13.59 56.462 0.041 6.67 5.59 9.75
8/22/2021 12:45:00 AM 13.55 56.39 0.041 6.67 6.05 9.77
8/22/2021 1:00:00 AM 13.51 56.318 0.042 6.68 4.87 9.78
8/22/2021 1:15:00 AM 13.47 56.246 0.04 6.67 5.38 9.78
8/22/2021 1:30:00 AM 13.43 56.174 0.04 6.67 5.12 9.79
8/22/2021 1:45:00 AM 13.4 56.12 0.04 6.68 5.65 9.8
8/22/2021 2:00:00 AM 13.37 56.066 0.042 6.7 4.59 9.81
8/22/2021 2:15:00 AM 13.34 56.012 0.042 6.69 4.41 9.81
8/22/2021 2:30:00 AM 13.31 55.958 0.042 6.69 5.16 9.83
8/22/2021 2:45:00 AM 13.28 55.904 0.041 6.69 6.59 9.83
8/22/2021 3:00:00 AM 13.25 55.85 0.042 6.71 4.63 9.84
8/22/2021 3:15:00 AM 13.24 55.832 0.041 6.7 6.57 9.84
8/22/2021 3:30:00 AM 13.22 55.796 0.04 6.7 8.01 9.84
8/22/2021 3:45:00 AM 13.2 55.76 0.042 6.71 4.79 9.85
8/22/2021 4:00:00 AM 13.18 55.724 0.041 6.71 5.12 9.85
8/22/2021 4:15:00 AM 13.16 55.688 0.042 6.7 4.39 9.86
8/22/2021 4:30:00 AM 13.13 55.634 0.042 6.7 4.64 9.87
8/22/2021 4:45:00 AM 13.11 55.598 0.04 6.71 8.69 9.87
8/22/2021 5:00:00 AM 13.08 55.544 0.042 6.69 4.16 9.88
8/22/2021 5:15:00 AM 13.06 55.508 0.042 6.71 5.04 9.88
8/22/2021 5:30:00 AM 13.03 55.454 0.042 6.69 3.67 9.89
8/22/2021 5:45:00 AM 13.01 55.418 0.042 6.7 4.75 9.9
8/22/2021 6:00:00 AM 12.99 55.382 0.042 6.71 4.73 9.91
8/22/2021 6:15:00 AM 12.98 55.364 0.042 6.7 4.74 9.92
8/22/2021 6:30:00 AM 12.97 55.346 0.042 6.71 3.89 9.92
8/22/2021 6:45:00 AM 12.97 55.346 0.042 6.7 5.55 9.92
8/22/2021 7:00:00 AM 12.96 55.328 0.042 6.69 4.14 9.93
8/22/2021 7:15:00 AM 12.96 55.328 0.041 6.71 5.81 9.94
8/22/2021 7:30:00 AM 12.96 55.328 0.042 6.71 4.16 9.96
8/22/2021 7:45:00 AM 12.97 55.346 0.042 6.71 4.81 9.98
8/22/2021 8:00:00 AM 12.99 55.382 0.042 6.73 3.8 10
8/22/2021 8:15:00 AM 12.99 55.382 0.042 6.71 4.48 10.01
8/22/2021 8:30:00 AM 12.99 55.382 0.041 6.74 4.4 10.02
8/22/2021 8:45:00 AM 12.99 55.382 0.042 6.74 4.43 10.02
8/22/2021 9:00:00 AM 13.01 55.418 0.042 6.73 3.91 10.03
8/22/2021 9:15:00 AM 13.02 55.436 0.041 6.75 5.8 10.05
8/22/2021 9:30:00 AM 13.06 55.508 0.04 6.76 6.84 10.07
8/22/2021 9:45:00 AM 13.1 55.58 0.04 6.77 4.76 10.08
8/22/2021 10:00:00 AM 13.15 55.67 0.042 6.77 4.34 10.08
8/22/2021 10:15:00 AM 13.2 55.76 0.042 6.78 4.42 10.08
8/22/2021 10:30:00 AM 13.24 55.832 0.042 6.77 3.32 10.07
8/22/2021 10:45:00 AM 13.35 56.03 0.042 6.82 4.65 10.07
8/22/2021 11:00:00 AM 13.45 56.21 0.042 6.8 3.54 10.06
8/22/2021 11:15:00 AM 13.59 56.462 0.04 6.81 3.93 10.04
8/22/2021 11:30:00 AM 13.66 56.588 0.042 6.82 3.31 10.03
8/22/2021 11:45:00 AM 13.79 56.822 0.04 6.83 4.09 10
8/22/2021 12:00:00 PM 13.95 57.11 0.042 6.83 3.21 9.99
8/22/2021 12:15:00 PM 14.07 57.326 0.042 6.85 3.24 9.97
8/22/2021 12:30:00 PM 14.14 57.452 0.042 6.85 3.2 9.94
8/22/2021 12:45:00 PM 14.24 57.632 0.041 6.86 3.96 9.93
8/22/2021 1:00:00 PM 14.41 57.938 0.042 6.85 3.33 9.9
8/22/2021 1:15:00 PM 14.44 57.992 0.041 6.85 3.94 9.89
8/22/2021 1:30:00 PM 14.51 58.118 0.042 6.87 3.21 9.87
8/22/2021 1:45:00 PM 14.54 58.172 0.042 6.85 3.22 9.85
8/22/2021 2:00:00 PM 14.53 58.154 0.041 6.85 3.96 9.84
8/22/2021 2:15:00 PM 14.52 58.136 0.04 6.85 3.94 9.84
8/22/2021 2:30:00 PM 14.51 58.118 0.042 6.83 3.24 9.83
8/22/2021 2:45:00 PM 14.5 58.1 0.041 6.86 3.88 9.82
8/22/2021 3:00:00 PM 14.49 58.082 0.042 6.83 3.56 9.8
8/22/2021 3:15:00 PM 14.51 58.118 0.04 6.85 3.96 9.79
8/22/2021 3:30:00 PM 14.53 58.154 0.042 6.85 3.17 9.78
8/22/2021 3:45:00 PM 14.54 58.172 0.041 6.84 3.83 9.76
8/22/2021 4:00:00 PM 14.54 58.172 0.042 6.81 3.17 9.76
8/22/2021 4:15:00 PM 14.52 58.136 0.041 6.83 3.9 9.75
8/22/2021 4:30:00 PM 14.52 58.136 0.042 6.85 3.16 9.76
8/22/2021 4:45:00 PM 14.5 58.1 0.042 6.81 3.19 9.76
8/22/2021 5:00:00 PM 14.49 58.082 0.042 6.83 3.15 9.78
8/22/2021 5:15:00 PM 14.47 58.046 0.041 6.83 3.88 9.79
8/22/2021 5:30:00 PM 14.46 58.028 0.042 6.84 3.19 9.79
8/22/2021 5:45:00 PM 14.45 58.01 0.042 6.84 3.13 9.78
8/22/2021 6:00:00 PM 14.43 57.974 0.042 6.84 3.2 9.77
8/22/2021 6:15:00 PM 14.41 57.938 0.042 6.82 3.11 9.76
8/22/2021 6:30:00 PM 14.38 57.884 0.042 6.82 3.14 9.75
8/22/2021 6:45:00 PM 14.35 57.83 0.04 6.83 4.01 9.74
8/22/2021 7:00:00 PM 14.31 57.758 0.04 6.79 4.08 9.74
8/22/2021 7:15:00 PM 14.27 57.686 0.04 6.81 4.54 9.73
8/22/2021 7:30:00 PM 14.25 57.65 0.042 6.8 3.55 9.7
8/22/2021 7:45:00 PM 14.22 57.596 0.042 6.81 3.41 9.7
8/22/2021 8:00:00 PM 14.18 57.524 0.042 6.8 3.47 9.69
8/22/2021 8:15:00 PM 14.16 57.488 0.042 6.77 3.46 9.68
8/22/2021 8:30:00 PM 14.13 57.434 0.042 6.78 3.47 9.68
8/22/2021 8:45:00 PM 14.12 57.416 0.042 6.76 3.64 9.67
8/22/2021 9:00:00 PM 14.11 57.398 0.042 6.75 3.66 9.67
8/22/2021 9:15:00 PM 14.11 57.398 0.042 6.75 4.18 9.66
8/22/2021 9:30:00 PM 14.1 57.38 0.04 6.74 4.33 9.66
8/22/2021 9:45:00 PM 14.1 57.38 0.042 6.73 3.67 9.66
8/22/2021 10:00:00 PM 14.1 57.38 0.04 6.74 4.39 9.66
8/22/2021 10:15:00 PM 14.09 57.362 0.043 6.73 3.6 9.66
8/22/2021 10:30:00 PM 14.07 57.326 0.043 6.73 3.61 9.66
8/22/2021 10:45:00 PM 14.03 57.254 0.041 6.74 4.34 9.67
8/22/2021 11:00:00 PM 13.99 57.182 0.043 6.73 3.48 9.67
8/22/2021 11:15:00 PM 13.95 57.11 0.041 6.76 4.25 9.68
8/22/2021 11:30:00 PM 13.9 57.02 0.041 6.73 4.21 9.69
8/22/2021 11:45:00 PM 13.86 56.948 0.041 6.72 4.07 9.7
8/23/2021 12:00:00 AM 13.82 56.876 0.043 6.7 3.47 9.71
8/23/2021 12:15:00 AM 13.79 56.822 0.043 6.73 3.47 9.72
8/23/2021 12:30:00 AM 13.76 56.768 0.043 6.7 3.45 9.72
8/23/2021 12:45:00 AM 13.73 56.714 0.042 6.71 4.13 9.73
8/23/2021 1:00:00 AM 13.7 56.66 0.041 6.74 4.03 9.73
8/23/2021 1:15:00 AM 13.67 56.606 0.043 6.73 3.3 9.74
8/23/2021 1:30:00 AM 13.64 56.552 0.043 6.72 3.3 9.74
8/23/2021 1:45:00 AM 13.61 56.498 0.043 6.71 3.36 9.75
8/23/2021 2:00:00 AM 13.59 56.462 0.043 6.77 3.2 9.75
8/23/2021 2:15:00 AM 13.57 56.426 0.043 6.71 3.44 9.75
8/23/2021 2:30:00 AM 13.55 56.39 0.042 6.73 4 9.76
8/23/2021 2:45:00 AM 13.54 56.372 0.041 6.72 4.07 9.76
8/23/2021 3:00:00 AM 13.52 56.336 0.041 6.73 3.96 9.77
8/23/2021 3:15:00 AM 13.51 56.318 0.043 6.71 3.3 9.76
8/23/2021 3:30:00 AM 13.5 56.3 0.043 6.73 3.31 9.77
8/23/2021 3:45:00 AM 13.49 56.282 0.043 6.71 3.29 9.77
8/23/2021 4:00:00 AM 13.48 56.264 0.042 6.73 4.02 9.77
8/23/2021 4:15:00 AM 13.48 56.264 0.043 6.7 3.14 9.77
8/23/2021 4:30:00 AM 13.47 56.246 0.043 6.72 3.26 9.78
8/23/2021 4:45:00 AM 13.46 56.228 0.042 6.72 3.9 9.78
8/23/2021 5:00:00 AM 13.45 56.21 0.041 6.71 3.91 9.78
8/23/2021 5:15:00 AM 13.44 56.192 0.043 6.71 3.19 9.78
8/23/2021 5:30:00 AM 13.43 56.174 0.043 6.72 3.21 9.78
8/23/2021 5:45:00 AM 13.43 56.174 0.043 6.72 3.21 9.79
8/23/2021 6:00:00 AM 13.43 56.174 0.043 6.72 3.19 9.79
8/23/2021 6:15:00 AM 13.42 56.156 0.043 6.72 3.15 9.79
8/23/2021 6:30:00 AM 13.41 56.138 0.043 6.7 3.14 9.79
8/23/2021 6:45:00 AM 13.39 56.102 0.042 6.72 3.92 9.8
8/23/2021 7:00:00 AM 13.37 56.066 0.041 6.71 3.95 9.81
8/23/2021 7:15:00 AM 13.36 56.048 0.043 6.73 3.09 9.83
8/23/2021 7:30:00 AM 13.34 56.012 0.043 6.7 3.09 9.84
8/23/2021 7:45:00 AM 13.33 55.994 0.042 6.73 3.78 9.86
8/23/2021 8:00:00 AM 13.32 55.976 0.043 6.75 3.02 9.89
8/23/2021 8:15:00 AM 13.32 55.976 0.043 6.75 3 9.91
8/23/2021 8:30:00 AM 13.34 56.012 0.042 6.77 3.67 9.95
8/23/2021 8:45:00 AM 13.36 56.048 0.041 6.77 3.75 9.95
8/23/2021 9:00:00 AM 13.37 56.066 0.043 6.79 2.89 9.95
8/23/2021 9:15:00 AM 13.39 56.102 0.043 6.81 2.88 9.96
8/23/2021 9:30:00 AM 13.42 56.156 0.043 6.8 3.02 9.97
8/23/2021 9:45:00 AM 13.46 56.228 0.043 6.83 2.95 9.98
8/23/2021 10:00:00 AM 13.55 56.39 0.042 6.79 3.57 9.99
8/23/2021 10:15:00 AM 13.63 56.534 0.043 6.8 3.09 9.98
8/23/2021 10:30:00 AM 13.73 56.714 0.043 6.85 2.8 9.99
8/23/2021 10:45:00 AM 13.84 56.912 0.043 6.87 2.92 9.99
8/23/2021 11:00:00 AM 13.98 57.164 0.042 6.87 3.62 9.98
8/23/2021 11:15:00 AM 14.01 57.218 0.043 6.84 2.85 9.97
8/23/2021 11:30:00 AM 14.07 57.326 0.041 6.86 3.6 9.95
8/23/2021 11:45:00 AM 14.1 57.38 0.043 6.86 2.71 9.94
8/23/2021 12:00:00 PM 14.14 57.452 0.043 6.87 3.37 9.95
8/23/2021 12:15:00 PM 14.25 57.65 0.043 6.87 3.26 9.93
8/23/2021 12:30:00 PM 14.42 57.956 0.042 6.88 3.93 9.9
8/23/2021 12:45:00 PM 14.56 58.208 0.041 6.87 4.14 9.88
8/23/2021 1:00:00 PM 14.74 58.532 0.042 6.88 4.3 9.85
8/23/2021 1:15:00 PM 14.95 58.91 0.042 6.89 4.54 9.81
8/23/2021 1:30:00 PM 15.11 59.198 0.041 6.9 9.78 9.8
8/23/2021 1:45:00 PM 15.24 59.432 0.043 6.9 2.89 9.76
8/23/2021 2:00:00 PM 15.4 59.72 0.043 6.94 2.9 9.73
8/23/2021 2:15:00 PM 15.39 59.702 0.042 6.91 3.03 9.71
8/23/2021 2:30:00 PM 15.56 60.008 0.043 6.92 2.9 9.69
8/23/2021 2:45:00 PM 15.63 60.134 0.042 6.9 2.84 9.67
8/23/2021 3:00:00 PM 15.72 60.296 0.043 6.92 2.73 9.65
8/23/2021 3:15:00 PM 15.87 60.566 0.043 6.9 2.81 9.63
8/23/2021 3:30:00 PM 16.06 60.908 0.043 6.94 3.07 9.6
8/23/2021 3:45:00 PM 16.12 61.016 0.043 6.93 2.95 9.56
8/23/2021 4:00:00 PM 16.21 61.178 0.043 6.9 2.87 9.54
8/23/2021 4:15:00 PM 16.34 61.412 0.043 6.94 2.89 9.53
8/23/2021 4:30:00 PM 16.49 61.682 0.043 6.93 2.91 9.49
8/23/2021 4:45:00 PM 16.55 61.79 0.042 6.93 4.47 9.48
8/23/2021 5:00:00 PM 16.59 61.862 0.043 6.91 3.11 9.45
8/23/2021 5:15:00 PM 16.61 61.898 0.043 6.94 2.88 9.44
8/23/2021 5:30:00 PM 16.61 61.898 0.043 6.93 3.05 9.42
8/23/2021 5:45:00 PM 16.58 61.844 0.043 6.92 2.77 9.4
8/23/2021 6:00:00 PM 16.56 61.808 0.043 6.89 2.76 9.39
8/23/2021 6:15:00 PM 16.53 61.754 0.043 6.9 2.65 9.37
8/23/2021 6:30:00 PM 16.48 61.664 0.043 6.88 2.7 9.36
8/23/2021 6:45:00 PM 16.43 61.574 0.041 6.87 2.86 9.35
8/23/2021 7:00:00 PM 16.38 61.484 0.043 6.88 2.63 9.34
8/23/2021 7:15:00 PM 16.31 61.358 0.042 6.89 3433.71 9.32
8/23/2021 7:30:00 PM 16.22 61.196 0.043 6.85 2.59 9.31
8/23/2021 7:45:00 PM 16.14 61.052 0.043 6.87 2.66 9.3
8/23/2021 8:00:00 PM 16.06 60.908 0.042 6.86 8.86 9.3
8/23/2021 8:15:00 PM 15.98 60.764 0.043 6.83 2.64 9.29
8/23/2021 8:30:00 PM 15.91 60.638 0.043 6.82 2.72 9.29
8/23/2021 8:45:00 PM 15.84 60.512 0.043 6.8 2.7 9.29
8/23/2021 9:00:00 PM 15.77 60.386 0.043 6.77 2.77 9.3
8/23/2021 9:15:00 PM 15.69 60.242 0.043 6.78 2.72 9.32
8/23/2021 9:30:00 PM 15.59 60.062 0.043 6.77 2.79 9.34
8/23/2021 9:45:00 PM 15.5 59.9 0.043 6.75 2.73 9.35
8/23/2021 10:00:00 PM 15.41 59.738 0.044 6.75 2.73 9.37
8/23/2021 10:15:00 PM 15.33 59.594 0.044 6.75 2.75 9.39
8/23/2021 10:30:00 PM 15.26 59.468 0.044 6.78 2.74 9.4
8/23/2021 10:45:00 PM 15.18 59.324 0.043 6.76 3.53 9.42
8/23/2021 11:00:00 PM 15.11 59.198 0.044 6.75 2.63 9.44
8/23/2021 11:15:00 PM 15.02 59.036 0.044 6.76 2.62 9.46
8/23/2021 11:30:00 PM 14.93 58.874 0.044 6.76 2.56 9.47
8/23/2021 11:45:00 PM 14.85 58.73 0.042 6.71 3.41 9.49
8/24/2021 12:00:00 AM 14.77 58.586 0.041 6.76 3.47 9.51
8/24/2021 12:15:00 AM 14.7 58.46 0.044 6.74 2.64 9.52
8/24/2021 12:30:00 AM 14.63 58.334 0.041 6.73 3.4 9.54
8/24/2021 12:45:00 AM 14.56 58.208 0.044 6.77 3.49 9.55
8/24/2021 1:00:00 AM 14.49 58.082 0.044 6.74 2.48 9.57
8/24/2021 1:15:00 AM 14.42 57.956 0.042 6.74 3.38 9.58
8/24/2021 1:30:00 AM 14.35 57.83 0.044 6.73 2.55 9.6
8/24/2021 1:45:00 AM 14.28 57.704 0.044 6.75 2.53 9.62
8/24/2021 2:00:00 AM 14.22 57.596 0.044 6.73 2.52 9.64
8/24/2021 2:15:00 AM 14.16 57.488 0.044 6.73 2.51 9.66
8/24/2021 2:30:00 AM 14.1 57.38 0.044 6.74 2.47 9.67
8/24/2021 2:45:00 AM 14.05 57.29 0.043 6.73 3.34 9.68
8/24/2021 3:00:00 AM 13.99 57.182 0.042 6.73 3.25 9.69
8/24/2021 3:15:00 AM 13.95 57.11 0.042 6.72 3.3 9.7
8/24/2021 3:30:00 AM 13.91 57.038 0.042 6.71 3.21 9.71
8/24/2021 3:45:00 AM 13.87 56.966 0.042 6.72 3.32 9.72
8/24/2021 4:00:00 AM 13.83 56.894 0.042 6.71 3.29 9.73
8/24/2021 4:15:00 AM 13.8 56.84 0.044 6.72 2.43 9.73
8/24/2021 4:30:00 AM 13.77 56.786 0.042 6.71 3.31 9.74
8/24/2021 4:45:00 AM 13.74 56.732 0.044 6.72 2.39 9.75
8/24/2021 5:00:00 AM 13.71 56.678 0.044 6.74 2.46 9.75
8/24/2021 5:15:00 AM 13.69 56.642 0.043 6.67 3.28 9.76
8/24/2021 5:30:00 AM 13.65 56.57 0.044 6.75 2.4 9.77
8/24/2021 5:45:00 AM 13.62 56.516 0.044 6.75 2.46 9.77
8/24/2021 6:00:00 AM 13.59 56.462 0.044 6.76 2.38 9.78
8/24/2021 6:15:00 AM 13.55 56.39 0.044 6.74 2.32 9.79
8/24/2021 6:30:00 AM 13.52 56.336 0.044 6.74 2.36 9.8
8/24/2021 6:45:00 AM 13.49 56.282 0.043 6.74 3.23 9.81
8/24/2021 7:00:00 AM 13.47 56.246 0.044 6.72 2.35 9.82
8/24/2021 7:15:00 AM 13.46 56.228 0.042 6.76 3.13 9.85
8/24/2021 7:30:00 AM 13.46 56.228 0.042 6.76 3.2 9.87
8/24/2021 7:45:00 AM 13.46 56.228 0.044 6.75 2.34 9.89
8/24/2021 8:00:00 AM 13.47 56.246 0.044 6.78 2.28 9.92
8/24/2021 8:15:00 AM 13.47 56.246 0.044 6.79 2.3 9.94
8/24/2021 8:30:00 AM 13.48 56.264 0.044 6.8 2.32 9.97
8/24/2021 8:45:00 AM 13.5 56.3 0.044 6.81 2.18 9.99
8/24/2021 9:00:00 AM 13.54 56.372 0.043 6.83 3.09 10
8/24/2021 9:15:00 AM 13.58 56.444 0.044 6.81 2.2 10.01
8/24/2021 9:30:00 AM 13.63 56.534 0.044 6.85 2.17 10.01
8/24/2021 9:45:00 AM 13.7 56.66 0.043 6.85 3.04 10.01
8/24/2021 10:00:00 AM 13.77 56.786 0.042 6.85 2.98 10.01
8/24/2021 10:15:00 AM 13.85 56.93 0.042 6.88 3 9.99
8/24/2021 10:30:00 AM 13.95 57.11 0.042 6.84 3.01 9.99
8/24/2021 10:45:00 AM 14.06 57.308 0.041 6.89 2.88 9.99
8/24/2021 11:00:00 AM 14.18 57.524 0.044 6.88 2.12 9.98
8/24/2021 11:15:00 AM 14.32 57.776 0.044 6.91 2.12 9.95
8/24/2021 11:30:00 AM 14.46 58.028 0.043 6.91 2.05 9.93
8/24/2021 11:45:00 AM 14.62 58.316 0.041 6.91 2.65 9.91
8/24/2021 12:00:00 PM 14.79 58.622 0.044 6.92 2.03 9.88
8/24/2021 12:15:00 PM 14.95 58.91 0.044 6.95 2.05 9.86
8/24/2021 12:30:00 PM 15.13 59.234 0.042 6.94 75.99 9.84
8/24/2021 12:45:00 PM 15.3 59.54 0.044 6.97 2.03 9.81
8/24/2021 1:00:00 PM 15.47 59.846 0.044 6.94 2.02 9.78
8/24/2021 1:15:00 PM 15.65 60.17 0.044 6.94 2.04 9.75
8/24/2021 1:30:00 PM 15.83 60.494 0.044 6.91 2.04 9.72
8/24/2021 1:45:00 PM 16.01 60.818 0.044 6.93 2.32 9.69
8/24/2021 2:00:00 PM 16.18 61.124 0.044 6.95 6.63 9.66
8/24/2021 2:15:00 PM 16.33 61.394 0.044 6.94 17.07 9.62
8/24/2021 2:30:00 PM 16.5 61.7 0.044 6.96 20.82 9.6
8/24/2021 2:45:00 PM 16.63 61.934 0.044 7.05 5628.94 9.57
8/24/2021 3:00:00 PM 16.79 62.222 0.043 7 543.79 9.55
8/24/2021 3:15:00 PM 16.89 62.402 0.044 6.99 12376.48 9.51
8/24/2021 3:30:00 PM 17.02 62.636 0.041 7.01 16821.97 9.48
8/24/2021 3:45:00 PM 17.09 62.762 0.044 7.04 694.41 9.46
8/24/2021 4:00:00 PM 17.14 62.852 0.044 6.98 2.22 9.44
8/24/2021 4:15:00 PM 17.29 63.122 0.044 7 2.11 9.42
8/24/2021 4:30:00 PM 17.44 63.392 0.044 6.94 2.13 9.4
8/24/2021 4:45:00 PM 17.5 63.5 0.044 7.02 2.52 9.38
8/24/2021 5:00:00 PM 17.52 63.536 0.044 6.88 12.64 9.36
8/24/2021 5:15:00 PM 17.52 63.536 0.044 6.93 13.7 9.34
8/24/2021 5:30:00 PM 17.5 63.5 0.044 6.93 20.72 9.32
8/24/2021 5:45:00 PM 17.46 63.428 0.043 6.93 3.73 9.3
8/24/2021 6:00:00 PM 17.41 63.338 0.044 6.94 2.16 9.29
8/24/2021 6:15:00 PM 17.33 63.194 0.044 6.9 2.15 9.27
8/24/2021 6:30:00 PM 17.25 63.05 0.044 6.89 2.14 9.26
8/24/2021 6:45:00 PM 17.17 62.906 0.044 6.9 2.18 9.26
8/24/2021 7:00:00 PM 17.1 62.78 0.044 6.85 2.07 9.24
8/24/2021 7:15:00 PM 17.03 62.654 0.044 6.86 2.11 9.23
8/24/2021 7:30:00 PM 16.94 62.492 0.042 6.84 10.96 9.22
8/24/2021 7:45:00 PM 16.85 62.33 0.044 6.83 2.17 9.21
8/24/2021 8:00:00 PM 16.75 62.15 0.044 6.82 2.13 9.21
8/24/2021 8:15:00 PM 16.65 61.97 0.044 6.81 2.22 9.21
8/24/2021 8:30:00 PM 16.56 61.808 0.017 6.78 2.21 9.21
8/24/2021 8:45:00 PM 16.45 61.61 0.044 6.79 2.18 9.21
8/24/2021 9:00:00 PM 16.36 61.448 0.044 6.78 2.22 9.23
8/24/2021 9:15:00 PM 16.26 61.268 0.044 6.78 2.24 9.24
8/24/2021 9:30:00 PM 16.16 61.088 0.045 6.78 2.26 9.25
8/24/2021 9:45:00 PM 16.06 60.908 0.045 6.75 2.23 9.28
8/24/2021 10:00:00 PM 15.97 60.746 0.045 6.77 2.29 9.29
8/24/2021 10:15:00 PM 15.87 60.566 0.045 6.75 2.24 9.31
8/24/2021 10:30:00 PM 15.76 60.368 0.045 6.74 2.23 9.33
8/24/2021 10:45:00 PM 15.68 60.224 0.045 6.73 2.28 9.35
8/24/2021 11:00:00 PM 15.6 60.08 0.045 6.75 2.21 9.37
8/24/2021 11:15:00 PM 15.51 59.918 0.045 6.75 2.18 9.39
8/24/2021 11:30:00 PM 15.42 59.756 0.045 6.74 2.22 9.41
8/24/2021 11:45:00 PM 15.35 59.63 0.044 6.74 5.07 9.42
8/25/2021 12:00:00 AM 15.27 59.486 0.042 6.76 9.98 9.45
8/25/2021 12:15:00 AM 15.2 59.36 0.043 6.76 3.34 9.46
8/25/2021 12:30:00 AM 15.13 59.234 0.045 6.73 2.22 9.47
8/25/2021 12:45:00 AM 15.07 59.126 0.044 6.75 3.29 9.49
8/25/2021 1:00:00 AM 15 59 0.045 6.7 2.25 9.5
8/25/2021 1:15:00 AM 14.94 58.892 0.045 6.75 2.28 9.52
8/25/2021 1:30:00 AM 14.89 58.802 0.045 6.74 2.24 9.52
8/25/2021 1:45:00 AM 14.82 58.676 0.045 6.74 2.21 9.54
8/25/2021 2:00:00 AM 14.77 58.586 0.043 6.77 3.17 9.56
8/25/2021 2:15:00 AM 14.72 58.496 0.043 6.74 3.18 9.56
8/25/2021 2:30:00 AM 14.66 58.388 0.045 6.73 2.25 9.58
8/25/2021 2:45:00 AM 14.62 58.316 0.045 6.74 2.18 9.58
8/25/2021 3:00:00 AM 14.57 58.226 0.045 6.73 2.22 9.59
8/25/2021 3:15:00 AM 14.53 58.154 0.044 6.74 3.2 9.61
8/25/2021 3:30:00 AM 14.49 58.082 0.045 6.73 2.18 9.61
8/25/2021 3:45:00 AM 14.44 57.992 0.044 6.74 3.09 9.62
8/25/2021 4:00:00 AM 14.4 57.92 0.043 6.76 3.2 9.63
8/25/2021 4:15:00 AM 14.37 57.866 0.045 6.72 2.14 9.64
8/25/2021 4:30:00 AM 14.33 57.794 0.045 6.73 1784.48 9.65
8/25/2021 4:45:00 AM 14.29 57.722 0.044 6.74 2053.22 9.67
8/25/2021 5:00:00 AM 14.26 57.668 0.045 6.74 3040.11 9.67
8/25/2021 5:15:00 AM 14.22 57.596 0.045 6.74 3450.68 9.68
8/25/2021 5:30:00 AM 14.19 57.542 0.045 6.76 2.8 9.69
8/25/2021 5:45:00 AM 14.17 57.506 0.045 6.73 2.05 9.69
8/25/2021 6:00:00 AM 14.15 57.47 0.045 6.76 2.12 9.7
8/25/2021 6:15:00 AM 14.13 57.434 0.045 6.76 2.12 9.7
8/25/2021 6:30:00 AM 14.11 57.398 0.045 6.77 2.1 9.72
8/25/2021 6:45:00 AM 14.07 57.326 0.045 6.75 2.03 9.73
8/25/2021 7:00:00 AM 14.04 57.272 0.044 6.75 2.86 9.75
8/25/2021 7:15:00 AM 14.02 57.236 0.045 6.79 2.03 9.79
8/25/2021 7:30:00 AM 14 57.2 0.045 6.79 2.06 9.82
8/25/2021 7:45:00 AM 13.99 57.182 0.045 6.8 2 9.86
8/25/2021 8:00:00 AM 13.99 57.182 0.044 6.81 2.96 9.9
8/25/2021 8:15:00 AM 13.98 57.164 0.045 6.83 1.97 9.93
8/25/2021 8:30:00 AM 13.99 57.182 0.045 6.83 1.99 9.96
8/25/2021 8:45:00 AM 14 57.2 0.043 6.85 2.79 9.98
8/25/2021 9:00:00 AM 14.03 57.254 0.044 6.84 2.74 10
8/25/2021 9:15:00 AM 14.06 57.308 0.045 6.87 1.96 10.02
8/25/2021 9:30:00 AM 14.11 57.398 0.045 6.87 1.93 10.02
8/25/2021 9:45:00 AM 14.16 57.488 0.045 6.88 1.94 10.03
8/25/2021 10:00:00 AM 14.23 57.614 0.045 6.89 1.88 10.02
8/25/2021 10:15:00 AM 14.3 57.74 0.042 6.89 2.67 10.01
8/25/2021 10:30:00 AM 14.37 57.866 0.045 6.89 1.87 10
8/25/2021 10:45:00 AM 14.47 58.046 0.042 6.91 2.62 9.98
8/25/2021 11:00:00 AM 14.57 58.226 0.044 6.92 1.87 9.97
8/25/2021 11:15:00 AM 14.69 58.442 0.042 6.97 2.62 9.96
8/25/2021 11:30:00 AM 14.83 58.694 0.043 6.94 3.09 9.95
8/25/2021 11:45:00 AM 15 59 0.042 6.95 2.7 9.93
8/25/2021 12:00:00 PM 15.17 59.306 0.042 6.95 3.06 9.91
8/25/2021 12:15:00 PM 15.35 59.63 0.044 6.96 1.85 9.89
8/25/2021 12:30:00 PM 15.53 59.954 0.044 6.95 1.85 9.87
8/25/2021 12:45:00 PM 15.74 60.332 0.043 6.98 14.73 9.85
8/25/2021 1:00:00 PM 15.93 60.674 0.042 7 3.1 9.81
8/25/2021 1:15:00 PM 16.14 61.052 0.044 6.99 2.15 9.77
8/25/2021 1:30:00 PM 16.37 61.466 0.044 6.99 1.88 9.75
8/25/2021 1:45:00 PM 16.57 61.826 0.044 6.97 3.65 9.71
8/25/2021 2:00:00 PM 16.78 62.204 0.044 6.96 2.01 9.68
8/25/2021 2:15:00 PM 16.89 62.402 0.044 6.96 1.91 9.62
8/25/2021 2:30:00 PM 17.06 62.708 0.043 6.99 5.17 9.6
8/25/2021 2:45:00 PM 17.31 63.158 0.044 6.96 1.92 9.56
8/25/2021 3:00:00 PM 17.53 63.554 0.044 7 90.97 9.53
8/25/2021 3:15:00 PM 17.61 63.698 0.044 6.97 1.92 9.5
8/25/2021 3:30:00 PM 17.7 63.86 0.044 7 2.14 9.47
8/25/2021 3:45:00 PM 17.65 63.77 0.044 6.98 2.75 9.42
8/25/2021 4:00:00 PM 17.69 63.842 0.044 6.98 1.87 9.42
8/25/2021 4:15:00 PM 17.72 63.896 0.044 6.98 1.96 9.42
8/25/2021 4:30:00 PM 17.76 63.968 0.044 6.98 1.87 9.41
8/25/2021 4:45:00 PM 17.77 63.986 0.044 6.98 1.92 9.39
8/25/2021 5:00:00 PM 17.77 63.986 0.044 6.96 1.89 9.37
8/25/2021 5:15:00 PM 17.67 63.806 0.044 6.98 1.98 9.36
8/25/2021 5:30:00 PM 17.61 63.698 0.044 6.97 1.95 9.35
8/25/2021 5:45:00 PM 17.56 63.608 0.044 6.94 1.88 9.34
8/25/2021 6:00:00 PM 17.56 63.608 0.044 6.95 1.96 9.33
8/25/2021 6:15:00 PM 17.57 63.626 0.044 6.95 1.95 9.3
8/25/2021 6:30:00 PM 17.57 63.626 0.044 6.95 1.89 9.27
8/25/2021 6:45:00 PM 17.55 63.59 0.044 6.92 1.9 9.24
8/25/2021 7:00:00 PM 17.53 63.554 0.044 6.92 2.03 9.21
8/25/2021 7:15:00 PM 17.5 63.5 0.045 6.89 19.29 9.18
8/25/2021 7:30:00 PM 17.44 63.392 0.045 6.89 1.93 9.15
8/25/2021 7:45:00 PM 17.38 63.284 0.045 6.88 1.9 9.12
8/25/2021 8:00:00 PM 17.32 63.176 0.045 6.85 1.96 9.11
8/25/2021 8:15:00 PM 17.24 63.032 0.045 6.89 2.05 9.1
8/25/2021 8:30:00 PM 17.15 62.87 0.043 6.84 10.28 9.1
8/25/2021 8:45:00 PM 17.07 62.726 0.045 6.83 1.97 9.1
8/25/2021 9:00:00 PM 16.99 62.582 0.045 6.82 1.96 9.1
8/25/2021 9:15:00 PM 16.91 62.438 0.045 6.82 2.04 9.12
8/25/2021 9:30:00 PM 16.82 62.276 0.043 6.87 99.55 9.13
8/25/2021 9:45:00 PM 16.73 62.114 0.043 6.92 3.82 9.15
8/25/2021 10:00:00 PM 16.63 61.934 0.043 6.8 10.89 9.17
8/25/2021 10:15:00 PM 16.54 61.772 0.046 6.8 1.95 9.19
8/25/2021 10:30:00 PM 16.44 61.592 0.046 6.8 1.94 9.21
8/25/2021 10:45:00 PM 16.34 61.412 0.046 6.79 1.93 9.23
8/25/2021 11:00:00 PM 16.24 61.232 0.046 6.72 2.03 9.24
8/25/2021 11:15:00 PM 16.15 61.07 0.046 6.74 2.23 9.26
8/25/2021 11:30:00 PM 16.07 60.926 0.046 6.78 2.19 9.28
8/25/2021 11:45:00 PM 15.99 60.782 0.044 6.71 14.05 9.29
8/26/2021 12:00:00 AM 15.92 60.656 0.046 6.78 2.73 9.31
8/26/2021 12:15:00 AM 15.85 60.53 0.046 6.78 1.98 9.32
8/26/2021 12:30:00 AM 15.8 60.44 0.046 6.75 1.97 9.33
8/26/2021 12:45:00 AM 15.74 60.332 0.046 6.75 2.3 9.34
8/26/2021 1:00:00 AM 15.69 60.242 0.046 6.76 2.31 9.36
8/26/2021 1:15:00 AM 15.63 60.134 0.046 6.7 6.04 9.37
8/26/2021 1:30:00 AM 15.58 60.044 0.046 6.76 1.97 9.38
8/26/2021 1:45:00 AM 15.52 59.936 0.046 6.74 2.2 9.39
8/26/2021 2:00:00 AM 15.47 59.846 0.046 6.74 2.89 9.41
8/26/2021 2:15:00 AM 15.43 59.774 0.044 6.76 5.11 9.41
8/26/2021 2:30:00 AM 15.39 59.702 0.046 6.76 15.14 9.42
8/26/2021 2:45:00 AM 15.35 59.63 0.046 6.74 206.03 9.43
8/26/2021 3:00:00 AM 15.32 59.576 0.046 6.75 1771.12 9.44
8/26/2021 3:15:00 AM 15.28 59.504 0.046 6.77 2158.59 9.45
8/26/2021 3:30:00 AM 15.24 59.432 0.046 6.78 3304.2 9.46
8/26/2021 3:45:00 AM 15.21 59.378 0.046 6.78 2324.64 9.46
8/26/2021 4:00:00 AM 15.16 59.288 0.045 6.76 1145.01 9.48
8/26/2021 4:15:00 AM 15.12 59.216 0.044 6.76 57.31 9.48
8/26/2021 4:30:00 AM 15.07 59.126 0.044 6.76 117.02 9.49
8/26/2021 4:45:00 AM 15.03 59.054 0.046 6.75 37.8 9.5
8/26/2021 5:00:00 AM 15 59 0.046 6.75 44.51 9.51
8/26/2021 5:15:00 AM 14.97 58.946 0.044 6.75 5.35 9.51
8/26/2021 5:30:00 AM 14.93 58.874 0.046 6.75 2.06 9.53
8/26/2021 5:45:00 AM 14.89 58.802 0.046 6.75 2.87 9.53
8/26/2021 6:00:00 AM 14.87 58.766 0.045 6.77 5.75 9.54
8/26/2021 6:15:00 AM 14.83 58.694 0.044 6.75 4.22 9.54
8/26/2021 6:30:00 AM 14.81 58.658 0.046 6.82 2.55 9.55
8/26/2021 6:45:00 AM 14.78 58.604 0.046 6.73 19.27 9.56
8/26/2021 7:00:00 AM 14.76 58.568 0.046 6.75 341.49 9.58
8/26/2021 7:15:00 AM 14.74 58.532 0.045 6.77 1123.11 9.61
8/26/2021 7:30:00 AM 14.73 58.514 0.046 6.78 1540.59 9.64
8/26/2021 7:45:00 AM 14.73 58.514 0.046 6.79 365.35 9.68
8/26/2021 8:00:00 AM 14.73 58.514 0.043 6.8 212.96 9.71
8/26/2021 8:15:00 AM 14.73 58.514 0.046 6.81 189.94 9.76
8/26/2021 8:30:00 AM 14.74 58.532 0.045 6.83 67.45 9.8
8/26/2021 8:45:00 AM 14.76 58.568 0.043 6.85 70.47 9.83
8/26/2021 9:00:00 AM 14.78 58.604 0.043 6.86 75.11 9.86
8/26/2021 9:15:00 AM 14.81 58.658 0.043 6.89 52.14 9.88
8/26/2021 9:30:00 AM 14.86 58.748 0.043 6.9 153.9 9.9
8/26/2021 9:45:00 AM 14.9 58.82 0.045 6.87 486.52 9.91
8/26/2021 10:00:00 AM 14.96 58.928 0.045 6.88 483.4 9.92
8/26/2021 10:15:00 AM 15.01 59.018 0.045 6.89 406.63 9.93
8/26/2021 10:30:00 AM 15.08 59.144 0.044 6.9 807.02 9.93
8/26/2021 10:45:00 AM 15.16 59.288 0.045 6.91 408.43 9.93
8/26/2021 11:00:00 AM 15.23 59.414 0.045 6.93 509.47 9.93
8/26/2021 11:15:00 AM 15.29 59.522 0.045 6.95 570.96 9.92
8/26/2021 11:30:00 AM 15.36 59.648 0.045 6.95 317.35 9.9
8/26/2021 11:45:00 AM 15.44 59.792 0.045 6.97 226.9 9.9
8/26/2021 12:00:00 PM 15.54 59.972 0.045 6.96 263.76 9.9
8/26/2021 12:15:00 PM 15.66 60.188 0.045 6.99 513.05 9.9
8/26/2021 12:30:00 PM 15.8 60.44 0.045 7.02 904.74 9.87
8/26/2021 12:45:00 PM 15.92 60.656 0.045 7.02 536.88 9.86
8/26/2021 1:00:00 PM 16.14 61.052 0.043 7.01 261.27 9.84
8/26/2021 1:15:00 PM 16.28 61.304 0.045 7.04 542.47 9.82
8/26/2021 1:30:00 PM 16.53 61.754 0.045 6.99 16906.81 9.79
8/26/2021 1:45:00 PM 16.82 62.276 0.045 7.01 8190.35 9.74
8/26/2021 2:00:00 PM 17.05 62.69 0.043 7.03 769.46 9.68
8/26/2021 2:15:00 PM 17.17 62.906 0.044 7.04 1617.63 9.65
8/26/2021 2:30:00 PM 17.24 63.032 0.045 7.01 1276.58 9.59
8/26/2021 2:45:00 PM 17.47 63.446 0.045 7.01 341.93 9.57
8/26/2021 3:00:00 PM 17.58 63.644 0.045 7.04 676.72 9.55
8/26/2021 3:15:00 PM 17.7 63.86 0.045 7.06 998.6 9.5
8/26/2021 3:30:00 PM 17.79 64.022 0.045 7.07 1150.33 9.48
8/26/2021 3:45:00 PM 17.85 64.13 0.045 7.07 1344.56 9.46
8/26/2021 4:00:00 PM 17.84 64.112 0.045 7.06 350.72 9.45
8/26/2021 4:15:00 PM 17.9 64.22 0.045 7.04 397.13 9.44
8/26/2021 4:30:00 PM 17.93 64.274 0.045 7.02 400.93 9.41
8/26/2021 4:45:00 PM 17.91 64.238 0.045 7 3256.37 9.39
8/26/2021 5:00:00 PM 17.87 64.166 0.045 7.06 132.36 9.38
8/26/2021 5:15:00 PM 17.81 64.058 0.045 7.02 764.29 9.36
8/26/2021 5:30:00 PM 17.75 63.95 0.045 6.99 2140.61 9.34
8/26/2021 5:45:00 PM 17.71 63.878 0.045 6.99 2827.54 9.34
8/26/2021 6:00:00 PM 17.65 63.77 0.045 6.97 1475.48 9.33
8/26/2021 6:15:00 PM 17.59 63.662 0.045 6.97 1071.92 9.32
8/26/2021 6:30:00 PM 17.53 63.554 0.045 6.97 1503.23 9.3
8/26/2021 6:45:00 PM 17.46 63.428 0.045 6.95 1470.1 9.29
8/26/2021 7:00:00 PM 17.39 63.302 0.045 6.96 3043 9.28
8/26/2021 7:15:00 PM 17.31 63.158 0.045 6.92 1734.1 9.25
8/26/2021 7:30:00 PM 17.23 63.014 0.045 6.91 2394.37 9.22
8/26/2021 7:45:00 PM 17.16 62.888 0.045 6.89 2632.89 9.2
8/26/2021 8:00:00 PM 17.07 62.726 0.046 6.87 595.67 9.18
8/26/2021 8:15:00 PM 17 62.6 0.046 6.84 901.29 9.15
8/26/2021 8:30:00 PM 16.93 62.474 0.046 6.83 731.56 9.15
8/26/2021 8:45:00 PM 16.86 62.348 0.046 6.85 2071.39 9.15
8/26/2021 9:00:00 PM 16.79 62.222 0.044 6.81 1103.76 9.16
8/26/2021 9:15:00 PM 16.73 62.114 0.046 6.81 1018.28 9.16
8/26/2021 9:30:00 PM 16.66 61.988 0.046 6.81 1426.55 9.17
8/26/2021 9:45:00 PM 16.61 61.898 0.046 6.79 1286.35 9.18
8/26/2021 10:00:00 PM 16.55 61.79 0.046 6.8 876.31 9.19
8/26/2021 10:15:00 PM 16.49 61.682 0.045 6.83 570.66 9.2
8/26/2021 10:30:00 PM 16.46 61.628 0.046 6.79 646.22 9.21
8/26/2021 10:45:00 PM 16.43 61.574 0.046 6.85 161.06 9.22
8/26/2021 11:00:00 PM 16.54 61.772 0.045 6.96 14326.4 9.23
8/26/2021 11:15:00 PM 16.56 61.808 0.045 6.93 3769.78 9.21
8/26/2021 11:30:00 PM 16.57 61.826 0.044 6.97 14031.57 9.19
8/26/2021 11:45:00 PM 16.54 61.772 0.044 6.92 11912 9.17
8/27/2021 12:00:00 AM 16.54 61.772 0.044 6.93 9524.54 9.15
8/27/2021 12:15:00 AM 16.49 61.682 0.045 6.87 6127.34 9.16
8/27/2021 12:30:00 AM 16.41 61.538 0.045 6.87 11377.97 9.17
8/27/2021 12:45:00 AM 16.32 61.376 0.046 6.9 12519.75 9.19
8/27/2021 1:00:00 AM 16.25 61.25 0.046 6.92 12115.42 9.2
8/27/2021 1:15:00 AM 16.25 61.25 0.046 6.87 4009.44 9.2
8/27/2021 1:30:00 AM 16.23 61.214 0.045 6.9 1397.82 9.2
8/27/2021 1:45:00 AM 16.2 61.16 0.045 6.89 203.73 9.22
8/27/2021 2:00:00 AM 16.16 61.088 0.045 6.86 532.35 9.23
8/27/2021 2:15:00 AM 16.1 60.98 0.045 6.84 1459.92 9.24
8/27/2021 2:30:00 AM 16.07 60.926 0.045 6.74 107.47 9.23
8/27/2021 2:45:00 AM 16.02 60.836 0.045 6.76 73.84 9.24
8/27/2021 3:00:00 AM 15.94 60.692 0.046 6.82 66.84 9.27
8/27/2021 3:15:00 AM 15.84 60.512 0.046 6.78 222.91 9.29
8/27/2021 3:30:00 AM 15.74 60.332 0.046 6.76 264.56 9.32
8/27/2021 3:45:00 AM 15.67 60.206 0.046 6.78 138.12 9.34
8/27/2021 4:00:00 AM 15.62 60.116 0.046 6.77 116.47 9.34
8/27/2021 4:15:00 AM 15.61 60.098 0.046 6.76 58.33 9.34
8/27/2021 4:30:00 AM 15.63 60.134 0.046 6.81 51.91 9.33
8/27/2021 4:45:00 AM 15.66 60.188 0.045 6.8 78.44 9.33
8/27/2021 5:00:00 AM 15.68 60.224 0.045 6.85 76.74 9.32
8/27/2021 5:15:00 AM 15.71 60.278 0.045 6.82 70.4 9.32
8/27/2021 5:30:00 AM 15.72 60.296 0.045 6.82 57.21 9.31
8/27/2021 5:45:00 AM 15.73 60.314 0.045 6.81 81.2 9.31
8/27/2021 6:00:00 AM 15.72 60.296 0.045 6.77 130.87 9.31
8/27/2021 6:15:00 AM 15.71 60.278 0.045 6.82 161.88 9.32
8/27/2021 6:30:00 AM 15.7 60.26 0.045 6.82 145.06 9.33
8/27/2021 6:45:00 AM 15.68 60.224 0.045 6.82 180.56 9.33
8/27/2021 7:00:00 AM 15.65 60.17 0.045 6.83 95.09 9.34
8/27/2021 7:15:00 AM 15.63 60.134 0.045 6.83 129.79 9.37
8/27/2021 7:30:00 AM 15.6 60.08 0.045 6.82 129.17 9.38
8/27/2021 7:45:00 AM 15.58 60.044 0.045 6.84 92.58 9.41
8/27/2021 8:00:00 AM 15.56 60.008 0.045 6.82 123.57 9.45
8/27/2021 8:15:00 AM 15.54 59.972 0.042 6.86 13178.8 9.48
8/27/2021 8:30:00 AM 15.53 59.954 0.045 6.87 121.82 9.52
8/27/2021 8:45:00 AM 15.53 59.954 0.042 6.87 198.83 9.56
8/27/2021 9:00:00 AM 15.54 59.972 0.044 6.92 116.79 9.6
8/27/2021 9:15:00 AM 15.56 60.008 0.043 6.9 143.15 9.65
8/27/2021 9:30:00 AM 15.58 60.044 0.044 6.92 117.73 9.68
8/27/2021 9:45:00 AM 15.61 60.098 0.044 6.91 125.82 9.7
8/27/2021 10:00:00 AM 15.64 60.152 0.044 6.96 115.95 9.71
8/27/2021 10:15:00 AM 15.67 60.206 0.044 6.95 162.01 9.72
8/27/2021 10:30:00 AM 15.73 60.314 0.044 6.94 126.59 9.74
8/27/2021 10:45:00 AM 15.8 60.44 0.044 6.99 120.17 9.76
8/27/2021 11:00:00 AM 15.87 60.566 0.042 6.97 120.55 9.76
8/27/2021 11:15:00 AM 15.94 60.692 0.042 6.97 173.16 9.77
8/27/2021 11:30:00 AM 16.04 60.872 0.044 6.96 122.54 9.75
8/27/2021 11:45:00 AM 16.17 61.106 0.043 7.01 122.48 9.75
8/27/2021 12:00:00 PM 16.31 61.358 0.042 7.01 164.83 9.72
8/27/2021 12:15:00 PM 16.42 61.556 0.042 7.03 162.97 9.7
8/27/2021 12:30:00 PM 16.54 61.772 0.044 7 109.26 9.66
8/27/2021 12:45:00 PM 16.66 61.988 0.044 7.03 132.45 9.65
8/27/2021 1:00:00 PM 16.79 62.222 0.044 7.04 112.76 9.62
8/27/2021 1:15:00 PM 16.9 62.42 0.044 7 110.71 9.6
8/27/2021 1:30:00 PM 17.05 62.69 0.043 7.04 237.86 9.58
8/27/2021 1:45:00 PM 17.09 62.762 0.044 7.05 171.45 9.53
8/27/2021 2:00:00 PM 17.13 62.834 0.044 7.02 163.36 9.51
8/27/2021 2:15:00 PM 17.22 62.996 0.044 7.07 145.2 9.54
8/27/2021 2:30:00 PM 17.25 63.05 0.044 7.09 168.74 9.53
8/27/2021 2:45:00 PM 17.47 63.446 0.044 7.09 164.14 9.52
8/27/2021 3:00:00 PM 17.58 63.644 0.043 7.06 199.05 9.47
8/27/2021 3:15:00 PM 17.56 63.608 0.044 7.07 149.52 9.41
8/27/2021 3:30:00 PM 17.56 63.608 0.044 7.09 116.27 9.31
8/27/2021 3:45:00 PM 17.78 64.004 0.042 7.07 65.02 9.2
8/27/2021 4:00:00 PM 17.74 63.932 0.042 7 30.36 9.17
8/27/2021 4:15:00 PM 17.77 63.986 0.042 7.01 78.37 9.16
8/27/2021 4:30:00 PM 17.79 64.022 0.042 7.02 128.79 9.17
8/27/2021 4:45:00 PM 17.79 64.022 0.043 7.05 117.8 9.22
8/27/2021 5:00:00 PM 17.78 64.004 0.043 7.06 87.31 9.25
8/27/2021 5:15:00 PM 17.8 64.04 0.043 7.07 78.42 9.26
8/27/2021 5:30:00 PM 17.79 64.022 0.043 7 78.21 9.26
8/27/2021 5:45:00 PM 17.73 63.914 0.043 7.04 80.8 9.23
8/27/2021 6:00:00 PM 17.66 63.788 0.042 6.96 66.9 9.19
8/27/2021 6:15:00 PM 17.59 63.662 0.041 6.92 72.7 9.15
8/27/2021 6:30:00 PM 17.51 63.518 0.043 6.87 71 9.13
8/27/2021 6:45:00 PM 17.45 63.41 0.043 6.89 71.91 9.12
8/27/2021 7:00:00 PM 17.41 63.338 0.043 6.86 70.76 9.12
8/27/2021 7:15:00 PM 17.37 63.266 0.044 6.86 70.55 9.12
8/27/2021 7:30:00 PM 17.33 63.194 0.044 6.87 71.87 9.1
8/27/2021 7:45:00 PM 17.3 63.14 0.044 6.83 69.21 9.09
8/27/2021 8:00:00 PM 17.26 63.068 0.044 6.86 68.73 9.07
8/27/2021 8:15:00 PM 17.22 62.996 0.044 6.82 66.9 9.05
8/27/2021 8:30:00 PM 17.17 62.906 0.045 6.84 63.02 9.05
8/27/2021 8:45:00 PM 17.12 62.816 0.045 6.8 61.99 9.04
8/27/2021 9:00:00 PM 17.07 62.726 0.045 6.87 52.97 9.05
8/27/2021 9:15:00 PM 17 62.6 0.045 6.91 22.45 9.06
8/27/2021 9:30:00 PM 16.93 62.474 0.045 6.9 21.61 9.07
8/27/2021 9:45:00 PM 16.87 62.366 0.043 6.88 21.07 9.1
8/27/2021 10:00:00 PM 16.8 62.24 0.046 6.86 20.47 9.11
8/27/2021 10:15:00 PM 16.73 62.114 0.046 6.88 20.38 9.12
8/27/2021 10:30:00 PM 16.65 61.97 0.046 6.84 19.13 9.14
8/27/2021 10:45:00 PM 16.59 61.862 0.046 6.85 18.71 9.15
8/27/2021 11:00:00 PM 16.53 61.754 0.045 6.82 18.66 9.17
8/27/2021 11:15:00 PM 16.47 61.646 0.043 6.83 16.49 9.18
8/27/2021 11:30:00 PM 16.43 61.574 0.046 6.84 17.65 9.18
8/27/2021 11:45:00 PM 16.38 61.484 0.046 6.82 16.09 9.19
8/28/2021 12:00:00 AM 16.33 61.394 0.045 6.78 17.98 9.2
8/28/2021 12:15:00 AM 16.28 61.304 0.046 6.84 15.42 9.22
8/28/2021 12:30:00 AM 16.24 61.232 0.046 6.81 13.83 9.22
8/28/2021 12:45:00 AM 16.19 61.142 0.046 6.82 14.91 9.23
8/28/2021 1:00:00 AM 16.15 61.07 0.046 6.82 15.36 9.24
8/28/2021 1:15:00 AM 16.11 60.998 0.046 6.81 15.66 9.24
8/28/2021 1:30:00 AM 16.07 60.926 0.046 6.82 16.43 9.25
8/28/2021 1:45:00 AM 16.04 60.872 0.045 6.8 14.97 9.26
8/28/2021 2:00:00 AM 16 60.8 0.046 6.8 17.19 9.26
8/28/2021 2:15:00 AM 15.97 60.746 0.046 6.79 18.14 9.27
8/28/2021 2:30:00 AM 15.95 60.71 0.046 6.78 16.55 9.27
8/28/2021 2:45:00 AM 15.92 60.656 0.045 6.79 16.79 9.29
8/28/2021 3:00:00 AM 15.9 60.62 0.046 6.8 19.43 9.28
8/28/2021 3:15:00 AM 15.88 60.584 0.046 6.8 17.11 9.29
8/28/2021 3:30:00 AM 15.85 60.53 0.046 6.81 17.87 9.3
8/28/2021 3:45:00 AM 15.82 60.476 0.044 6.77 17.27 9.3
8/28/2021 4:00:00 AM 15.79 60.422 0.046 6.81 18.96 9.31
8/28/2021 4:15:00 AM 15.75 60.35 0.045 6.8 17.3 9.32
8/28/2021 4:30:00 AM 15.72 60.296 0.046 6.8 18.65 9.32
8/28/2021 4:45:00 AM 15.69 60.242 0.046 6.79 17.8 9.33
8/28/2021 5:00:00 AM 15.66 60.188 0.044 6.79 20.16 9.34
8/28/2021 5:15:00 AM 15.63 60.134 0.045 6.74 21.38 9.34
8/28/2021 5:30:00 AM 15.61 60.098 0.044 6.78 18.49 9.35
8/28/2021 5:45:00 AM 15.59 60.062 0.046 6.79 18.09 9.36
8/28/2021 6:00:00 AM 15.56 60.008 0.046 6.8 19.62 9.36
8/28/2021 6:15:00 AM 15.54 59.972 0.046 6.8 17.38 9.37
8/28/2021 6:30:00 AM 15.52 59.936 0.046 6.79 18.57 9.38
8/28/2021 6:45:00 AM 15.49 59.882 0.046 6.79 17.13 9.39
8/28/2021 7:00:00 AM 15.47 59.846 0.046 6.79 16.48 9.4
8/28/2021 7:15:00 AM 15.45 59.81 0.046 6.8 16.41 9.41
8/28/2021 7:30:00 AM 15.44 59.792 0.046 6.8 16.27 9.44
8/28/2021 7:45:00 AM 15.43 59.774 0.046 6.81 16.06 9.46
8/28/2021 8:00:00 AM 15.42 59.756 0.046 6.81 15.77 9.48
8/28/2021 8:15:00 AM 15.41 59.738 0.046 6.82 15.51 9.52
8/28/2021 8:30:00 AM 15.41 59.738 0.046 6.84 15.24 9.54
8/28/2021 8:45:00 AM 15.41 59.738 0.046 6.83 14.78 9.56
8/28/2021 9:00:00 AM 15.42 59.756 0.046 6.82 16.99 9.6
8/28/2021 9:15:00 AM 15.43 59.774 0.045 6.83 15.72 9.64
8/28/2021 9:30:00 AM 15.45 59.81 0.046 6.81 15.46 9.67
8/28/2021 9:45:00 AM 15.48 59.864 0.046 6.86 15.09 9.7
8/28/2021 10:00:00 AM 15.51 59.918 0.046 6.88 14.66 9.74
8/28/2021 10:15:00 AM 15.57 60.026 0.046 6.88 14.43 9.77
8/28/2021 10:30:00 AM 15.63 60.134 0.045 6.93 14.24 9.79
8/28/2021 10:45:00 AM 15.71 60.278 0.045 6.92 15.02 9.8
8/28/2021 11:00:00 AM 15.86 60.548 0.043 6.97 14.17 9.79
8/28/2021 11:15:00 AM 15.95 60.71 0.045 6.98 13.97 9.79
8/28/2021 11:30:00 AM 16.1 60.98 0.045 7.02 13.96 9.76
8/28/2021 11:45:00 AM 16.25 61.25 0.044 7.07 19.24 9.74
8/28/2021 12:00:00 PM 16.44 61.592 0.045 7.03 13.46 9.73
8/28/2021 12:15:00 PM 16.69 62.042 0.044 7.06 14.65 9.72
8/28/2021 12:30:00 PM 16.87 62.366 0.045 7.07 12.67 9.69
8/28/2021 12:45:00 PM 16.99 62.582 0.045 7.06 12.49 9.62
8/28/2021 1:00:00 PM 16.97 62.546 0.044 7 11.56 9.57
8/28/2021 1:15:00 PM 17.16 62.888 0.045 7.03 11.55 9.56
8/28/2021 1:30:00 PM 17.33 63.194 0.045 7.06 11.54 9.56
8/28/2021 1:45:00 PM 17.49 63.482 0.045 7.05 11.23 9.56
8/28/2021 2:00:00 PM 17.78 64.004 0.045 7.07 11.39 9.52
8/28/2021 2:15:00 PM 17.95 64.31 0.044 7.07 11.48 9.5
8/28/2021 2:30:00 PM 18.04 64.472 0.045 7.1 10.88 9.49
8/28/2021 2:45:00 PM 18.08 64.544 0.045 7.07 11.19 9.48
8/28/2021 3:00:00 PM 18.18 64.724 0.045 7.06 10.89 9.45
8/28/2021 3:15:00 PM 18.14 64.652 0.044 7.06 10.98 9.4
8/28/2021 3:30:00 PM 18.37 65.066 0.044 7.09 11.24 9.38
8/28/2021 3:45:00 PM 18.39 65.102 0.044 7.06 11.04 9.34
8/28/2021 4:00:00 PM 18.52 65.336 0.044 7.08 12.05 9.31
8/28/2021 4:15:00 PM 18.64 65.552 0.044 7.1 11.97 9.29
8/28/2021 4:30:00 PM 18.62 65.516 0.044 7.11 12.44 9.27
8/28/2021 4:45:00 PM 18.59 65.462 0.044 7.12 12.28 9.23
8/28/2021 5:00:00 PM 18.51 65.318 0.044 7.06 12.07 9.2
8/28/2021 5:15:00 PM 18.38 65.084 0.045 7.12 9.87 9.2
8/28/2021 5:30:00 PM 18.28 64.904 0.044 7.1 18.78 9.22
8/28/2021 5:45:00 PM 18.21 64.778 0.045 7.1 10.94 9.25
8/28/2021 6:00:00 PM 18.13 64.634 0.045 7.1 10.45 9.23
8/28/2021 6:15:00 PM 18.1 64.58 0.045 7.08 10.31 9.22
8/28/2021 6:30:00 PM 18.04 64.472 0.045 7.07 10.35 9.2
8/28/2021 6:45:00 PM 17.95 64.31 0.045 7.05 9.34 9.19
8/28/2021 7:00:00 PM 17.89 64.202 0.045 7.04 10.11 9.17
8/28/2021 7:15:00 PM 17.82 64.076 0.045 7.01 9.51 9.16
8/28/2021 7:30:00 PM 17.75 63.95 0.045 6.99 11.53 9.13
8/28/2021 7:45:00 PM 17.66 63.788 0.045 6.94 9.62 9.11
8/28/2021 8:00:00 PM 17.59 63.662 0.045 6.88 8.47 9.09
8/28/2021 8:15:00 PM 17.51 63.518 0.045 6.87 9 9.07
8/28/2021 8:30:00 PM 17.43 63.374 0.045 6.86 8.41 9.06
8/28/2021 8:45:00 PM 17.35 63.23 0.046 6.89 8.08 9.06
8/28/2021 9:00:00 PM 17.27 63.086 0.046 6.86 10.13 9.07
8/28/2021 9:15:00 PM 17.19 62.942 0.046 6.86 8.44 9.07
8/28/2021 9:30:00 PM 17.1 62.78 0.046 6.85 8.93 9.08
8/28/2021 9:45:00 PM 17.01 62.618 0.046 6.84 9.48 9.1
8/28/2021 10:00:00 PM 16.92 62.456 0.046 6.83 8.24 9.12
8/28/2021 10:15:00 PM 16.84 62.312 0.046 6.81 8.35 9.13
8/28/2021 10:30:00 PM 16.76 62.168 0.046 6.82 8.01 9.14
8/28/2021 10:45:00 PM 16.67 62.006 0.046 6.82 7.77 9.17
8/28/2021 11:00:00 PM 16.6 61.88 0.045 6.81 8.16 9.18
8/28/2021 11:15:00 PM 16.53 61.754 0.046 6.82 13.02 9.19
8/28/2021 11:30:00 PM 16.47 61.646 0.046 6.8 15.74 9.21
8/28/2021 11:45:00 PM 16.41 61.538 0.046 6.82 17.5 9.22
8/29/2021 12:00:00 AM 16.36 61.448 0.046 6.87 19.76 9.23
8/29/2021 12:15:00 AM 16.32 61.376 0.045 6.87 12.69 9.24
8/29/2021 12:30:00 AM 16.29 61.322 0.046 6.87 24.93 9.25
8/29/2021 12:45:00 AM 16.26 61.268 0.046 6.87 16.88 9.25
8/29/2021 1:00:00 AM 16.25 61.25 0.047 6.83 16.7 9.25
8/29/2021 1:15:00 AM 16.26 61.268 0.047 6.81 68.46 9.24
8/29/2021 1:30:00 AM 16.26 61.268 0.046 6.86 16.19 9.25
8/29/2021 1:45:00 AM 16.25 61.25 0.046 6.87 17.56 9.25
8/29/2021 2:00:00 AM 16.25 61.25 0.046 6.86 18.35 9.25
8/29/2021 2:15:00 AM 16.22 61.196 0.045 6.87 20.99 9.25
8/29/2021 2:30:00 AM 16.2 61.16 0.045 6.88 16.36 9.26
8/29/2021 2:45:00 AM 16.18 61.124 0.044 6.85 16.78 9.26
8/29/2021 3:00:00 AM 16.16 61.088 0.046 6.9 79.39 9.27
8/29/2021 3:15:00 AM 16.13 61.034 0.046 6.89 21.57 9.27
8/29/2021 3:30:00 AM 16.09 60.962 0.046 6.86 18.49 9.27
8/29/2021 3:45:00 AM 16.04 60.872 0.046 6.87 14.22 9.28
8/29/2021 4:00:00 AM 16 60.8 0.046 6.87 18.71 9.29
8/29/2021 4:15:00 AM 15.96 60.728 0.046 6.87 17.5 9.3
8/29/2021 4:30:00 AM 15.94 60.692 0.045 6.86 21.15 9.3
8/29/2021 4:45:00 AM 15.91 60.638 0.046 6.85 20.52 9.31
8/29/2021 5:00:00 AM 15.89 60.602 0.046 6.83 26.16 9.31
8/29/2021 5:15:00 AM 15.87 60.566 0.046 6.85 20.74 9.31
8/29/2021 5:30:00 AM 15.84 60.512 0.046 6.84 19.87 9.32
8/29/2021 5:45:00 AM 15.82 60.476 0.046 6.86 23.14 9.33
8/29/2021 6:00:00 AM 15.79 60.422 0.046 6.85 23.39 9.32
8/29/2021 6:15:00 AM 15.77 60.386 0.045 6.85 27.32 9.33
8/29/2021 6:30:00 AM 15.75 60.35 0.046 6.84 24.33 9.34
8/29/2021 6:45:00 AM 15.73 60.314 0.046 6.81 25.49 9.34
8/29/2021 7:00:00 AM 15.72 60.296 0.046 6.83 25.06 9.36
8/29/2021 7:15:00 AM 15.7 60.26 0.046 6.84 24.65 9.37
8/29/2021 7:30:00 AM 15.68 60.224 0.046 6.83 26.09 9.39
8/29/2021 7:45:00 AM 15.67 60.206 0.046 6.83 25.96 9.42
8/29/2021 8:00:00 AM 15.67 60.206 0.045 6.91 14.73 9.46
8/29/2021 8:15:00 AM 15.67 60.206 0.044 6.85 13.47 9.49
8/29/2021 8:30:00 AM 15.68 60.224 0.046 6.86 22.38 9.52
8/29/2021 8:45:00 AM 15.71 60.278 0.046 6.89 38.85 9.55
8/29/2021 9:00:00 AM 15.74 60.332 0.045 6.91 29.5 9.57
8/29/2021 9:15:00 AM 15.75 60.35 0.046 6.91 24.75 9.57
8/29/2021 9:30:00 AM 15.76 60.368 0.046 6.94 24.47 9.58
8/29/2021 9:45:00 AM 15.79 60.422 0.046 6.95 35.76 9.61
8/29/2021 10:00:00 AM 15.8 60.44 0.046 6.97 30.36 9.62
8/29/2021 10:15:00 AM 15.83 60.494 0.046 6.98 27.32 9.64
8/29/2021 10:30:00 AM 15.87 60.566 0.046 6.98 24.57 9.65
8/29/2021 10:45:00 AM 15.91 60.638 0.046 7 22.37 9.68
8/29/2021 11:00:00 AM 15.95 60.71 0.046 7.01 25.64 9.68
8/29/2021 11:15:00 AM 15.98 60.764 0.046 7.02 45.9 9.69
8/29/2021 11:30:00 AM 16.06 60.908 0.046 7.02 21.96 9.7
8/29/2021 11:45:00 AM 16.12 61.016 0.045 7.06 21.75 9.71
8/29/2021 12:00:00 PM 16.17 61.106 0.045 7.04 16.82 9.71
8/29/2021 12:15:00 PM 16.27 61.286 0.045 7.08 23.65 9.71
8/29/2021 12:30:00 PM 16.35 61.43 0.045 7.07 20.87 9.72
8/29/2021 12:45:00 PM 16.42 61.556 0.044 7.07 70.64 9.72
8/29/2021 1:00:00 PM 16.49 61.682 0.045 7.08 31.37 9.72
8/29/2021 1:15:00 PM 16.56 61.808 0.045 7.1 20.78 9.7
8/29/2021 1:30:00 PM 16.6 61.88 0.045 7.07 21.72 9.65
8/29/2021 1:45:00 PM 16.68 62.024 0.045 7.06 23.06 9.64
8/29/2021 2:00:00 PM 16.73 62.114 0.045 7.06 27.24 9.63
8/29/2021 2:15:00 PM 16.76 62.168 0.045 7.1 20.79 9.64
8/29/2021 2:30:00 PM 16.76 62.168 0.045 7.06 22.85 9.63
8/29/2021 2:45:00 PM 16.8 62.24 0.045 7.09 23.65 9.62
8/29/2021 3:00:00 PM 16.8 62.24 0.045 7.07 24.1 9.58
8/29/2021 3:15:00 PM 16.81 62.258 0.045 7.05 104.88 9.57
8/29/2021 3:30:00 PM 16.86 62.348 0.045 7.07 21.28 9.56
8/29/2021 3:45:00 PM 16.92 62.456 0.045 7.06 25.25 9.55
8/29/2021 4:00:00 PM 16.98 62.564 0.045 7.07 22.62 9.56
8/29/2021 4:15:00 PM 17.06 62.708 0.045 7.09 20.58 9.55
8/29/2021 4:30:00 PM 17.11 62.798 0.045 7.09 24.86 9.54
8/29/2021 4:45:00 PM 17.18 62.924 0.045 7.07 23.67 9.53
8/29/2021 5:00:00 PM 17.25 63.05 0.045 7.09 21.11 9.53
8/29/2021 5:15:00 PM 17.26 63.068 0.045 7.08 21.03 9.49
8/29/2021 5:30:00 PM 17.3 63.14 0.045 7.1 47.69 9.47
8/29/2021 5:45:00 PM 17.3 63.14 0.045 7.08 23.37 9.41
8/29/2021 6:00:00 PM 17.28 63.104 0.045 7.05 46.2 9.36
8/29/2021 6:15:00 PM 17.22 62.996 0.045 7.03 20.65 9.33
8/29/2021 6:30:00 PM 17.17 62.906 0.045 7.02 22.4 9.28
8/29/2021 6:45:00 PM 17.13 62.834 0.045 7.06 21.87 9.25
8/29/2021 7:00:00 PM 17.08 62.744 0.045 7.04 16.6 9.23
8/29/2021 7:15:00 PM 17.03 62.654 0.045 6.99 16.09 9.21
8/29/2021 7:30:00 PM 16.98 62.564 0.044 6.97 21 9.19
8/29/2021 7:45:00 PM 16.94 62.492 0.046 6.96 18.94 9.17
8/29/2021 8:00:00 PM 16.89 62.402 0.046 6.89 18.94 9.15
8/29/2021 8:15:00 PM 16.85 62.33 0.046 6.92 23.06 9.14
8/29/2021 8:30:00 PM 16.8 62.24 0.046 6.92 26.76 9.13
8/29/2021 8:45:00 PM 16.78 62.204 0.044 6.9 23.57 9.13
8/29/2021 9:00:00 PM 16.76 62.168 0.043 6.91 25.5 9.12
8/29/2021 9:15:00 PM 16.7 62.06 0.046 6.87 21.23 9.12
8/29/2021 9:30:00 PM 16.66 61.988 0.046 6.86 23.53 9.12
8/29/2021 9:45:00 PM 16.62 61.916 0.046 6.88 22.09 9.14
8/29/2021 10:00:00 PM 16.57 61.826 0.046 6.88 33.4 9.14
8/29/2021 10:15:00 PM 16.53 61.754 0.045 6.87 23.64 9.14
8/29/2021 10:30:00 PM 16.48 61.664 0.044 6.88 24.88 9.15
8/29/2021 10:45:00 PM 16.44 61.592 0.044 6.87 21.38 9.16
8/29/2021 11:00:00 PM 16.41 61.538 0.046 6.86 26.66 9.16
8/29/2021 11:15:00 PM 16.37 61.466 0.046 6.87 34.32 9.17
8/29/2021 11:30:00 PM 16.33 61.394 0.046 6.84 18.98 9.18
8/29/2021 11:45:00 PM 16.3 61.34 0.046 6.87 20.23 9.18
8/30/2021 12:00:00 AM 16.27 61.286 0.046 6.86 21.46 9.18
8/30/2021 12:15:00 AM 16.24 61.232 0.047 6.85 17.26 9.19
8/30/2021 12:30:00 AM 16.21 61.178 0.047 6.86 21.07 9.2
8/30/2021 12:45:00 AM 16.18 61.124 0.047 6.85 24.14 9.2
8/30/2021 1:00:00 AM 16.15 61.07 0.047 6.86 20.82 9.21
8/30/2021 1:15:00 AM 16.12 61.016 0.047 6.85 21.07 9.21
8/30/2021 1:30:00 AM 16.09 60.962 0.047 6.85 19.51 9.22
8/30/2021 1:45:00 AM 16.06 60.908 0.047 6.86 20.39 9.22
8/30/2021 2:00:00 AM 16.03 60.854 0.044 6.88 25.3 9.23
8/30/2021 2:15:00 AM 16 60.8 0.047 6.88 36.85 9.24
8/30/2021 2:30:00 AM 15.94 60.692 0.047 6.88 25.2 9.25
8/30/2021 2:45:00 AM 15.9 60.62 0.047 6.85 25.12 9.25
8/30/2021 3:00:00 AM 15.86 60.548 0.047 6.89 29.6 9.26
8/30/2021 3:15:00 AM 15.81 60.458 0.047 6.86 25.07 9.27
8/30/2021 3:30:00 AM 15.78 60.404 0.047 6.9 29.67 9.28
8/30/2021 3:45:00 AM 15.76 60.368 0.047 6.9 29.13 9.28
8/30/2021 4:00:00 AM 15.73 60.314 0.047 6.86 28.56 9.29
8/30/2021 4:15:00 AM 15.71 60.278 0.047 6.9 26.46 9.29
8/30/2021 4:30:00 AM 15.68 60.224 0.047 6.86 28.08 9.29
8/30/2021 4:45:00 AM 15.65 60.17 0.047 6.88 30.14 9.29
8/30/2021 5:00:00 AM 15.62 60.116 0.047 6.87 28.83 9.3
8/30/2021 5:15:00 AM 15.59 60.062 0.047 6.86 29.3 9.3
8/30/2021 5:30:00 AM 15.56 60.008 0.047 6.85 42.5 9.31
8/30/2021 5:45:00 AM 15.52 59.936 0.047 6.84 31.61 9.32
8/30/2021 6:00:00 AM 15.5 59.9 0.047 6.86 36.22 9.32
8/30/2021 6:15:00 AM 15.48 59.864 0.047 6.87 30.98 9.33
8/30/2021 6:30:00 AM 15.46 59.828 0.047 6.86 32.05 9.33
8/30/2021 6:45:00 AM 15.44 59.792 0.047 6.86 23.13 9.34
8/30/2021 7:00:00 AM 15.42 59.756 0.047 6.85 37.92 9.35
8/30/2021 7:15:00 AM 15.41 59.738 0.046 6.87 54.7 9.38
8/30/2021 7:30:00 AM 15.4 59.72 0.046 6.86 44.4 9.41
8/30/2021 7:45:00 AM 15.39 59.702 0.046 6.88 34.56 9.44
8/30/2021 8:00:00 AM 15.4 59.72 0.045 6.9 36.99 9.49
8/30/2021 8:15:00 AM 15.4 59.72 0.046 6.91 27.86 9.53
8/30/2021 8:30:00 AM 15.4 59.72 0.046 6.9 99.84 9.54
8/30/2021 8:45:00 AM 15.4 59.72 0.046 6.91 49.85 9.56
8/30/2021 9:00:00 AM 15.41 59.738 0.046 6.94 38.62 9.58
8/30/2021 9:15:00 AM 15.41 59.738 0.046 6.92 39.3 9.58
8/30/2021 9:30:00 AM 15.42 59.756 0.046 6.94 44.28 9.58
8/30/2021 9:45:00 AM 15.45 59.81 0.046 6.95 37.88 9.63
8/30/2021 10:00:00 AM 15.47 59.846 0.046 6.97 38 9.65
8/30/2021 10:15:00 AM 15.49 59.882 0.046 6.97 41.39 9.67
8/30/2021 10:30:00 AM 15.57 60.026 0.045 7 40.47 9.7
8/30/2021 10:45:00 AM 15.61 60.098 0.046 7.01 37.62 9.71
8/30/2021 11:00:00 AM 15.66 60.188 0.046 7.04 29.73 9.73
8/30/2021 11:15:00 AM 15.71 60.278 0.046 7.07 116.98 9.71
8/30/2021 11:30:00 AM 15.74 60.332 0.046 7.05 34.79 9.7
8/30/2021 11:45:00 AM 15.75 60.35 0.046 7.05 23.31 9.68
8/30/2021 12:00:00 PM 15.8 60.44 0.046 7.06 72.71 9.69
8/30/2021 12:15:00 PM 15.86 60.548 0.043 7.06 42.52 9.7
8/30/2021 12:30:00 PM 15.93 60.674 0.046 7.08 20.86 9.71
8/30/2021 12:45:00 PM 16.01 60.818 0.045 7.06 52.42 9.69
8/30/2021 1:00:00 PM 16.07 60.926 0.046 7.08 28.62 9.66
8/30/2021 1:15:00 PM 16.29 61.322 0.046 7.09 22.12 9.66
8/30/2021 1:30:00 PM 16.36 61.448 0.046 7.1 24.63 9.66
8/30/2021 1:45:00 PM 16.35 61.43 0.046 7.1 25.76 9.66
8/30/2021 2:00:00 PM 16.36 61.448 0.046 7.09 25.25 9.63
8/30/2021 2:15:00 PM 16.52 61.736 0.046 7.1 38.08 9.62
8/30/2021 2:30:00 PM 16.49 61.682 0.046 7.11 104.16 9.62
8/30/2021 2:45:00 PM 16.64 61.952 0.044 7.09 23.69 9.6
8/30/2021 3:00:00 PM 16.83 62.294 0.045 7.12 26.34 9.57
8/30/2021 3:15:00 PM 17.08 62.744 0.045 7.1 30.58 9.53
8/30/2021 3:30:00 PM 17.3 63.14 0.045 7.12 30.85 9.48
8/30/2021 3:45:00 PM 17.49 63.482 0.045 7.1 33.85 9.43
8/30/2021 4:00:00 PM 17.7 63.86 0.045 7.12 45.1 9.37
8/30/2021 4:15:00 PM 17.94 64.292 0.045 7.11 40.81 9.34
8/30/2021 4:30:00 PM 18.18 64.724 0.045 7.11 50.22 9.28
8/30/2021 4:45:00 PM 18.33 64.994 0.045 7.15 17.61 9.23
8/30/2021 5:00:00 PM 18.42 65.156 0.045 7.12 30.65 9.21
8/30/2021 5:15:00 PM 18.45 65.21 0.045 7.11 28.76 9.17
8/30/2021 5:30:00 PM 18.45 65.21 0.045 7.07 33.52 9.14
8/30/2021 5:45:00 PM 18.44 65.192 0.045 7.1 34.15 9.13
8/30/2021 6:00:00 PM 18.38 65.084 0.045 7.08 29.32 9.1
8/30/2021 6:15:00 PM 18.3 64.94 0.045 7.09 15.24 9.06
8/30/2021 6:30:00 PM 18.24 64.832 0.045 7.03 28.97 9.03
8/30/2021 6:45:00 PM 18.16 64.688 0.045 7.02 32.66 9.02
8/30/2021 7:00:00 PM 18.08 64.544 0.045 7.03 33.84 9
8/30/2021 7:15:00 PM 17.98 64.364 0.045 7.05 38.6 8.98
8/30/2021 7:30:00 PM 17.87 64.166 0.043 7 43.01 8.97
8/30/2021 7:45:00 PM 17.78 64.004 0.046 6.99 50.26 8.95
8/30/2021 8:00:00 PM 17.68 63.824 0.046 6.98 52.66 8.94
8/30/2021 8:15:00 PM 17.58 63.644 0.046 6.95 78.3 8.93
8/30/2021 8:30:00 PM 17.48 63.464 0.046 7 1863.8 8.93
8/30/2021 8:45:00 PM 17.4 63.32 0.046 6.96 682.57 8.93
8/30/2021 9:00:00 PM 17.32 63.176 0.046 6.95 516.69 8.93
8/30/2021 9:15:00 PM 17.26 63.068 0.046 6.91 230.42 8.94
8/30/2021 9:30:00 PM 17.19 62.942 0.046 6.9 87.96 8.94
8/30/2021 9:45:00 PM 17.13 62.834 0.046 6.9 125.62 8.95
8/30/2021 10:00:00 PM 17.07 62.726 0.046 6.9 66.52 8.96
8/30/2021 10:15:00 PM 17.02 62.636 0.046 6.9 80.02 8.97
8/30/2021 10:30:00 PM 16.96 62.528 0.046 6.9 100.2 8.99
8/30/2021 10:45:00 PM 16.9 62.42 0.046 6.91 113.74 9
8/30/2021 11:00:00 PM 16.84 62.312 0.047 6.89 91.48 9.01
8/30/2021 11:15:00 PM 16.79 62.222 0.046 6.93 97.19 9.02
8/30/2021 11:30:00 PM 16.73 62.114 0.047 6.88 30.59 9.03
8/30/2021 11:45:00 PM 16.68 62.024 0.045 6.89 28.87 9.05
8/31/2021 12:00:00 AM 16.62 61.916 0.047 6.88 21.43 9.06
8/31/2021 12:15:00 AM 16.57 61.826 0.047 6.93 68.25 9.06
8/31/2021 12:30:00 AM 16.52 61.736 0.047 6.9 90.3 9.07
8/31/2021 12:45:00 AM 16.47 61.646 0.044 6.89 133.12 9.09
8/31/2021 1:00:00 AM 16.42 61.556 0.047 6.88 87.61 9.1
8/31/2021 1:15:00 AM 16.37 61.466 0.047 6.89 127.62 9.1
8/31/2021 1:30:00 AM 16.33 61.394 0.047 6.88 242.17 9.11
8/31/2021 1:45:00 AM 16.28 61.304 0.047 6.9 195.8 9.12
8/31/2021 2:00:00 AM 16.24 61.232 0.047 6.9 222.08 9.13
8/31/2021 2:15:00 AM 16.19 61.142 0.047 6.9 243.69 9.14
8/31/2021 2:30:00 AM 16.15 61.07 0.047 6.91 222.77 9.15
8/31/2021 2:45:00 AM 16.09 60.962 0.046 6.92 346.86 9.16
8/31/2021 3:00:00 AM 16.03 60.854 0.044 6.9 501.4 9.17
8/31/2021 3:15:00 AM 15.97 60.746 0.047 6.91 226.28 9.18
8/31/2021 3:30:00 AM 15.9 60.62 0.046 6.92 361.28 9.2
8/31/2021 3:45:00 AM 15.85 60.53 0.047 6.91 151.66 9.21
8/31/2021 4:00:00 AM 15.79 60.422 0.044 6.88 110.27 9.22
8/31/2021 4:15:00 AM 15.73 60.314 0.047 6.91 150.25 9.23
8/31/2021 4:30:00 AM 15.68 60.224 0.047 6.91 282 9.24
8/31/2021 4:45:00 AM 15.61 60.098 0.047 6.78 2.09 9.26
8/31/2021 5:00:00 AM 15.56 60.008 0.047 6.92 3.04 9.28
8/31/2021 5:15:00 AM 15.5 59.9 0.047 6.9 6.17 9.29
8/31/2021 5:30:00 AM 15.44 59.792 0.047 6.91 3.05 9.3
8/31/2021 5:45:00 AM 15.39 59.702 0.047 6.91 3.15 9.31
8/31/2021 6:00:00 AM 15.34 59.612 0.047 6.92 4.98 9.32
8/31/2021 6:15:00 AM 15.29 59.522 0.045 6.89 17.19 9.33
8/31/2021 6:30:00 AM 15.23 59.414 0.047 6.9 5.39 9.34
8/31/2021 6:45:00 AM 15.17 59.306 0.044 6.87 8.11 9.36
8/31/2021 7:00:00 AM 15.12 59.216 0.047 6.91 3.97 9.38
8/31/2021 7:15:00 AM 15.07 59.126 0.047 6.9 4.56 9.42
8/31/2021 7:30:00 AM 15.03 59.054 0.047 6.91 4.04 9.45
8/31/2021 7:45:00 AM 14.99 58.982 0.047 6.93 4.16 9.5
8/31/2021 8:00:00 AM 14.96 58.928 0.047 6.92 6.34 9.55
8/31/2021 8:15:00 AM 14.93 58.874 0.047 6.94 12.35 9.6
8/31/2021 8:30:00 AM 14.92 58.856 0.046 6.96 7.6 9.65
8/31/2021 8:45:00 AM 14.92 58.856 0.046 6.96 5.44 9.69
8/31/2021 9:00:00 AM 14.94 58.892 0.046 6.98 7.1 9.73
8/31/2021 9:15:00 AM 14.96 58.928 0.046 7 6.23 9.76
8/31/2021 9:30:00 AM 14.99 58.982 0.046 7.01 5.41 9.78
8/31/2021 9:45:00 AM 15.01 59.018 0.046 7.01 11.19 9.77
8/31/2021 10:00:00 AM 15.05 59.09 0.046 7.01 46.02 9.79
8/31/2021 10:15:00 AM 15.09 59.162 0.046 7.01 17.93 9.8
8/31/2021 10:30:00 AM 15.14 59.252 0.046 6.99 2.28 9.82
8/31/2021 10:45:00 AM 15.21 59.378 0.045 7.01 4.32 9.81
8/31/2021 11:00:00 AM 15.28 59.504 0.046 7.01 2.82 9.82
8/31/2021 11:15:00 AM 15.35 59.63 0.046 7.02 2.5 9.81
8/31/2021 11:30:00 AM 15.43 59.774 0.046 7.03 2.27 9.79
8/31/2021 11:45:00 AM 15.52 59.936 0.045 7.04 3.93 9.78
8/31/2021 12:00:00 PM 15.69 60.242 0.045 7.05 4.93 9.76
8/31/2021 12:15:00 PM 15.81 60.458 0.045 7.06 2 9.75
8/31/2021 12:30:00 PM 15.88 60.584 0.045 7.05 5.75 9.7
8/31/2021 12:45:00 PM 16.14 61.052 0.046 7.05 2.84 9.66
8/31/2021 1:00:00 PM 16.24 61.232 0.045 7.06 2.8 9.64
8/31/2021 1:15:00 PM 16.39 61.502 0.045 7.06 2.51 9.65
8/31/2021 1:30:00 PM 16.66 61.988 0.044 7.09 5.03 9.61
8/31/2021 1:45:00 PM 16.86 62.348 0.045 7.08 3.01 9.57
8/31/2021 2:00:00 PM 16.82 62.276 0.045 7.07 2.66 9.52
8/31/2021 2:15:00 PM 16.83 62.294 0.045 7.07 2.24 9.5
8/31/2021 2:30:00 PM 16.93 62.474 0.045 7.08 2.8 9.48
8/31/2021 2:45:00 PM 17.15 62.87 0.045 7.07 2.91 9.46
8/31/2021 3:00:00 PM 17.28 63.104 0.045 7.07 3.46 9.43
8/31/2021 3:15:00 PM 17.46 63.428 0.045 7.09 3.51 9.41
8/31/2021 3:30:00 PM 17.64 63.752 0.045 7.08 4.27 9.37
8/31/2021 3:45:00 PM 17.76 63.968 0.045 7.09 3.26 9.34
8/31/2021 4:00:00 PM 17.85 64.13 0.045 7.08 3.61 9.3
8/31/2021 4:15:00 PM 17.87 64.166 0.045 7.09 5.71 9.29
8/31/2021 4:30:00 PM 17.89 64.202 0.044 7.07 4.97 9.29
8/31/2021 4:45:00 PM 17.88 64.184 0.044 7.08 5.99 9.29
8/31/2021 5:00:00 PM 17.89 64.202 0.043 7.07 5.85 9.27
8/31/2021 5:15:00 PM 17.86 64.148 0.045 7.05 3.45 9.25
8/31/2021 5:30:00 PM 17.8 64.04 0.045 7.06 3.39 9.23
8/31/2021 5:45:00 PM 17.71 63.878 0.045 7.05 4.33 9.21
8/31/2021 6:00:00 PM 17.62 63.716 0.045 7.03 2.93 9.19
8/31/2021 6:15:00 PM 17.59 63.662 0.045 7.02 3.31 9.17
8/31/2021 6:30:00 PM 17.54 63.572 0.045 7.01 3.17 9.14
8/31/2021 6:45:00 PM 17.47 63.446 0.045 6.99 3.95 9.11
8/31/2021 7:00:00 PM 17.41 63.338 0.044 6.98 6.31 9.09
8/31/2021 7:15:00 PM 17.36 63.248 0.046 6.95 3.65 9.07
8/31/2021 7:30:00 PM 17.31 63.158 0.046 6.94 3.69 9.04
8/31/2021 7:45:00 PM 17.26 63.068 0.046 6.92 4.74 9.01
8/31/2021 8:00:00 PM 17.21 62.978 0.046 6.9 4.58 8.99
8/31/2021 8:15:00 PM 17.17 62.906 0.046 6.9 4.27 8.97
8/31/2021 8:30:00 PM 17.13 62.834 0.046 6.89 5.35 8.97
8/31/2021 8:45:00 PM 17.09 62.762 0.046 6.89 4.99 8.96
8/31/2021 9:00:00 PM 17.05 62.69 0.045 6.87 6.77 8.96
8/31/2021 9:15:00 PM 17.02 62.636 0.046 6.88 3.65 8.96
8/31/2021 9:30:00 PM 16.98 62.564 0.046 6.87 4.07 8.97
8/31/2021 9:45:00 PM 16.94 62.492 0.047 6.87 3.5 8.98
8/31/2021 10:00:00 PM 16.9 62.42 0.047 6.87 3.54 8.99
8/31/2021 10:15:00 PM 16.86 62.348 0.047 6.88 3.45 9
8/31/2021 10:30:00 PM 16.82 62.276 0.046 6.86 6.49 9
8/31/2021 10:45:00 PM 16.77 62.186 0.047 6.85 4.35 9.02
8/31/2021 11:00:00 PM 16.72 62.096 0.047 6.87 5.55 9.02
8/31/2021 11:15:00 PM 16.68 62.024 0.047 6.86 4.65 9.04
8/31/2021 11:30:00 PM 16.63 61.934 0.047 6.87 4.38 9.04
8/31/2021 11:45:00 PM 16.58 61.844 0.047 6.87 4.62 9.05
9/1/2021 12:00:00 AM 16.53 61.754 0.047 6.87 3.97 9.06
9/1/2021 12:15:00 AM 16.49 61.682 0.047 6.87 4.74 9.07
9/1/2021 12:30:00 AM 16.43 61.574 0.047 6.87 3.76 9.08
9/1/2021 12:45:00 AM 16.39 61.502 0.047 6.86 4.86 9.09
9/1/2021 1:00:00 AM 16.34 61.412 0.047 6.86 4.39 9.1
9/1/2021 1:15:00 AM 16.29 61.322 0.047 6.86 4.82 9.11
9/1/2021 1:30:00 AM 16.24 61.232 0.047 6.85 4.24 9.11
9/1/2021 1:45:00 AM 16.19 61.142 0.047 6.86 4.92 9.12
9/1/2021 2:00:00 AM 16.14 61.052 0.047 6.86 5.7 9.13
9/1/2021 2:15:00 AM 16.08 60.944 0.047 6.85 5.15 9.14
9/1/2021 2:30:00 AM 16.03 60.854 0.047 6.85 7.43 9.15
9/1/2021 2:45:00 AM 15.98 60.764 0.047 6.84 5.8 9.16
9/1/2021 3:00:00 AM 15.93 60.674 0.047 6.85 8.67 9.17
9/1/2021 3:15:00 AM 15.88 60.584 0.047 6.86 7.62 9.18
9/1/2021 3:30:00 AM 15.83 60.494 0.047 6.85 6.4 9.19
9/1/2021 3:45:00 AM 15.79 60.422 0.047 6.84 6.3 9.2
9/1/2021 4:00:00 AM 15.74 60.332 0.047 6.86 8.54 9.2
9/1/2021 4:15:00 AM 15.7 60.26 0.047 6.85 6.24 9.22
9/1/2021 4:30:00 AM 15.66 60.188 0.047 6.84 6.11 9.23
9/1/2021 4:45:00 AM 15.63 60.134 0.047 6.86 8.66 9.23
9/1/2021 5:00:00 AM 15.6 60.08 0.047 6.84 7.65 9.24
9/1/2021 5:15:00 AM 15.57 60.026 0.047 6.85 8.72 9.25
9/1/2021 5:30:00 AM 15.54 59.972 0.047 6.85 8.56 9.25
9/1/2021 5:45:00 AM 15.51 59.918 0.047 6.85 9.83 9.26
9/1/2021 6:00:00 AM 15.48 59.864 0.047 6.85 8.96 9.27
9/1/2021 6:15:00 AM 15.45 59.81 0.047 6.87 5.94 9.27
9/1/2021 6:30:00 AM 15.43 59.774 0.047 6.85 4.27 9.28
9/1/2021 6:45:00 AM 15.4 59.72 0.045 6.88 5.14 9.29
9/1/2021 7:00:00 AM 15.38 59.684 0.045 6.82 4.54 9.29
9/1/2021 7:15:00 AM 15.36 59.648 0.047 6.85 4.24 9.31
9/1/2021 7:30:00 AM 15.34 59.612 0.047 6.87 3.61 9.32
9/1/2021 7:45:00 AM 15.32 59.576 0.047 6.88 4.38 9.34
9/1/2021 8:00:00 AM 15.3 59.54 0.047 6.91 43.82 9.35
9/1/2021 8:15:00 AM 15.29 59.522 0.047 6.88 3.13 9.37
9/1/2021 8:30:00 AM 15.27 59.486 0.047 6.89 3.5 9.39
9/1/2021 8:45:00 AM 15.26 59.468 0.047 6.89 5.2 9.42
9/1/2021 9:00:00 AM 15.25 59.45 0.047 6.91 3.28 9.44
9/1/2021 9:15:00 AM 15.25 59.45 0.047 6.92 4.28 9.47
9/1/2021 9:30:00 AM 15.25 59.45 0.046 6.93 4.51 9.51
9/1/2021 9:45:00 AM 15.25 59.45 0.046 6.94 2.95 9.54
9/1/2021 10:00:00 AM 15.26 59.468 0.044 6.95 5.13 9.57
9/1/2021 10:15:00 AM 15.28 59.504 0.047 6.97 2.53 9.6
9/1/2021 10:30:00 AM 15.3 59.54 0.046 6.99 3.16 9.64
9/1/2021 10:45:00 AM 15.32 59.576 0.046 7 3.7 9.64
9/1/2021 11:00:00 AM 15.35 59.63 0.045 7 3.67 9.65
9/1/2021 11:15:00 AM 15.37 59.666 0.046 7.01 3.22 9.65
9/1/2021 11:30:00 AM 15.38 59.684 0.045 7.03 4.53 9.62
9/1/2021 11:45:00 AM 15.38 59.684 0.046 6.98 3.98 9.59
9/1/2021 12:00:00 PM 15.38 59.684 0.046 6.99 3.92 9.57
9/1/2021 12:15:00 PM 15.4 59.72 0.046 6.99 3.92 9.59
9/1/2021 12:30:00 PM 15.41 59.738 0.046 7.01 3.16 9.61
9/1/2021 12:45:00 PM 15.41 59.738 0.046 7.01 5.95 9.62
9/1/2021 1:00:00 PM 15.41 59.738 0.046 6.99 4.87 9.59
9/1/2021 1:15:00 PM 15.41 59.738 0.046 6.98 3.07 9.55
9/1/2021 1:30:00 PM 15.4 59.72 0.046 6.98 4.03 9.53
9/1/2021 1:45:00 PM 15.39 59.702 0.046 6.98 4.04 9.54
9/1/2021 2:00:00 PM 15.38 59.684 0.046 6.98 4.47 9.51
9/1/2021 2:15:00 PM 15.36 59.648 0.046 6.97 4.24 9.49
9/1/2021 2:30:00 PM 15.36 59.648 0.046 6.97 4.07 9.5
9/1/2021 2:45:00 PM 15.36 59.648 0.044 6.95 4.13 9.51
9/1/2021 3:00:00 PM 15.35 59.63 0.046 6.97 4.47 9.51
9/1/2021 3:15:00 PM 15.34 59.612 0.045 6.98 5.08 9.51
9/1/2021 3:30:00 PM 15.33 59.594 0.045 6.96 6.28 9.49
9/1/2021 3:45:00 PM 15.32 59.576 0.045 6.97 7.34 9.49
9/1/2021 4:00:00 PM 15.31 59.558 0.045 6.96 12.84 9.49
9/1/2021 4:15:00 PM 15.3 59.54 0.045 6.96 8.82 9.49
9/1/2021 4:30:00 PM 15.29 59.522 0.046 6.95 7.91 9.51
9/1/2021 4:45:00 PM 15.27 59.486 0.046 6.95 5.57 9.5
9/1/2021 5:00:00 PM 15.24 59.432 0.046 6.94 7.23 9.48
9/1/2021 5:15:00 PM 15.22 59.396 0.046 6.93 5.64 9.47
9/1/2021 5:30:00 PM 15.2 59.36 0.044 6.94 11.28 9.46
9/1/2021 5:45:00 PM 15.18 59.324 0.046 6.95 10.58 9.47
9/1/2021 6:00:00 PM 15.16 59.288 0.045 6.95 12.85 9.47
9/1/2021 6:15:00 PM 15.14 59.252 0.044 6.95 7.08 9.46
9/1/2021 6:30:00 PM 15.13 59.234 0.046 6.93 7.3 9.45
9/1/2021 6:45:00 PM 15.11 59.198 0.046 6.92 11.81 9.47
9/1/2021 7:00:00 PM 15.09 59.162 0.046 6.92 12.41 9.46
9/1/2021 7:15:00 PM 15.07 59.126 0.046 6.94 13.1 9.46
9/1/2021 7:30:00 PM 15.05 59.09 0.046 6.94 2.96 9.45
9/1/2021 7:45:00 PM 15.02 59.036 0.047 6.93 12.18 9.44
9/1/2021 8:00:00 PM 15 59 0.047 6.95 13.13 9.43
9/1/2021 8:15:00 PM 14.97 58.946 0.047 6.96 11.38 9.42
9/1/2021 8:30:00 PM 14.94 58.892 0.047 6.93 3.42 9.42
9/1/2021 8:45:00 PM 14.91 58.838 0.047 6.91 5.47 9.41
9/1/2021 9:00:00 PM 14.88 58.784 0.046 6.91 19.4 9.42
9/1/2021 9:15:00 PM 14.84 58.712 0.045 6.89 11.72 9.43
9/1/2021 9:30:00 PM 14.79 58.622 0.047 6.92 17.05 9.43
9/1/2021 9:45:00 PM 14.74 58.532 0.048 6.91 2.61 9.44
9/1/2021 10:00:00 PM 14.68 58.424 0.048 6.87 2.74 9.45
9/1/2021 10:15:00 PM 14.62 58.316 0.048 6.9 3.02 9.46
9/1/2021 10:30:00 PM 14.57 58.226 0.047 6.87 6.15 9.47
9/1/2021 10:45:00 PM 14.51 58.118 0.045 6.86 5.9 9.49
9/1/2021 11:00:00 PM 14.45 58.01 0.048 6.88 2.69 9.5
9/1/2021 11:15:00 PM 14.38 57.884 0.048 6.89 3.05 9.51
9/1/2021 11:30:00 PM 14.32 57.776 0.048 6.88 3.29 9.53
9/1/2021 11:45:00 PM 14.26 57.668 0.048 6.88 7.94 9.54
9/2/2021 12:00:00 AM 14.19 57.542 0.047 6.9 8.7 9.56
9/2/2021 12:15:00 AM 14.13 57.434 0.048 6.87 7.01 9.57
9/2/2021 12:30:00 AM 14.07 57.326 0.047 6.88 8.37 9.59
9/2/2021 12:45:00 AM 14.01 57.218 0.046 6.89 9.72 9.6
9/2/2021 1:00:00 AM 13.95 57.11 0.045 6.86 7.14 9.61
9/2/2021 1:15:00 AM 13.88 56.984 0.046 6.88 10.52 9.63
9/2/2021 1:30:00 AM 13.82 56.876 0.048 6.85 7.21 9.64
9/2/2021 1:45:00 AM 13.75 56.75 0.047 6.88 10.08 9.66
9/2/2021 2:00:00 AM 13.7 56.66 0.048 6.88 5.24 9.67
9/2/2021 2:15:00 AM 13.64 56.552 0.047 6.87 7.64 9.68
9/2/2021 2:30:00 AM 13.58 56.444 0.048 6.89 7.75 9.69
9/2/2021 2:45:00 AM 13.53 56.354 0.046 6.9 5.65 9.7
9/2/2021 3:00:00 AM 13.47 56.246 0.048 6.89 10.86 9.72
9/2/2021 3:15:00 AM 13.41 56.138 0.048 6.88 4.58 9.73
9/2/2021 3:30:00 AM 13.35 56.03 0.047 6.88 4.43 9.75
9/2/2021 3:45:00 AM 13.29 55.922 0.048 6.88 5.06 9.76
9/2/2021 4:00:00 AM 13.24 55.832 0.045 6.87 6.09 9.77
9/2/2021 4:15:00 AM 13.18 55.724 0.048 6.88 5.36 9.79
9/2/2021 4:30:00 AM 13.12 55.616 0.048 6.88 3.3 9.8
9/2/2021 4:45:00 AM 13.06 55.508 0.048 6.88 3.01 9.82
9/2/2021 5:00:00 AM 13.01 55.418 0.048 6.89 4.95 9.84
9/2/2021 5:15:00 AM 12.95 55.31 0.048 6.9 4.89 9.85
9/2/2021 5:30:00 AM 12.9 55.22 0.048 6.89 3.62 9.86
9/2/2021 5:45:00 AM 12.85 55.13 0.046 6.87 4.44 9.87
9/2/2021 6:00:00 AM 12.8 55.04 0.048 6.88 4.62 9.89
9/2/2021 6:15:00 AM 12.74 54.932 0.048 6.88 5.31 9.91
9/2/2021 6:30:00 AM 12.69 54.842 0.047 6.89 4.62 9.92
9/2/2021 6:45:00 AM 12.63 54.734 0.048 6.89 3.19 9.93
9/2/2021 7:00:00 AM 12.58 54.644 0.047 6.89 5 9.95
9/2/2021 7:15:00 AM 12.53 54.554 0.045 6.89 3.85 9.99
9/2/2021 7:30:00 AM 12.49 54.482 0.048 6.91 4.94 10.02
9/2/2021 7:45:00 AM 12.45 54.41 0.048 6.91 5.63 10.05
9/2/2021 8:00:00 AM 12.42 54.356 0.046 6.9 3.66 10.08
9/2/2021 8:15:00 AM 12.41 54.338 0.048 6.92 3.8 10.1
9/2/2021 8:30:00 AM 12.41 54.338 0.048 6.94 2.56 10.13
9/2/2021 8:45:00 AM 12.42 54.356 0.048 6.94 2.58 10.15
9/2/2021 9:00:00 AM 12.44 54.392 0.048 6.94 3.47 10.16
9/2/2021 9:15:00 AM 12.47 54.446 0.047 6.96 2.52 10.17
9/2/2021 9:30:00 AM 12.52 54.536 0.047 6.96 2.9 10.19
9/2/2021 9:45:00 AM 12.57 54.626 0.047 6.97 3.47 10.19
9/2/2021 10:00:00 AM 12.63 54.734 0.047